Provisional Data: Sing Sing Creek near Big Flats, NY


Please select a monitoring station.
Please select start date.
Please select start date.

Toggle Unit: C/F Toggle Unit: C/F
Sample Time Temperature (C) Temperature (F) Specific Conductivity (mS/cm) pH   Turbidity (NTU+) DO (mg/L)
12/11/2021 12:00:00 AM 6.83 44.294 0.428 7.62 2.71 11.54
12/11/2021 12:15:00 AM 6.82 44.276 0.428 7.62 2.83 11.52
12/11/2021 12:30:00 AM 6.82 44.276 0.428 7.61 2.7 11.49
12/11/2021 12:45:00 AM 6.82 44.276 0.427 7.61 2.76 11.49
12/11/2021 1:00:00 AM 6.82 44.276 0.427 7.6 2.82 11.47
12/11/2021 1:15:00 AM 6.81 44.258 0.426 7.6 2.74 11.46
12/11/2021 1:30:00 AM 6.8 44.24 0.425 7.6 2.7 11.45
12/11/2021 1:45:00 AM 6.8 44.24 0.425 7.6 2.73 11.45
12/11/2021 2:00:00 AM 6.8 44.24 0.424 7.59 2.63 11.44
12/11/2021 2:15:00 AM 6.79 44.222 0.423 7.59 2.63 11.43
12/11/2021 2:30:00 AM 6.8 44.24 0.423 7.58 2.76 11.41
12/11/2021 2:45:00 AM 6.81 44.258 0.423 7.58 2.73 11.37
12/11/2021 3:00:00 AM 6.82 44.276 0.422 7.58 2.77 11.38
12/11/2021 3:15:00 AM 6.83 44.294 0.422 7.57 2.86 11.39
12/11/2021 3:30:00 AM 6.84 44.312 0.423 7.56 2.77 11.32
12/11/2021 3:45:00 AM 6.85 44.33 0.422 7.56 3.98 11.31
12/11/2021 4:00:00 AM 6.86 44.348 0.421 7.57 2.96 11.34
12/11/2021 4:15:00 AM 6.87 44.366 0.42 7.56 2.78 11.35
12/11/2021 4:30:00 AM 6.88 44.384 0.42 7.56 2.89 11.35
12/11/2021 4:45:00 AM 6.9 44.42 0.419 7.57 2.77 11.34
12/11/2021 5:00:00 AM 6.91 44.438 0.418 7.56 3.1 11.34
12/11/2021 5:15:00 AM 6.92 44.456 0.417 7.57 3 11.38
12/11/2021 5:30:00 AM 6.94 44.492 0.416 7.56 3.13 11.32
12/11/2021 5:45:00 AM 6.96 44.528 0.415 7.57 3.1 11.35
12/11/2021 6:00:00 AM 6.98 44.564 0.414 7.57 3.16 11.36
12/11/2021 6:15:00 AM 7 44.6 0.412 7.56 3.53 11.38
12/11/2021 6:30:00 AM 7 44.6 0.427 7.57 9.39 11.4
12/11/2021 6:45:00 AM 7.02 44.636 0.421 7.56 7.06 11.31
12/11/2021 7:00:00 AM 7.04 44.672 0.412 7.55 5.45 11.32
12/11/2021 7:15:00 AM 7.07 44.726 0.409 7.55 5.49 11.32
12/11/2021 7:30:00 AM 7.09 44.762 0.406 7.53 6.21 11.27
12/11/2021 7:45:00 AM 7.1 44.78 0.406 7.54 7.29 11.24
12/11/2021 8:00:00 AM 7.13 44.834 0.404 7.54 7.78 11.27
12/11/2021 8:15:00 AM 7.14 44.852 0.402 7.53 7.09 11.22
12/11/2021 8:30:00 AM 7.17 44.906 0.402 7.51 7.57 11.2
12/11/2021 8:45:00 AM 7.19 44.942 0.399 7.54 7.49 11.33
12/11/2021 9:00:00 AM 7.21 44.978 0.398 7.55 8.26 11.36
12/11/2021 9:15:00 AM 7.24 45.032 0.396 7.56 8.2 11.38
12/11/2021 9:30:00 AM 7.26 45.068 0.395 7.55 8.92 11.43
12/11/2021 9:45:00 AM 7.29 45.122 0.392 7.55 8.36 11.5
12/11/2021 10:00:00 AM 7.32 45.176 0.388 7.57 9 11.51
12/11/2021 10:15:00 AM 7.35 45.23 0.385 7.59 8.53 11.64
12/11/2021 10:30:00 AM 7.38 45.284 0.384 7.59 8.21 11.68
12/11/2021 10:45:00 AM 7.41 45.338 0.382 7.59 8.7 11.71
12/11/2021 11:00:00 AM 7.44 45.392 0.379 7.61 10.21 11.84
12/11/2021 11:15:00 AM 7.47 45.446 0.376 7.62 9.46 11.92
12/11/2021 11:30:00 AM 7.5 45.5 0.376 7.62 10.78 11.95
12/11/2021 11:45:00 AM 7.55 45.59 0.382 7.64 11.91 11.99
12/11/2021 12:00:00 PM 7.6 45.68 0.394 7.66 12.64 12.02
12/11/2021 12:15:00 PM 7.63 45.734 0.397 7.66 17.03 12.03
12/11/2021 12:30:00 PM 7.62 45.716 0.398 7.65 21.56 11.99
12/11/2021 12:45:00 PM 7.57 45.626 0.395 7.61 26.49 11.95
12/11/2021 1:00:00 PM 7.5 45.5 0.372 7.59 31.53 11.96
12/11/2021 1:15:00 PM 7.4 45.32 0.342 7.56 32.77 11.98
12/11/2021 1:30:00 PM 7.33 45.194 0.327 7.56 30.6 12.01
12/11/2021 1:45:00 PM 7.29 45.122 0.345 7.54 33.28 12.05
12/11/2021 2:00:00 PM 7.27 45.086 0.422 7.53 36.06 12.01
12/11/2021 2:15:00 PM 7.29 45.122 0.543 7.51 29.15 11.93
12/11/2021 2:30:00 PM 7.32 45.176 0.625 7.51 33.29 11.91
12/11/2021 2:45:00 PM 7.3 45.14 0.599 7.49 30.94 11.97
12/11/2021 3:00:00 PM 7.26 45.068 0.497 7.48 31.96 12.01
12/11/2021 3:15:00 PM 7.26 45.068 0.41 7.47 31.76 12
12/11/2021 3:30:00 PM 7.25 45.05 0.334 7.47 40.63 12.06
12/11/2021 3:45:00 PM 7.27 45.086 0.284 7.45 46.66 12.05
12/11/2021 4:00:00 PM 7.27 45.086 0.265 7.43 47.44 12.02
12/11/2021 4:15:00 PM 7.27 45.086 0.254 7.41 48.37 11.96
12/11/2021 4:30:00 PM 7.26 45.068 0.252 7.39 60.04 11.93
12/11/2021 4:45:00 PM 7.25 45.05 0.251 7.38 63.17 11.9
12/11/2021 5:00:00 PM 7.26 45.068 0.252 7.36 60.86 11.85
12/11/2021 5:15:00 PM 7.28 45.104 0.252 7.35 60.92 11.78
12/11/2021 5:30:00 PM 7.3 45.14 0.252 7.34 67.84 11.76
12/11/2021 5:45:00 PM 7.32 45.176 0.251 7.34 58.66 11.76
12/11/2021 6:00:00 PM 7.36 45.248 0.251 7.34 55.37 11.76
12/11/2021 6:15:00 PM 7.4 45.32 0.252 7.34 55.9 11.71
12/11/2021 6:30:00 PM 7.45 45.41 0.254 7.34 49.32 11.72
12/11/2021 6:45:00 PM 7.48 45.464 0.256 7.34 51.32 11.67
12/11/2021 7:00:00 PM 7.52 45.536 0.258 7.33 51.34 11.61
12/11/2021 7:15:00 PM 7.56 45.608 0.26 7.32 50.76 11.62
12/11/2021 7:30:00 PM 7.58 45.644 0.263 7.34 38.71 11.58
12/11/2021 7:45:00 PM 7.61 45.698 0.266 7.35 36.54 11.55
12/11/2021 8:00:00 PM 7.64 45.752 0.268 7.35 40.06 11.52
12/11/2021 8:15:00 PM 7.66 45.788 0.271 7.35 36.34 11.45
12/11/2021 8:30:00 PM 7.68 45.824 0.273 7.35 35.77 11.42
12/11/2021 8:45:00 PM 7.7 45.86 0.276 7.37 35.49 11.41
12/11/2021 9:00:00 PM 7.71 45.878 0.277 7.37 32.24 11.39
12/11/2021 9:15:00 PM 7.71 45.878 0.28 7.36 33 11.31
12/11/2021 9:30:00 PM 7.71 45.878 0.282 7.36 34.9 11.27
12/11/2021 9:45:00 PM 7.69 45.842 0.284 7.37 32.21 11.28
12/11/2021 10:00:00 PM 7.68 45.824 0.285 7.37 32.32 11.28
12/11/2021 10:15:00 PM 7.67 45.806 0.286 7.37 27.48 11.26
12/11/2021 10:30:00 PM 7.66 45.788 0.287 7.38 29.79 11.29
12/11/2021 10:45:00 PM 7.64 45.752 0.288 7.38 29.49 11.27
12/11/2021 11:00:00 PM 7.63 45.734 0.29 7.37 27.26 11.25
12/11/2021 11:15:00 PM 7.6 45.68 0.291 7.37 26.33 11.28
12/11/2021 11:30:00 PM 7.59 45.662 0.292 7.37 22.76 11.25
12/11/2021 11:45:00 PM 7.57 45.626 0.293 7.38 20.89 11.26
12/12/2021 12:00:00 AM 7.54 45.572 0.294 7.39 21.17 11.27
12/12/2021 12:15:00 AM 7.51 45.518 0.295 7.38 21.15 11.27
12/12/2021 12:30:00 AM 7.48 45.464 0.296 7.39 18.62 11.25
12/12/2021 12:45:00 AM 7.45 45.41 0.297 7.39 20.46 11.27
12/12/2021 1:00:00 AM 7.43 45.374 0.298 7.38 17.29 11.27
12/12/2021 1:15:00 AM 7.4 45.32 0.298 7.38 17.38 11.28
12/12/2021 1:30:00 AM 7.38 45.284 0.299 7.39 15.47 11.27
12/12/2021 1:45:00 AM 7.36 45.248 0.3 7.39 15.28 11.26
12/12/2021 2:00:00 AM 7.34 45.212 0.3 7.39 15.01 11.3
12/12/2021 2:15:00 AM 7.31 45.158 0.3 7.38 12.87 11.31
12/12/2021 2:30:00 AM 7.28 45.104 0.301 7.39 14.72 11.31
12/12/2021 2:45:00 AM 7.25 45.05 0.3 7.39 12.91 11.33
12/12/2021 3:00:00 AM 7.21 44.978 0.301 7.38 13.09 11.31
12/12/2021 3:15:00 AM 7.17 44.906 0.301 7.39 12.64 11.35
12/12/2021 3:30:00 AM 7.15 44.87 0.302 7.38 11.2 11.36
12/12/2021 3:45:00 AM 7.12 44.816 0.302 7.39 11.76 11.37
12/12/2021 4:00:00 AM 7.09 44.762 0.303 7.39 11.39 11.37
12/12/2021 4:15:00 AM 7.05 44.69 0.303 7.38 10.85 11.4
12/12/2021 4:30:00 AM 7.01 44.618 0.304 7.39 9.77 11.43
12/12/2021 4:45:00 AM 6.97 44.546 0.305 7.38 10.05 11.42
12/12/2021 5:00:00 AM 6.92 44.456 0.305 7.38 9.31 11.41
12/12/2021 5:15:00 AM 6.88 44.384 0.305 7.39 9.53 11.46
12/12/2021 5:30:00 AM 6.83 44.294 0.305 7.39 8.57 11.45
12/12/2021 5:45:00 AM 6.78 44.204 0.306 7.39 8.77 11.44
12/12/2021 6:00:00 AM 6.73 44.114 0.306 7.39 9.18 11.49
12/12/2021 6:15:00 AM 6.69 44.042 0.306 7.39 8.62 11.5
12/12/2021 6:30:00 AM 6.65 43.97 0.307 7.39 8.3 11.51
12/12/2021 6:45:00 AM 6.61 43.898 0.307 7.39 8.22 11.57
12/12/2021 7:00:00 AM 6.58 43.844 0.308 7.4 9 11.58
12/12/2021 7:15:00 AM 6.54 43.772 0.309 7.39 8.62 11.59
12/12/2021 7:30:00 AM 6.5 43.7 0.31 7.39 8.08 11.57
12/12/2021 7:45:00 AM 6.48 43.664 0.311 7.37 8.58 11.57
12/12/2021 8:00:00 AM 6.43 43.574 0.311 7.39 8.04 11.61
12/12/2021 8:15:00 AM 6.39 43.502 0.31 7.39 7.3 11.68
12/12/2021 8:30:00 AM 6.36 43.448 0.311 7.39 7.56 11.69
12/12/2021 8:45:00 AM 6.33 43.394 0.311 7.39 8.58 11.74
12/12/2021 9:00:00 AM 6.3 43.34 0.312 7.39 7.77 11.78
12/12/2021 9:15:00 AM 6.26 43.268 0.312 7.4 9.61 11.82
12/12/2021 9:30:00 AM 6.23 43.214 0.313 7.39 8.05 11.9
12/12/2021 9:45:00 AM 6.21 43.178 0.313 7.42 7.82 11.97
12/12/2021 10:00:00 AM 6.19 43.142 0.313 7.43 7.83 12.02
12/12/2021 10:15:00 AM 6.18 43.124 0.313 7.44 7.68 12.12
12/12/2021 10:30:00 AM 6.18 43.124 0.313 7.44 7.73 12.17
12/12/2021 10:45:00 AM 6.17 43.106 0.313 7.46 7.48 12.28
12/12/2021 11:00:00 AM 6.17 43.106 0.314 7.47 7.82 12.32
12/12/2021 11:15:00 AM 6.17 43.106 0.315 7.47 7.18 12.38
12/12/2021 11:30:00 AM 6.18 43.124 0.316 7.49 7.24 12.49
12/12/2021 11:45:00 AM 6.19 43.142 0.316 7.51 7.58 12.56
12/12/2021 12:00:00 PM 6.19 43.142 0.316 7.52 7.13 12.66
12/12/2021 12:15:00 PM 6.23 43.214 0.316 7.54 7.79 12.79
12/12/2021 12:30:00 PM 6.28 43.304 0.316 7.55 8.05 12.88
12/12/2021 12:45:00 PM 6.35 43.43 0.316 7.58 6.52 13.04
12/12/2021 1:00:00 PM 6.43 43.574 0.318 7.61 6.6 13.14
12/12/2021 1:15:00 PM 6.49 43.682 0.318 7.63 7.72 13.26
12/12/2021 1:30:00 PM 6.55 43.79 0.318 7.65 8.17 13.31
12/12/2021 1:45:00 PM 6.6 43.88 0.318 7.67 6.08 13.37
12/12/2021 2:00:00 PM 6.64 43.952 0.319 7.68 5.95 13.4
12/12/2021 2:15:00 PM 6.68 44.024 0.32 7.68 5.68 13.43
12/12/2021 2:30:00 PM 6.71 44.078 0.32 7.7 5.41 13.42
12/12/2021 2:45:00 PM 6.72 44.096 0.321 7.69 5.72 13.38
12/12/2021 3:00:00 PM 6.73 44.114 0.322 7.68 5.75 13.4
12/12/2021 3:15:00 PM 6.74 44.132 0.322 7.71 5.06 13.35
12/12/2021 3:30:00 PM 6.73 44.114 0.323 7.71 5.32 13.36
12/12/2021 3:45:00 PM 6.72 44.096 0.323 7.7 5.65 13.31
12/12/2021 4:00:00 PM 6.7 44.06 0.324 7.69 5.74 13.27
12/12/2021 4:15:00 PM 6.67 44.006 0.325 7.69 5.78 13.18
12/12/2021 4:30:00 PM 6.65 43.97 0.326 7.68 5.56 13.17
12/12/2021 4:45:00 PM 6.62 43.916 0.326 7.67 5.57 13.1
12/12/2021 5:00:00 PM 6.58 43.844 0.326 7.68 5.57 13.05
12/12/2021 5:15:00 PM 6.56 43.808 0.326 7.66 5.68 12.96
12/12/2021 5:30:00 PM 6.53 43.754 0.327 7.65 6.04 12.9
12/12/2021 5:45:00 PM 6.5 43.7 0.328 7.64 6.16 12.79
12/12/2021 6:00:00 PM 6.47 43.646 0.329 7.57 5.47 12.72
12/12/2021 6:15:00 PM 6.44 43.592 0.328 7.62 5.23 12.67
12/12/2021 6:30:00 PM 6.42 43.556 0.329 7.61 5.47 12.61
12/12/2021 6:45:00 PM 6.39 43.502 0.33 7.6 5.1 12.51
12/12/2021 7:00:00 PM 6.36 43.448 0.33 7.59 5.25 12.44
12/12/2021 7:15:00 PM 6.33 43.394 0.331 7.58 5.03 12.37
12/12/2021 7:30:00 PM 6.31 43.358 0.332 7.55 4.52 12.3
12/12/2021 7:45:00 PM 6.27 43.286 0.331 7.56 4.8 12.27
12/12/2021 8:00:00 PM 6.24 43.232 0.332 7.55 4.67 12.24
12/12/2021 8:15:00 PM 6.22 43.196 0.332 7.54 4.69 12.17
12/12/2021 8:30:00 PM 6.2 43.16 0.333 7.53 4.83 12.12
12/12/2021 8:45:00 PM 6.17 43.106 0.334 7.53 4.51 12.1
12/12/2021 9:00:00 PM 6.15 43.07 0.335 7.51 4.63 12.06
12/12/2021 9:15:00 PM 6.14 43.052 0.335 7.51 4.73 12.03
12/12/2021 9:30:00 PM 6.12 43.016 0.335 7.52 4.73 12
12/12/2021 9:45:00 PM 6.11 42.998 0.336 7.5 4.68 11.97
12/12/2021 10:00:00 PM 6.1 42.98 0.336 7.49 4.46 11.93
12/12/2021 10:15:00 PM 6.08 42.944 0.337 7.49 4.45 11.93
12/12/2021 10:30:00 PM 6.07 42.926 0.337 7.49 4.36 11.93
12/12/2021 10:45:00 PM 6.06 42.908 0.337 7.49 4.38 11.9
12/12/2021 11:00:00 PM 6.04 42.872 0.337 7.49 4.28 11.91
12/12/2021 11:15:00 PM 6.03 42.854 0.338 7.44 4.1 11.88
12/12/2021 11:30:00 PM 6.01 42.818 0.338 7.48 4.09 11.88
12/12/2021 11:45:00 PM 6.01 42.818 0.339 7.46 4.16 11.85
12/13/2021 12:00:00 AM 6 42.8 0.339 7.47 4.13 11.86
12/13/2021 12:15:00 AM 5.99 42.782 0.34 7.46 4.14 11.82
12/13/2021 12:30:00 AM 5.98 42.764 0.341 7.47 4.09 11.83
12/13/2021 12:45:00 AM 5.97 42.746 0.341 7.46 3.93 11.84
12/13/2021 1:00:00 AM 5.96 42.728 0.341 7.46 3.89 11.83
12/13/2021 1:15:00 AM 5.94 42.692 0.341 7.47 4.26 11.87
12/13/2021 1:30:00 AM 5.94 42.692 0.342 7.46 4.33 11.84
12/13/2021 1:45:00 AM 5.93 42.674 0.343 7.45 4.89 11.84
12/13/2021 2:00:00 AM 5.91 42.638 0.343 7.46 4.21 11.85
12/13/2021 2:15:00 AM 5.9 42.62 0.343 7.45 3.92 11.83
12/13/2021 2:30:00 AM 5.87 42.566 0.344 7.46 4.1 11.85
12/13/2021 2:45:00 AM 5.86 42.548 0.344 7.46 3.91 11.84
12/13/2021 3:00:00 AM 5.84 42.512 0.344 7.46 3.81 11.87
12/13/2021 3:15:00 AM 5.83 42.494 0.345 7.45 4.07 11.84
12/13/2021 3:30:00 AM 5.81 42.458 0.345 7.44 3.86 11.86
12/13/2021 3:45:00 AM 5.8 42.44 0.345 7.45 3.92 11.85
12/13/2021 4:00:00 AM 5.79 42.422 0.345 7.45 3.8 11.86
12/13/2021 4:15:00 AM 5.78 42.404 0.345 7.45 3.66 11.87
12/13/2021 4:30:00 AM 5.77 42.386 0.346 7.45 3.82 11.87
12/13/2021 4:45:00 AM 5.76 42.368 0.346 7.45 4.23 11.84
12/13/2021 5:00:00 AM 5.76 42.368 0.346 7.45 3.82 11.85
12/13/2021 5:15:00 AM 5.75 42.35 0.346 7.44 4.06 11.84
12/13/2021 5:30:00 AM 5.74 42.332 0.346 7.46 4.05 11.88
12/13/2021 5:45:00 AM 5.74 42.332 0.347 7.44 3.95 11.9
12/13/2021 6:00:00 AM 5.74 42.332 0.346 7.45 4.16 11.89
12/13/2021 6:15:00 AM 5.74 42.332 0.347 7.45 3.96 11.91
12/13/2021 6:30:00 AM 5.73 42.314 0.347 7.46 3.98 11.91
12/13/2021 6:45:00 AM 5.73 42.314 0.348 7.45 4.03 11.88
12/13/2021 7:00:00 AM 5.72 42.296 0.348 7.46 4.13 11.9
12/13/2021 7:15:00 AM 5.72 42.296 0.348 7.43 4.05 11.91
12/13/2021 7:30:00 AM 5.72 42.296 0.349 7.46 4.13 11.9
12/13/2021 7:45:00 AM 5.72 42.296 0.349 7.46 3.93 11.91
12/13/2021 8:00:00 AM 5.72 42.296 0.349 7.46 4.4 11.94
12/13/2021 8:15:00 AM 5.72 42.296 0.349 7.46 4.2 11.96
12/13/2021 8:30:00 AM 5.72 42.296 0.349 7.45 3.76 12.01
12/13/2021 8:45:00 AM 5.72 42.296 0.35 7.47 3.7 12.05
12/13/2021 9:00:00 AM 5.72 42.296 0.35 7.47 3.59 12.11
12/13/2021 9:15:00 AM 5.72 42.296 0.35 7.48 3.79 12.15
12/13/2021 9:30:00 AM 5.71 42.278 0.35 7.48 3.84 12.23
12/13/2021 9:45:00 AM 5.72 42.296 0.351 7.49 4.23 12.28
12/13/2021 10:00:00 AM 5.73 42.314 0.351 7.5 4.6 12.33
12/13/2021 10:15:00 AM 5.75 42.35 0.351 7.51 4.77 12.41
12/13/2021 10:30:00 AM 5.76 42.368 0.351 7.52 4.99 12.48
12/13/2021 10:45:00 AM 5.78 42.404 0.352 7.53 4.74 12.59
12/13/2021 11:00:00 AM 5.8 42.44 0.351 7.54 4.86 12.66
12/13/2021 11:15:00 AM 5.83 42.494 0.352 7.56 4.82 12.75
12/13/2021 11:30:00 AM 5.87 42.566 0.352 7.57 4.48 12.83
12/13/2021 11:45:00 AM 5.9 42.62 0.352 7.57 4.43 12.9
12/13/2021 12:00:00 PM 5.92 42.656 0.352 7.59 4.37 12.96
12/13/2021 12:15:00 PM 5.96 42.728 0.353 7.6 4.19 13.05
12/13/2021 12:30:00 PM 6 42.8 0.353 7.62 4.06 13.11
12/13/2021 12:45:00 PM 6.05 42.89 0.354 7.63 4.17 13.2
12/13/2021 1:00:00 PM 6.13 43.034 0.354 7.65 3.88 13.31
12/13/2021 1:15:00 PM 6.23 43.214 0.354 7.68 3.78 13.45
12/13/2021 1:30:00 PM 6.32 43.376 0.354 7.7 3.61 13.57
12/13/2021 1:45:00 PM 6.39 43.502 0.354 7.72 3.61 13.63
12/13/2021 2:00:00 PM 6.46 43.628 0.354 7.74 3.59 13.7
12/13/2021 2:15:00 PM 6.52 43.736 0.354 7.76 3.46 13.72
12/13/2021 2:30:00 PM 6.58 43.844 0.355 7.77 3.33 13.73
12/13/2021 2:45:00 PM 6.63 43.934 0.355 7.77 3.57 13.74
12/13/2021 3:00:00 PM 6.67 44.006 0.355 7.79 3.23 13.71
12/13/2021 3:15:00 PM 6.7 44.06 0.356 7.8 3.4 13.69
12/13/2021 3:30:00 PM 6.72 44.096 0.356 7.8 3.21 13.65
12/13/2021 3:45:00 PM 6.74 44.132 0.356 7.79 3.22 13.6
12/13/2021 4:00:00 PM 6.75 44.15 0.357 7.77 3.48 13.49
12/13/2021 4:15:00 PM 6.74 44.132 0.358 7.77 3.42 13.47
12/13/2021 4:30:00 PM 6.73 44.114 0.357 7.73 3.62 13.38
12/13/2021 4:45:00 PM 6.72 44.096 0.357 7.75 3.43 13.28
12/13/2021 5:00:00 PM 6.71 44.078 0.358 7.69 3.31 13.17
12/13/2021 5:15:00 PM 6.69 44.042 0.358 7.73 3.86 13.1
12/13/2021 5:30:00 PM 6.68 44.024 0.358 7.72 3.42 12.99
12/13/2021 5:45:00 PM 6.65 43.97 0.358 7.71 3.47 12.9
12/13/2021 6:00:00 PM 6.63 43.934 0.358 7.7 3.49 12.82
12/13/2021 6:15:00 PM 6.61 43.898 0.359 7.68 3.5 12.74
12/13/2021 6:30:00 PM 6.59 43.862 0.358 7.67 3.45 12.63
12/13/2021 6:45:00 PM 6.57 43.826 0.359 7.66 3.68 12.55
12/13/2021 7:00:00 PM 6.55 43.79 0.359 7.64 3.48 12.5
12/13/2021 7:15:00 PM 6.53 43.754 0.359 7.61 3.57 12.43
12/13/2021 7:30:00 PM 6.52 43.736 0.36 7.61 3.49 12.35
12/13/2021 7:45:00 PM 6.5 43.7 0.36 7.62 3.67 12.28
12/13/2021 8:00:00 PM 6.48 43.664 0.36 7.6 3.69 12.25
12/13/2021 8:15:00 PM 6.46 43.628 0.36 7.59 3.51 12.2
12/13/2021 8:30:00 PM 6.45 43.61 0.36 7.58 3.56 12.13
12/13/2021 8:45:00 PM 6.43 43.574 0.36 7.58 3.58 12.04
12/13/2021 9:00:00 PM 6.42 43.556 0.361 7.57 3.4 12.04
12/13/2021 9:15:00 PM 6.41 43.538 0.361 7.56 3.39 11.99
12/13/2021 9:30:00 PM 6.4 43.52 0.361 7.54 3.22 11.96
12/13/2021 9:45:00 PM 6.39 43.502 0.362 7.54 3.42 11.92
12/13/2021 10:00:00 PM 6.37 43.466 0.362 7.54 3.73 11.89
12/13/2021 10:15:00 PM 6.36 43.448 0.362 7.54 3.52 11.88
12/13/2021 10:30:00 PM 6.34 43.412 0.362 7.54 3.61 11.85
12/13/2021 10:45:00 PM 6.33 43.394 0.362 7.54 3.56 11.84
12/13/2021 11:00:00 PM 6.32 43.376 0.362 7.53 3.23 11.81
12/13/2021 11:15:00 PM 6.31 43.358 0.362 7.5 3.66 11.77
12/13/2021 11:30:00 PM 6.3 43.34 0.363 7.52 3.23 11.77
12/13/2021 11:45:00 PM 6.29 43.322 0.363 7.51 3.18 11.77
12/14/2021 12:00:00 AM 6.28 43.304 0.363 7.51 3.32 11.75
12/14/2021 12:15:00 AM 6.27 43.286 0.363 7.52 3.46 11.76
12/14/2021 12:30:00 AM 6.28 43.304 0.364 7.5 3.36 11.72
12/14/2021 12:45:00 AM 6.27 43.286 0.364 7.47 3.48 11.72
12/14/2021 1:00:00 AM 6.27 43.286 0.364 7.5 3.31 11.7
12/14/2021 1:15:00 AM 6.26 43.268 0.364 7.46 3.41 11.68
12/14/2021 1:30:00 AM 6.24 43.232 0.364 7.5 3.51 11.7
12/14/2021 1:45:00 AM 6.24 43.232 0.364 7.5 3.34 11.71
12/14/2021 2:00:00 AM 6.22 43.196 0.364 7.49 3.27 11.7
12/14/2021 2:15:00 AM 6.2 43.16 0.364 7.49 3.33 11.69
12/14/2021 2:30:00 AM 6.18 43.124 0.364 7.49 3.24 11.71
12/14/2021 2:45:00 AM 6.16 43.088 0.364 7.48 3.17 11.7
12/14/2021 3:00:00 AM 6.14 43.052 0.365 7.49 3.37 11.72
12/14/2021 3:15:00 AM 6.12 43.016 0.365 7.48 3.09 11.68
12/14/2021 3:30:00 AM 6.09 42.962 0.365 7.49 3.21 11.71
12/14/2021 3:45:00 AM 6.07 42.926 0.364 7.48 3.28 11.74
12/14/2021 4:00:00 AM 6.04 42.872 0.364 7.48 3.36 11.72
12/14/2021 4:15:00 AM 6 42.8 0.364 7.48 3.45 11.76
12/14/2021 4:30:00 AM 5.97 42.746 0.365 7.48 3.44 11.78
12/14/2021 4:45:00 AM 5.94 42.692 0.365 7.47 3.54 11.73
12/14/2021 5:00:00 AM 5.9 42.62 0.364 7.48 3.54 11.77
12/14/2021 5:15:00 AM 5.86 42.548 0.364 7.48 3.52 11.81
12/14/2021 5:30:00 AM 5.81 42.458 0.362 7.49 3.55 11.81
12/14/2021 5:45:00 AM 5.78 42.404 0.363 7.47 3.78 11.78
12/14/2021 6:00:00 AM 5.74 42.332 0.363 7.47 3.29 11.79
12/14/2021 6:15:00 AM 5.7 42.26 0.363 7.47 3.23 11.81
12/14/2021 6:30:00 AM 5.66 42.188 0.363 7.47 3.55 11.81
12/14/2021 6:45:00 AM 5.62 42.116 0.362 7.48 3.39 11.85
12/14/2021 7:00:00 AM 5.58 42.044 0.362 7.48 3.48 11.85
12/14/2021 7:15:00 AM 5.55 41.99 0.362 7.48 3.61 11.87
12/14/2021 7:30:00 AM 5.51 41.918 0.362 7.47 4.11 11.91
12/14/2021 7:45:00 AM 5.48 41.864 0.362 7.48 6.48 11.93
12/14/2021 8:00:00 AM 5.45 41.81 0.362 7.48 3.88 11.95
12/14/2021 8:15:00 AM 5.43 41.774 0.362 7.48 3.7 11.98
12/14/2021 8:30:00 AM 5.41 41.738 0.363 7.49 3.61 12.08
12/14/2021 8:45:00 AM 5.4 41.72 0.363 7.5 3.72 12.13
12/14/2021 9:00:00 AM 5.42 41.756 0.363 7.5 3.9 12.22
12/14/2021 9:15:00 AM 5.42 41.756 0.363 7.49 3.53 12.27
12/14/2021 9:30:00 AM 5.43 41.774 0.363 7.52 3.6 12.39
12/14/2021 9:45:00 AM 5.45 41.81 0.364 7.54 4.31 12.5
12/14/2021 10:00:00 AM 5.46 41.828 0.363 7.54 3.82 12.56
12/14/2021 10:15:00 AM 5.48 41.864 0.363 7.55 5.2 12.61
12/14/2021 10:30:00 AM 5.52 41.936 0.363 7.56 4.66 12.76
12/14/2021 10:45:00 AM 5.55 41.99 0.363 7.58 7.62 12.87
12/14/2021 11:00:00 AM 5.58 42.044 0.364 7.58 4.99 12.9
12/14/2021 11:15:00 AM 5.62 42.116 0.364 7.61 5.66 13.04
12/14/2021 11:30:00 AM 5.68 42.224 0.364 7.63 4.77 13.18
12/14/2021 11:45:00 AM 5.75 42.35 0.364 7.63 3.98 13.31
12/14/2021 12:00:00 PM 5.81 42.458 0.364 7.65 3.87 13.41
12/14/2021 12:15:00 PM 5.88 42.584 0.365 7.67 3.83 13.49
12/14/2021 12:30:00 PM 5.92 42.656 0.364 7.7 3.73 13.62
12/14/2021 12:45:00 PM 5.97 42.746 0.364 7.71 3.71 13.7
12/14/2021 1:00:00 PM 6.02 42.836 0.364 7.72 3.88 13.76
12/14/2021 1:15:00 PM 6.07 42.926 0.365 7.73 4.04 13.82
12/14/2021 1:30:00 PM 6.11 42.998 0.365 7.75 3.96 13.87
12/14/2021 1:45:00 PM 6.14 43.052 0.364 7.77 4.06 13.9
12/14/2021 2:00:00 PM 6.18 43.124 0.365 7.78 4.4 13.95
12/14/2021 2:15:00 PM 6.21 43.178 0.365 7.77 4.6 13.98
12/14/2021 2:30:00 PM 6.26 43.268 0.365 7.8 4.49 14.01
12/14/2021 2:45:00 PM 6.29 43.322 0.365 7.8 3.92 14.01
12/14/2021 3:00:00 PM 6.33 43.394 0.365 7.82 3.95 14.03
12/14/2021 3:15:00 PM 6.37 43.466 0.365 7.81 3.92 14.04
12/14/2021 3:30:00 PM 6.4 43.52 0.365 7.84 3.77 14.01
12/14/2021 3:45:00 PM 6.42 43.556 0.365 7.84 3.8 13.96
12/14/2021 4:00:00 PM 6.42 43.556 0.366 7.82 3.7 13.89
12/14/2021 4:15:00 PM 6.42 43.556 0.366 7.83 3.78 13.85
12/14/2021 4:30:00 PM 6.4 43.52 0.367 7.82 4.45 13.72
12/14/2021 4:45:00 PM 6.38 43.484 0.367 7.81 3.7 13.65
12/14/2021 5:00:00 PM 6.36 43.448 0.367 7.77 4.11 13.53
12/14/2021 5:15:00 PM 6.33 43.394 0.367 7.78 4.16 13.43
12/14/2021 5:30:00 PM 6.31 43.358 0.367 7.77 3.36 13.38
12/14/2021 5:45:00 PM 6.29 43.322 0.367 7.74 3.52 13.29
12/14/2021 6:00:00 PM 6.27 43.286 0.367 7.75 3.88 13.2
12/14/2021 6:15:00 PM 6.25 43.25 0.367 7.74 3.92 13.1
12/14/2021 6:30:00 PM 6.23 43.214 0.368 7.72 3.74 13
12/14/2021 6:45:00 PM 6.2 43.16 0.369 7.7 3.57 12.91
12/14/2021 7:00:00 PM 6.18 43.124 0.369 7.68 3.65 12.81
12/14/2021 7:15:00 PM 6.15 43.07 0.37 7.67 3.3 12.75
12/14/2021 7:30:00 PM 6.13 43.034 0.37 7.66 3.42 12.67
12/14/2021 7:45:00 PM 6.11 42.998 0.372 7.61 3.3 12.59
12/14/2021 8:00:00 PM 6.08 42.944 0.372 7.64 3.35 12.56
12/14/2021 8:15:00 PM 6.06 42.908 0.371 7.63 3.39 12.5
12/14/2021 8:30:00 PM 6.03 42.854 0.372 7.61 3.86 12.43
12/14/2021 8:45:00 PM 6.01 42.818 0.371 7.61 3.24 12.4
12/14/2021 9:00:00 PM 5.98 42.764 0.372 7.59 3.44 12.33
12/14/2021 9:15:00 PM 5.95 42.71 0.372 7.58 3.13 12.3
12/14/2021 9:30:00 PM 5.94 42.692 0.373 7.56 3.3 12.21
12/14/2021 9:45:00 PM 5.91 42.638 0.373 7.56 3.45 12.18
12/14/2021 10:00:00 PM 5.88 42.584 0.375 7.55 3.3 12.14
12/14/2021 10:15:00 PM 5.85 42.53 0.373 7.54 3.38 12.18
12/14/2021 10:30:00 PM 5.82 42.476 0.374 7.53 3.63 12.12
12/14/2021 10:45:00 PM 5.79 42.422 0.374 7.53 3.41 12.1
12/14/2021 11:00:00 PM 5.77 42.386 0.373 7.54 3.14 12.08
12/14/2021 11:15:00 PM 5.74 42.332 0.374 7.49 3.44 12.1
12/14/2021 11:30:00 PM 5.71 42.278 0.374 7.52 3.26 12.09
12/14/2021 11:45:00 PM 5.69 42.242 0.374 7.51 3.28 12.04
12/15/2021 12:00:00 AM 5.69 42.242 0.374 7.51 3.33 12.02
12/15/2021 12:15:00 AM 5.66 42.188 0.374 7.5 3.22 12.04
12/15/2021 12:30:00 AM 5.64 42.152 0.374 7.51 3.19 12.02
12/15/2021 12:45:00 AM 5.63 42.134 0.374 7.5 3.16 12.04
12/15/2021 1:00:00 AM 5.61 42.098 0.376 7.48 3.05 11.95
12/15/2021 1:15:00 AM 5.59 42.062 0.375 7.5 3.02 11.95
12/15/2021 1:30:00 AM 5.57 42.026 0.374 7.49 3.03 11.98
12/15/2021 1:45:00 AM 5.55 41.99 0.374 7.5 3.04 11.97
12/15/2021 2:00:00 AM 5.53 41.954 0.374 7.5 3.23 11.99
12/15/2021 2:15:00 AM 5.52 41.936 0.374 7.5 2.93 11.99
12/15/2021 2:30:00 AM 5.5 41.9 0.373 7.48 2.95 12
12/15/2021 2:45:00 AM 5.49 41.882 0.373 7.5 2.92 12
12/15/2021 3:00:00 AM 5.48 41.864 0.373 7.49 3.17 11.99
12/15/2021 3:15:00 AM 5.47 41.846 0.373 7.49 2.95 12.02
12/15/2021 3:30:00 AM 5.45 41.81 0.373 7.46 2.82 12.02
12/15/2021 3:45:00 AM 5.44 41.792 0.372 7.5 2.91 12.01
12/15/2021 4:00:00 AM 5.42 41.756 0.372 7.49 2.82 12
12/15/2021 4:15:00 AM 5.41 41.738 0.373 7.49 3.2 12.01
12/15/2021 4:30:00 AM 5.39 41.702 0.372 7.49 3 12.04
12/15/2021 4:45:00 AM 5.38 41.684 0.372 7.49 3.22 11.98
12/15/2021 5:00:00 AM 5.37 41.666 0.374 7.45 2.99 11.92
12/15/2021 5:15:00 AM 5.34 41.612 0.373 7.46 2.99 11.96
12/15/2021 5:30:00 AM 5.33 41.594 0.373 7.49 3.03 11.97
12/15/2021 5:45:00 AM 5.31 41.558 0.373 7.47 3.55 11.96
12/15/2021 6:00:00 AM 5.3 41.54 0.373 7.47 2.98 12
12/15/2021 6:15:00 AM 5.28 41.504 0.373 7.48 3 11.99
12/15/2021 6:30:00 AM 5.28 41.504 0.373 7.48 3.17 11.97
12/15/2021 6:45:00 AM 5.27 41.486 0.373 7.48 2.97 11.97
12/15/2021 7:00:00 AM 5.24 41.432 0.373 7.48 3.1 11.96
12/15/2021 7:15:00 AM 5.23 41.414 0.373 7.47 3.1 12.01
12/15/2021 7:30:00 AM 5.22 41.396 0.373 7.46 3.3 11.99
12/15/2021 7:45:00 AM 5.21 41.378 0.373 7.48 4.53 11.99
12/15/2021 8:00:00 AM 5.2 41.36 0.373 7.49 3.71 12.03
12/15/2021 8:15:00 AM 5.19 41.342 0.373 7.49 3.81 12.07
12/15/2021 8:30:00 AM 5.19 41.342 0.373 7.48 3.85 12.1
12/15/2021 8:45:00 AM 5.18 41.324 0.373 7.47 3.86 12.17
12/15/2021 9:00:00 AM 5.19 41.342 0.374 7.5 3.78 12.24
12/15/2021 9:15:00 AM 5.19 41.342 0.374 7.51 3.65 12.29
12/15/2021 9:30:00 AM 5.2 41.36 0.374 7.51 3.54 12.36
12/15/2021 9:45:00 AM 5.22 41.396 0.374 7.52 3.9 12.47
12/15/2021 10:00:00 AM 5.25 41.45 0.374 7.53 3.71 12.55
12/15/2021 10:15:00 AM 5.27 41.486 0.374 7.55 3.52 12.63
12/15/2021 10:30:00 AM 5.3 41.54 0.374 7.55 3.91 12.74
12/15/2021 10:45:00 AM 5.32 41.576 0.375 7.57 3.9 12.8
12/15/2021 11:00:00 AM 5.34 41.612 0.375 7.58 3.7 12.85
12/15/2021 11:15:00 AM 5.38 41.684 0.375 7.58 3.88 12.92
12/15/2021 11:30:00 AM 5.42 41.756 0.375 7.59 4.2 12.97
12/15/2021 11:45:00 AM 5.45 41.81 0.376 7.59 5.31 13.01
12/15/2021 12:00:00 PM 5.47 41.846 0.376 7.6 3.84 13.01
12/15/2021 12:15:00 PM 5.5 41.9 0.376 7.61 3.38 13.08
12/15/2021 12:30:00 PM 5.54 41.972 0.375 7.63 3.61 13.12
12/15/2021 12:45:00 PM 5.57 42.026 0.375 7.64 3.94 13.14
12/15/2021 1:00:00 PM 5.59 42.062 0.376 7.65 3.82 13.2
12/15/2021 1:15:00 PM 5.62 42.116 0.376 7.63 3.66 13.16
12/15/2021 1:30:00 PM 5.65 42.17 0.377 7.65 4.38 13.22
12/15/2021 1:45:00 PM 5.68 42.224 0.377 7.61 4.44 13.21
12/15/2021 2:00:00 PM 5.71 42.278 0.378 7.63 5.24 13.2
12/15/2021 2:15:00 PM 5.73 42.314 0.378 7.63 5.09 13.2
12/15/2021 2:30:00 PM 5.76 42.368 0.378 7.64 5.09 13.17
12/15/2021 2:45:00 PM 5.79 42.422 0.379 7.64 5.86 13.14
12/15/2021 3:00:00 PM 5.81 42.458 0.379 7.65 5.17 13.12
12/15/2021 3:15:00 PM 5.84 42.512 0.381 7.64 5.74 13.05
12/15/2021 3:30:00 PM 5.86 42.548 0.378 7.66 4.1 13.11
12/15/2021 3:45:00 PM 5.89 42.602 0.378 7.64 5.2 13.03
12/15/2021 4:00:00 PM 5.91 42.638 0.377 7.63 5.1 12.98
12/15/2021 4:15:00 PM 5.93 42.674 0.377 7.63 9.45 12.94
12/15/2021 4:30:00 PM 5.95 42.71 0.378 7.62 7.22 12.85
12/15/2021 4:45:00 PM 5.97 42.746 0.376 7.63 6.72 12.76
12/15/2021 5:00:00 PM 5.99 42.782 0.376 7.62 4.64 12.71
12/15/2021 5:15:00 PM 6.01 42.818 0.376 7.59 8.77 12.67
12/15/2021 5:30:00 PM 6.03 42.854 0.375 7.62 6.07 12.58
12/15/2021 5:45:00 PM 6.05 42.89 0.374 7.62 4.85 12.55
12/15/2021 6:00:00 PM 6.07 42.926 0.374 7.6 4.68 12.49
12/15/2021 6:15:00 PM 6.09 42.962 0.373 7.59 4.74 12.38
12/15/2021 6:30:00 PM 6.11 42.998 0.374 7.56 4.75 12.34
12/15/2021 6:45:00 PM 6.13 43.034 0.373 7.57 4.63 12.31
12/15/2021 7:00:00 PM 6.16 43.088 0.375 7.56 4.48 12.25
12/15/2021 7:15:00 PM 6.19 43.142 0.373 7.58 4.35 12.26
12/15/2021 7:30:00 PM 6.21 43.178 0.372 7.57 4.69 12.23
12/15/2021 7:45:00 PM 6.25 43.25 0.373 7.56 4.77 12.17
12/15/2021 8:00:00 PM 6.28 43.304 0.373 7.53 4.68 12.14
12/15/2021 8:15:00 PM 6.3 43.34 0.37 7.57 4.81 12.15
12/15/2021 8:30:00 PM 6.33 43.394 0.368 7.57 4.52 12.14
12/15/2021 8:45:00 PM 6.36 43.448 0.368 7.57 4.71 12.1
12/15/2021 9:00:00 PM 6.39 43.502 0.369 7.55 5.28 12.06
12/15/2021 9:15:00 PM 6.41 43.538 0.369 7.57 4.56 12.05
12/15/2021 9:30:00 PM 6.43 43.574 0.369 7.57 4.64 12
12/15/2021 9:45:00 PM 6.44 43.592 0.369 7.57 5.62 12.01
12/15/2021 10:00:00 PM 6.45 43.61 0.368 7.56 5.63 11.99
12/15/2021 10:15:00 PM 6.44 43.592 0.364 7.57 6.13 12.01
12/15/2021 10:30:00 PM 6.42 43.556 0.356 7.55 6.98 12.05
12/15/2021 10:45:00 PM 6.39 43.502 0.347 7.55 9.17 12.07
12/15/2021 11:00:00 PM 6.36 43.448 0.343 7.52 8.52 12.05
12/15/2021 11:15:00 PM 6.33 43.394 0.338 7.54 8.04 12.08
12/15/2021 11:30:00 PM 6.32 43.376 0.341 7.53 9.88 12.06
12/15/2021 11:45:00 PM 6.33 43.394 0.35 7.51 9.93 12.02
12/16/2021 12:00:00 AM 6.34 43.412 0.363 7.5 9.05 11.96
12/16/2021 12:15:00 AM 6.35 43.43 0.371 7.48 9.93 11.97
12/16/2021 12:30:00 AM 6.35 43.43 0.369 7.48 9.78 11.96
12/16/2021 12:45:00 AM 6.32 43.376 0.351 7.44 9.49 11.99
12/16/2021 1:00:00 AM 6.26 43.268 0.334 7.44 8.78 12
12/16/2021 1:15:00 AM 6.21 43.178 0.316 7.42 9.8 12
12/16/2021 1:30:00 AM 6.16 43.088 0.299 7.4 8.4 12.08
12/16/2021 1:45:00 AM 6.13 43.034 0.285 7.36 8.85 12.04
12/16/2021 2:00:00 AM 6.11 42.998 0.275 7.36 9.63 12.08
12/16/2021 2:15:00 AM 6.1 42.98 0.267 7.35 8.81 12.08
12/16/2021 2:30:00 AM 6.1 42.98 0.26 7.34 10.96 12.07
12/16/2021 2:45:00 AM 6.09 42.962 0.255 7.33 10.94 12.08
12/16/2021 3:00:00 AM 6.08 42.944 0.251 7.33 10.26 12.09
12/16/2021 3:15:00 AM 6.07 42.926 0.249 7.32 12.35 12.09
12/16/2021 3:30:00 AM 6.06 42.908 0.247 7.31 11.42 12.12
12/16/2021 3:45:00 AM 6.06 42.908 0.247 7.32 12.99 12.11
12/16/2021 4:00:00 AM 6.05 42.89 0.248 7.31 11.8 12.11
12/16/2021 4:15:00 AM 6.06 42.908 0.25 7.24 11.92 12.09
12/16/2021 4:30:00 AM 6.07 42.926 0.254 7.32 12.5 12.06
12/16/2021 4:45:00 AM 6.09 42.962 0.258 7.32 14.22 12.03
12/16/2021 5:00:00 AM 6.12 43.016 0.261 7.33 13.52 12.03
12/16/2021 5:15:00 AM 6.14 43.052 0.265 7.31 12.88 12.01
12/16/2021 5:30:00 AM 6.16 43.088 0.267 7.35 13.62 11.99
12/16/2021 5:45:00 AM 6.17 43.106 0.268 7.35 11.45 11.99
12/16/2021 6:00:00 AM 6.19 43.142 0.269 7.35 12.38 11.97
12/16/2021 6:15:00 AM 6.2 43.16 0.271 7.35 11.97 11.95
12/16/2021 6:30:00 AM 6.21 43.178 0.272 7.35 13.55 11.96
12/16/2021 6:45:00 AM 6.22 43.196 0.271 7.37 14.01 11.99
12/16/2021 7:00:00 AM 6.22 43.196 0.271 7.37 11.32 11.97
12/16/2021 7:15:00 AM 6.23 43.214 0.271 7.35 10.81 11.97
12/16/2021 7:30:00 AM 6.23 43.214 0.272 7.37 11.34 11.97
12/16/2021 7:45:00 AM 6.23 43.214 0.273 7.36 11.18 11.95
12/16/2021 8:00:00 AM 6.23 43.214 0.273 7.36 11.1 11.95
12/16/2021 8:15:00 AM 6.23 43.214 0.274 7.36 13.11 11.98
12/16/2021 8:30:00 AM 6.24 43.232 0.275 7.37 11.85 11.98
12/16/2021 8:45:00 AM 6.24 43.232 0.275 7.31 11.5 12
12/16/2021 9:00:00 AM 6.25 43.25 0.276 7.38 11.49 12.02
12/16/2021 9:15:00 AM 6.26 43.268 0.277 7.38 11.49 12.06
12/16/2021 9:30:00 AM 6.27 43.286 0.278 7.39 11.58 12.1
12/16/2021 9:45:00 AM 6.3 43.34 0.279 7.4 10.59 12.15
12/16/2021 10:00:00 AM 6.34 43.412 0.28 7.41 9.57 12.25
12/16/2021 10:15:00 AM 6.37 43.466 0.281 7.42 9.17 12.3
12/16/2021 10:30:00 AM 6.42 43.556 0.281 7.42 10.84 12.39
12/16/2021 10:45:00 AM 6.46 43.628 0.282 7.45 9.7 12.46
12/16/2021 11:00:00 AM 6.5 43.7 0.283 7.46 8.98 12.53
12/16/2021 11:15:00 AM 6.55 43.79 0.284 7.46 8.26 12.62
12/16/2021 11:30:00 AM 6.62 43.916 0.285 7.5 8.34 12.7
12/16/2021 11:45:00 AM 6.69 44.042 0.286 7.52 8.31 12.78
12/16/2021 12:00:00 PM 6.75 44.15 0.287 7.53 8.12 12.84
12/16/2021 12:15:00 PM 6.83 44.294 0.288 7.56 8.33 12.94
12/16/2021 12:30:00 PM 6.92 44.456 0.289 7.58 8.01 13.07
12/16/2021 12:45:00 PM 7.03 44.654 0.29 7.6 7.62 13.15
12/16/2021 1:00:00 PM 7.14 44.852 0.291 7.63 7.64 13.25
12/16/2021 1:15:00 PM 7.24 45.032 0.292 7.65 7.55 13.27
12/16/2021 1:30:00 PM 7.32 45.176 0.293 7.67 6.87 13.32
12/16/2021 1:45:00 PM 7.41 45.338 0.293 7.69 6.68 13.37
12/16/2021 2:00:00 PM 7.49 45.482 0.295 7.7 6.68 13.39
12/16/2021 2:15:00 PM 7.57 45.626 0.296 7.71 6.22 13.38
12/16/2021 2:30:00 PM 7.64 45.752 0.297 7.72 6.4 13.37
12/16/2021 2:45:00 PM 7.7 45.86 0.298 7.73 6.15 13.33
12/16/2021 3:00:00 PM 7.75 45.95 0.298 7.72 6.18 13.31
12/16/2021 3:15:00 PM 7.79 46.022 0.299 7.73 8.3 13.22
12/16/2021 3:30:00 PM 7.83 46.094 0.3 7.74 7.16 13.18
12/16/2021 3:45:00 PM 7.87 46.166 0.301 7.74 6.55 13.09
12/16/2021 4:00:00 PM 7.91 46.238 0.301 7.73 6.35 13.02
12/16/2021 4:15:00 PM 7.93 46.274 0.303 7.7 6.3 12.92
12/16/2021 4:30:00 PM 7.95 46.31 0.303 7.7 6.69 12.84
12/16/2021 4:45:00 PM 7.98 46.364 0.305 7.68 5.78 12.7
12/16/2021 5:00:00 PM 7.99 46.382 0.305 7.67 8.19 12.62
12/16/2021 5:15:00 PM 8 46.4 0.306 7.65 5.96 12.52
12/16/2021 5:30:00 PM 8.02 46.436 0.307 7.64 5.17 12.43
12/16/2021 5:45:00 PM 8.05 46.49 0.307 7.61 5.42 12.35
12/16/2021 6:00:00 PM 8.08 46.544 0.308 7.6 5.21 12.26
12/16/2021 6:15:00 PM 8.11 46.598 0.309 7.6 5.05 12.15
12/16/2021 6:30:00 PM 8.15 46.67 0.311 7.58 4.8 12.07
12/16/2021 6:45:00 PM 8.2 46.76 0.311 7.57 4.76 11.97
12/16/2021 7:00:00 PM 8.24 46.832 0.312 7.56 4.77 11.92
12/16/2021 7:15:00 PM 8.28 46.904 0.313 7.53 4.68 11.81
12/16/2021 7:30:00 PM 8.34 47.012 0.313 7.55 4.58 11.75
12/16/2021 7:45:00 PM 8.39 47.102 0.314 7.53 4.51 11.65
12/16/2021 8:00:00 PM 8.44 47.192 0.314 7.52 4.56 11.62
12/16/2021 8:15:00 PM 8.48 47.264 0.315 7.52 4.69 11.55
12/16/2021 8:30:00 PM 8.53 47.354 0.315 7.51 4.64 11.5
12/16/2021 8:45:00 PM 8.59 47.462 0.316 7.49 4.62 11.46
12/16/2021 9:00:00 PM 8.64 47.552 0.316 7.5 4.67 11.42
12/16/2021 9:15:00 PM 8.69 47.642 0.315 7.51 4.6 11.35
12/16/2021 9:30:00 PM 8.75 47.75 0.317 7.49 4.68 11.32
12/16/2021 9:45:00 PM 8.79 47.822 0.317 7.49 4.55 11.29
12/16/2021 10:00:00 PM 8.85 47.93 0.318 7.49 4.53 11.24
12/16/2021 10:15:00 PM 8.91 48.038 0.318 7.49 4.66 11.21
12/16/2021 10:30:00 PM 8.95 48.11 0.319 7.48 4.46 11.15
12/16/2021 10:45:00 PM 9 48.2 0.319 7.48 4.45 11.13
12/16/2021 11:00:00 PM 9.05 48.29 0.319 7.48 4.85 11.08
12/16/2021 11:15:00 PM 9.08 48.344 0.319 7.48 4.27 11.07
12/16/2021 11:30:00 PM 9.1 48.38 0.32 7.47 4.39 11.01
12/16/2021 11:45:00 PM 9.12 48.416 0.32 7.47 4.15 11.02
12/17/2021 12:00:00 AM 9.12 48.416 0.32 7.47 4.07 11
12/17/2021 12:15:00 AM 9.13 48.434 0.321 7.47 4.57 10.98
12/17/2021 12:30:00 AM 9.12 48.416 0.321 7.47 4.09 10.92
12/17/2021 12:45:00 AM 9.11 48.398 0.321 7.46 4.31 10.95
12/17/2021 1:00:00 AM 9.1 48.38 0.321 7.47 4.11 10.93
12/17/2021 1:15:00 AM 9.08 48.344 0.322 7.47 4.13 10.91
12/17/2021 1:30:00 AM 9.05 48.29 0.322 7.47 4.18 10.89
12/17/2021 1:45:00 AM 9.03 48.254 0.322 7.46 4.49 10.88
12/17/2021 2:00:00 AM 9 48.2 0.323 7.46 4.07 10.87
12/17/2021 2:15:00 AM 8.97 48.146 0.323 7.46 3.83 10.86
12/17/2021 2:30:00 AM 8.94 48.092 0.324 7.46 3.97 10.85
12/17/2021 2:45:00 AM 8.92 48.056 0.324 7.46 4.22 10.85
12/17/2021 3:00:00 AM 8.89 48.002 0.324 7.46 4.11 10.82
12/17/2021 3:15:00 AM 8.85 47.93 0.325 7.46 3.8 10.83
12/17/2021 3:30:00 AM 8.82 47.876 0.325 7.44 3.8 10.8
12/17/2021 3:45:00 AM 8.78 47.804 0.326 7.45 3.99 10.81
12/17/2021 4:00:00 AM 8.74 47.732 0.326 7.45 4 10.82
12/17/2021 4:15:00 AM 8.69 47.642 0.326 7.45 4.14 10.82
12/17/2021 4:30:00 AM 8.65 47.57 0.327 7.44 3.97 10.82
12/17/2021 4:45:00 AM 8.61 47.498 0.327 7.44 3.98 10.85
12/17/2021 5:00:00 AM 8.57 47.426 0.327 7.45 3.78 10.84
12/17/2021 5:15:00 AM 8.52 47.336 0.327 7.45 3.8 10.84
12/17/2021 5:30:00 AM 8.48 47.264 0.328 7.45 4.02 10.84
12/17/2021 5:45:00 AM 8.43 47.174 0.328 7.44 4.05 10.87
12/17/2021 6:00:00 AM 8.39 47.102 0.328 7.44 3.87 10.89
12/17/2021 6:15:00 AM 8.35 47.03 0.328 7.45 4.05 10.91
12/17/2021 6:30:00 AM 8.31 46.958 0.328 7.45 3.92 10.92
12/17/2021 6:45:00 AM 8.26 46.868 0.329 7.45 4.04 10.94
12/17/2021 7:00:00 AM 8.21 46.778 0.328 7.45 3.84 10.96
12/17/2021 7:15:00 AM 8.17 46.706 0.329 7.44 4.84 10.97
12/17/2021 7:30:00 AM 8.12 46.616 0.329 7.44 4.51 10.98
12/17/2021 7:45:00 AM 8.08 46.544 0.33 7.45 4.36 11.01
12/17/2021 8:00:00 AM 8.04 46.472 0.33 7.44 4.65 11.02
12/17/2021 8:15:00 AM 7.99 46.382 0.33 7.44 4.57 11.06
12/17/2021 8:30:00 AM 7.95 46.31 0.33 7.44 4.44 11.1
12/17/2021 8:45:00 AM 7.9 46.22 0.331 7.45 4.53 11.13
12/17/2021 9:00:00 AM 7.86 46.148 0.331 7.45 4.87 11.18
12/17/2021 9:15:00 AM 7.83 46.094 0.331 7.46 4.76 11.23
12/17/2021 9:30:00 AM 7.8 46.04 0.332 7.46 4.45 11.27
12/17/2021 9:45:00 AM 7.77 45.986 0.332 7.47 4.72 11.37
12/17/2021 10:00:00 AM 7.76 45.968 0.331 7.47 4.56 11.46
12/17/2021 10:15:00 AM 7.74 45.932 0.331 7.49 4.43 11.58
12/17/2021 10:30:00 AM 7.73 45.914 0.332 7.5 4.48 11.65
12/17/2021 10:45:00 AM 7.71 45.878 0.332 7.51 4.04 11.73
12/17/2021 11:00:00 AM 7.69 45.842 0.333 7.52 3.86 11.82
12/17/2021 11:15:00 AM 7.7 45.86 0.333 7.53 4.04 11.92
12/17/2021 11:30:00 AM 7.7 45.86 0.333 7.53 4.12 11.99
12/17/2021 11:45:00 AM 7.71 45.878 0.335 7.54 4.49 12.07
12/17/2021 12:00:00 PM 7.7 45.86 0.334 7.56 4.34 12.18
12/17/2021 12:15:00 PM 7.71 45.878 0.334 7.55 4.18 12.24
12/17/2021 12:30:00 PM 7.73 45.914 0.334 7.56 4.16 12.35
12/17/2021 12:45:00 PM 7.78 46.004 0.335 7.58 4.08 12.5
12/17/2021 1:00:00 PM 7.83 46.094 0.335 7.62 4.04 12.6
12/17/2021 1:15:00 PM 7.89 46.202 0.335 7.63 3.88 12.74
12/17/2021 1:30:00 PM 7.95 46.31 0.335 7.67 3.81 12.84
12/17/2021 1:45:00 PM 7.99 46.382 0.336 7.66 3.91 12.93
12/17/2021 2:00:00 PM 8.03 46.454 0.336 7.69 3.55 13.03
12/17/2021 2:15:00 PM 8.06 46.508 0.336 7.69 4.17 13.01
12/17/2021 2:30:00 PM 8.08 46.544 0.338 7.69 4.48 13.02
12/17/2021 2:45:00 PM 8.09 46.562 0.338 7.68 5.04 13.04
12/17/2021 3:00:00 PM 8.1 46.58 0.337 7.71 4.47 13.08
12/17/2021 3:15:00 PM 8.1 46.58 0.34 7.7 4.89 13.04
12/17/2021 3:30:00 PM 8.09 46.562 0.337 7.74 4.44 13.09
12/17/2021 3:45:00 PM 8.08 46.544 0.337 7.75 4.45 13.07
12/17/2021 4:00:00 PM 8.05 46.49 0.336 7.72 4.68 13
12/17/2021 4:15:00 PM 8.01 46.418 0.337 7.75 4 12.96
12/17/2021 4:30:00 PM 7.97 46.346 0.337 7.74 4.3 12.9
12/17/2021 4:45:00 PM 7.94 46.292 0.337 7.7 4.26 12.75
12/17/2021 5:00:00 PM 7.9 46.22 0.338 7.7 4.38 12.7
12/17/2021 5:15:00 PM 7.86 46.148 0.338 7.7 25.48 12.66
12/17/2021 5:30:00 PM 7.83 46.094 0.338 7.69 3.81 12.57
12/17/2021 5:45:00 PM 7.79 46.022 0.34 7.67 4.01 12.48
12/17/2021 6:00:00 PM 7.75 45.95 0.339 7.68 3.91 12.44
12/17/2021 6:15:00 PM 7.71 45.878 0.34 7.66 3.81 12.36
12/17/2021 6:30:00 PM 7.67 45.806 0.339 7.66 3.36 12.33
12/17/2021 6:45:00 PM 7.64 45.752 0.34 7.6 3.38 12.22
12/17/2021 7:00:00 PM 7.59 45.662 0.34 7.62 3.18 12.16
12/17/2021 7:15:00 PM 7.55 45.59 0.34 7.61 3.06 12.1
12/17/2021 7:30:00 PM 7.51 45.518 0.34 7.59 3.4 12.05
12/17/2021 7:45:00 PM 7.46 45.428 0.34 7.58 3.36 12.01
12/17/2021 8:00:00 PM 7.43 45.374 0.34 7.57 3.5 11.91
12/17/2021 8:15:00 PM 7.39 45.302 0.341 7.55 3.24 11.87
12/17/2021 8:30:00 PM 7.36 45.248 0.34 7.57 3.46 11.85
12/17/2021 8:45:00 PM 7.32 45.176 0.34 7.56 3.55 11.8
12/17/2021 9:00:00 PM 7.3 45.14 0.341 7.53 3.43 11.66
12/17/2021 9:15:00 PM 7.26 45.068 0.341 7.53 3.74 11.7
12/17/2021 9:30:00 PM 7.23 45.014 0.341 7.53 3.48 11.67
12/17/2021 9:45:00 PM 7.21 44.978 0.342 7.52 3.39 11.61
12/17/2021 10:00:00 PM 7.18 44.924 0.342 7.51 3.61 11.65
12/17/2021 10:15:00 PM 7.16 44.888 0.342 7.51 3.42 11.65
12/17/2021 10:30:00 PM 7.14 44.852 0.343 7.49 3.37 11.58
12/17/2021 10:45:00 PM 7.12 44.816 0.344 7.49 3.45 11.6
12/17/2021 11:00:00 PM 7.11 44.798 0.344 7.46 3.33 11.56
12/17/2021 11:15:00 PM 7.09 44.762 0.344 7.49 3.22 11.52
12/17/2021 11:30:00 PM 7.08 44.744 0.345 7.48 3.12 11.53
12/17/2021 11:45:00 PM 7.06 44.708 0.345 7.48 3.19 11.53
12/18/2021 12:00:00 AM 7.06 44.708 0.345 7.47 3.17 11.48
12/18/2021 12:15:00 AM 7.05 44.69 0.345 7.47 3.28 11.5
12/18/2021 12:30:00 AM 7.04 44.672 0.345 7.48 3.83 11.49
12/18/2021 12:45:00 AM 7.03 44.654 0.345 7.47 3.7 11.51
12/18/2021 1:00:00 AM 7.02 44.636 0.346 7.44 3.95 11.46
12/18/2021 1:15:00 AM 7 44.6 0.346 7.47 3.68 11.49
12/18/2021 1:30:00 AM 6.99 44.582 0.346 7.44 4.05 11.5
12/18/2021 1:45:00 AM 6.98 44.564 0.346 7.47 3.77 11.46
12/18/2021 2:00:00 AM 6.97 44.546 0.346 7.47 3.65 11.46
12/18/2021 2:15:00 AM 6.96 44.528 0.346 7.46 3.84 11.47
12/18/2021 2:30:00 AM 6.95 44.51 0.347 7.46 3.67 11.45
12/18/2021 2:45:00 AM 6.95 44.51 0.348 7.44 3.73 11.44
12/18/2021 3:00:00 AM 6.93 44.474 0.347 7.45 3.27 11.47
12/18/2021 3:15:00 AM 6.92 44.456 0.348 7.45 3.31 11.45
12/18/2021 3:30:00 AM 6.91 44.438 0.348 7.44 3.15 11.46
12/18/2021 3:45:00 AM 6.9 44.42 0.348 7.45 3.23 11.43
12/18/2021 4:00:00 AM 6.89 44.402 0.349 7.44 3.04 11.45
12/18/2021 4:15:00 AM 6.88 44.384 0.349 7.45 3.36 11.45
12/18/2021 4:30:00 AM 6.87 44.366 0.349 7.45 2.93 11.46
12/18/2021 4:45:00 AM 6.85 44.33 0.349 7.45 2.95 11.44
12/18/2021 5:00:00 AM 6.84 44.312 0.348 7.46 3.47 11.45
12/18/2021 5:15:00 AM 6.83 44.294 0.348 7.45 3.09 11.46
12/18/2021 5:30:00 AM 6.82 44.276 0.349 7.46 3.06 11.47
12/18/2021 5:45:00 AM 6.81 44.258 0.349 7.45 3.2 11.45
12/18/2021 6:00:00 AM 6.8 44.24 0.349 7.46 3.42 11.46
12/18/2021 6:15:00 AM 6.79 44.222 0.349 7.46 3.75 11.48
12/18/2021 6:30:00 AM 6.79 44.222 0.35 7.45 3.08 11.45
12/18/2021 6:45:00 AM 6.78 44.204 0.35 7.44 3.44 11.44
12/18/2021 7:00:00 AM 6.77 44.186 0.35 7.46 3.16 11.47
12/18/2021 7:15:00 AM 6.77 44.186 0.35 7.47 3.29 11.41
12/18/2021 7:30:00 AM 6.77 44.186 0.35 7.44 10.14 11.29
12/18/2021 7:45:00 AM 6.76 44.168 0.35 7.43 3.95 11.42
12/18/2021 8:00:00 AM 6.76 44.168 0.35 7.46 8.37 11.43
12/18/2021 8:15:00 AM 6.75 44.15 0.35 7.46 5.35 11.46
12/18/2021 8:30:00 AM 6.74 44.132 0.35 7.46 3.95 11.51
12/18/2021 8:45:00 AM 6.74 44.132 0.35 7.47 4.77 11.5
12/18/2021 9:00:00 AM 6.72 44.096 0.35 7.47 3.88 11.53
12/18/2021 9:15:00 AM 6.72 44.096 0.349 7.48 4.4 11.6
12/18/2021 9:30:00 AM 6.71 44.078 0.349 7.49 3.64 11.61
12/18/2021 9:45:00 AM 6.7 44.06 0.349 7.5 3.63 11.66
12/18/2021 10:00:00 AM 6.69 44.042 0.349 7.48 2.95 11.67
12/18/2021 10:15:00 AM 6.69 44.042 0.349 7.51 3.03 11.73
12/18/2021 10:30:00 AM 6.68 44.024 0.349 7.51 3.14 11.75
12/18/2021 10:45:00 AM 6.68 44.024 0.349 7.51 2.97 11.85
12/18/2021 11:00:00 AM 6.67 44.006 0.349 7.51 3.22 11.88
12/18/2021 11:15:00 AM 6.68 44.024 0.349 7.53 3.11 11.98
12/18/2021 11:30:00 AM 6.67 44.006 0.349 7.54 3.12 12.05
12/18/2021 11:45:00 AM 6.68 44.024 0.349 7.54 3.53 12.11
12/18/2021 12:00:00 PM 6.68 44.024 0.349 7.55 3.51 12.14
12/18/2021 12:15:00 PM 6.69 44.042 0.348 7.55 3.95 12.21
12/18/2021 12:30:00 PM 6.7 44.06 0.348 7.56 6.91 12.28
12/18/2021 12:45:00 PM 6.7 44.06 0.348 7.57 5.59 12.34
12/18/2021 1:00:00 PM 6.7 44.06 0.348 7.57 4.62 12.36
12/18/2021 1:15:00 PM 6.71 44.078 0.348 7.58 4.36 12.4
12/18/2021 1:30:00 PM 6.72 44.096 0.347 7.58 4.48 12.48
12/18/2021 1:45:00 PM 6.73 44.114 0.348 7.6 4.32 12.5
12/18/2021 2:00:00 PM 6.73 44.114 0.347 7.61 4.22 12.56
12/18/2021 2:15:00 PM 6.74 44.132 0.347 7.62 4.75 12.58
12/18/2021 2:30:00 PM 6.74 44.132 0.346 7.61 3.68 12.61
12/18/2021 2:45:00 PM 6.74 44.132 0.345 7.64 3.98 12.53
12/18/2021 3:00:00 PM 6.74 44.132 0.344 7.64 4.05 12.54
12/18/2021 3:15:00 PM 6.74 44.132 0.344 7.62 4.1 12.48
12/18/2021 3:30:00 PM 6.75 44.15 0.344 7.63 4.25 12.51
12/18/2021 3:45:00 PM 6.75 44.15 0.344 7.64 6.01 12.48
12/18/2021 4:00:00 PM 6.75 44.15 0.344 7.63 4.97 12.48
12/18/2021 4:15:00 PM 6.76 44.168 0.344 7.62 4.89 12.39
12/18/2021 4:30:00 PM 6.75 44.15 0.344 7.62 4.62 12.35
12/18/2021 4:45:00 PM 6.76 44.168 0.348 7.6 4.85 12.32
12/18/2021 5:00:00 PM 6.76 44.168 0.356 7.61 5.42 12.26
12/18/2021 5:15:00 PM 6.76 44.168 0.37 7.6 5.34 12.23
12/18/2021 5:30:00 PM 6.76 44.168 0.387 7.58 5.31 12.18
12/18/2021 5:45:00 PM 6.74 44.132 0.405 7.59 5.49 12.18
12/18/2021 6:00:00 PM 6.74 44.132 0.41 7.58 5.56 12.13
12/18/2021 6:15:00 PM 6.73 44.114 0.403 7.57 5.16 12.11
12/18/2021 6:30:00 PM 6.73 44.114 0.389 7.56 5.91 12.08
12/18/2021 6:45:00 PM 6.72 44.096 0.375 7.56 7.09 12.05
12/18/2021 7:00:00 PM 6.71 44.078 0.365 7.56 6.78 12.04
12/18/2021 7:15:00 PM 6.7 44.06 0.362 7.55 6.73 12.01
12/18/2021 7:30:00 PM 6.7 44.06 0.363 7.55 7.16 11.99
12/18/2021 7:45:00 PM 6.7 44.06 0.367 7.54 8.01 11.96
12/18/2021 8:00:00 PM 6.7 44.06 0.369 7.54 7.9 11.94
12/18/2021 8:15:00 PM 6.69 44.042 0.367 7.53 8.29 11.92
12/18/2021 8:30:00 PM 6.69 44.042 0.358 7.51 8.27 11.92
12/18/2021 8:45:00 PM 6.68 44.024 0.345 7.51 8.22 11.94
12/18/2021 9:00:00 PM 6.66 43.988 0.333 7.47 9.54 11.94
12/18/2021 9:15:00 PM 6.64 43.952 0.322 7.5 8.72 11.95
12/18/2021 9:30:00 PM 6.61 43.898 0.311 7.48 9.63 11.94
12/18/2021 9:45:00 PM 6.57 43.826 0.301 7.48 9.81 11.99
12/18/2021 10:00:00 PM 6.53 43.754 0.292 7.46 10.41 12
12/18/2021 10:15:00 PM 6.5 43.7 0.281 7.44 10.31 12.02
12/18/2021 10:30:00 PM 6.46 43.628 0.271 7.41 10.53 12.05
12/18/2021 10:45:00 PM 6.43 43.574 0.261 7.4 10.6 12.05
12/18/2021 11:00:00 PM 6.4 43.52 0.253 7.4 10.9 12.06
12/18/2021 11:15:00 PM 6.37 43.466 0.247 7.37 11.48 12.05
12/18/2021 11:30:00 PM 6.34 43.412 0.242 7.38 11.08 12.06
12/18/2021 11:45:00 PM 6.31 43.358 0.238 7.37 12.42 12.07
12/19/2021 12:00:00 AM 6.28 43.304 0.235 7.35 11.92 12.07
12/19/2021 12:15:00 AM 6.25 43.25 0.233 7.36 12.83 12.07
12/19/2021 12:30:00 AM 6.21 43.178 0.231 7.35 12.69 12.09
12/19/2021 12:45:00 AM 6.18 43.124 0.23 7.32 12.88 12.09
12/19/2021 1:00:00 AM 6.15 43.07 0.229 7.32 12.38 12.11
12/19/2021 1:15:00 AM 6.12 43.016 0.229 7.33 13.46 12.12
12/19/2021 1:30:00 AM 6.1 42.98 0.229 7.33 14.12 12.13
12/19/2021 1:45:00 AM 6.08 42.944 0.23 7.32 13.42 12.13
12/19/2021 2:00:00 AM 6.06 42.908 0.232 7.25 14.89 12.13
12/19/2021 2:15:00 AM 6.05 42.89 0.234 7.28 14.95 12.11
12/19/2021 2:30:00 AM 6.05 42.89 0.236 7.27 15.58 12.1
12/19/2021 2:45:00 AM 6.05 42.89 0.238 7.32 14.25 12.1
12/19/2021 3:00:00 AM 6.05 42.89 0.24 7.28 15.53 12.1
12/19/2021 3:15:00 AM 6.04 42.872 0.242 7.33 14.74 12.09
12/19/2021 3:30:00 AM 6.03 42.854 0.243 7.33 14.66 12.09
12/19/2021 3:45:00 AM 6.02 42.836 0.244 7.34 14.86 12.08
12/19/2021 4:00:00 AM 6.01 42.818 0.246 7.33 13.79 12.1
12/19/2021 4:15:00 AM 5.99 42.782 0.247 7.34 13.35 12.1
12/19/2021 4:30:00 AM 5.98 42.764 0.248 7.3 14.24 12.1
12/19/2021 4:45:00 AM 5.97 42.746 0.247 7.35 13.08 12.11
12/19/2021 5:00:00 AM 5.95 42.71 0.247 7.3 14.29 12.12
12/19/2021 5:15:00 AM 5.93 42.674 0.246 7.34 12.89 12.12
12/19/2021 5:30:00 AM 5.91 42.638 0.244 7.32 13.27 12.14
12/19/2021 5:45:00 AM 5.88 42.584 0.242 7.29 13.52 12.14
12/19/2021 6:00:00 AM 5.86 42.548 0.239 7.3 12.79 12.16
12/19/2021 6:15:00 AM 5.82 42.476 0.238 7.33 12.85 12.18
12/19/2021 6:30:00 AM 5.79 42.422 0.236 7.27 13.01 12.18
12/19/2021 6:45:00 AM 5.76 42.368 0.235 7.29 11.98 12.19
12/19/2021 7:00:00 AM 5.74 42.332 0.235 7.29 12.27 12.19
12/19/2021 7:15:00 AM 5.71 42.278 0.235 7.29 11.99 12.21
12/19/2021 7:30:00 AM 5.68 42.224 0.235 7.31 13.04 12.21
12/19/2021 7:45:00 AM 5.66 42.188 0.236 7.27 12.99 12.22
12/19/2021 8:00:00 AM 5.64 42.152 0.238 7.29 12.53 12.22
12/19/2021 8:15:00 AM 5.62 42.116 0.239 7.3 11.64 12.22
12/19/2021 8:30:00 AM 5.61 42.098 0.241 7.32 12.29 12.23
12/19/2021 8:45:00 AM 5.59 42.062 0.243 7.32 11.6 12.24
12/19/2021 9:00:00 AM 5.58 42.044 0.245 7.27 11.18 12.26
12/19/2021 9:15:00 AM 5.57 42.026 0.246 7.33 10.96 12.28
12/19/2021 9:30:00 AM 5.56 42.008 0.248 7.31 10.79 12.32
12/19/2021 9:45:00 AM 5.55 41.99 0.249 7.32 10.63 12.34
12/19/2021 10:00:00 AM 5.55 41.99 0.251 7.37 15.52 12.38
12/19/2021 10:15:00 AM 5.54 41.972 0.253 7.37 10.16 12.42
12/19/2021 10:30:00 AM 5.53 41.954 0.254 7.38 9.6 12.47
12/19/2021 10:45:00 AM 5.54 41.972 0.255 7.38 10.19 12.52
12/19/2021 11:00:00 AM 5.54 41.972 0.256 7.4 9.35 12.59
12/19/2021 11:15:00 AM 5.54 41.972 0.257 7.37 9.48 12.64
12/19/2021 11:30:00 AM 5.55 41.99 0.258 7.42 9.51 12.71
12/19/2021 11:45:00 AM 5.56 42.008 0.259 7.41 8.82 12.79
12/19/2021 12:00:00 PM 5.57 42.026 0.26 7.45 8.83 12.86
12/19/2021 12:15:00 PM 5.58 42.044 0.261 7.47 8.12 12.94
12/19/2021 12:30:00 PM 5.58 42.044 0.261 7.43 8.75 13.01
12/19/2021 12:45:00 PM 5.58 42.044 0.262 7.49 8.66 13.06
12/19/2021 1:00:00 PM 5.58 42.044 0.262 7.48 8.51 13.09
12/19/2021 1:15:00 PM 5.58 42.044 0.263 7.52 8.41 13.15
12/19/2021 1:30:00 PM 5.6 42.08 0.264 7.53 8.38 13.19
12/19/2021 1:45:00 PM 5.61 42.098 0.265 7.55 8.14 13.24
12/19/2021 2:00:00 PM 5.62 42.116 0.265 7.56 7.76 13.28
12/19/2021 2:15:00 PM 5.62 42.116 0.266 7.56 7.59 13.31
12/19/2021 2:30:00 PM 5.62 42.116 0.266 7.57 7.62 13.35
12/19/2021 2:45:00 PM 5.61 42.098 0.267 7.57 7.43 13.35
12/19/2021 3:00:00 PM 5.61 42.098 0.268 7.57 7.06 13.36
12/19/2021 3:15:00 PM 5.6 42.08 0.269 7.56 7.5 13.37
12/19/2021 3:30:00 PM 5.59 42.062 0.269 7.59 7.18 13.38
12/19/2021 3:45:00 PM 5.57 42.026 0.27 7.59 6.75 13.36
12/19/2021 4:00:00 PM 5.55 41.99 0.27 7.6 6.61 13.36
12/19/2021 4:15:00 PM 5.54 41.972 0.272 7.58 6.92 13.31
12/19/2021 4:30:00 PM 5.52 41.936 0.272 7.56 6.75 13.29
12/19/2021 4:45:00 PM 5.49 41.882 0.273 7.54 7.81 13.24
12/19/2021 5:00:00 PM 5.47 41.846 0.274 7.57 6.42 13.2
12/19/2021 5:15:00 PM 5.44 41.792 0.275 7.55 6.16 13.17
12/19/2021 5:30:00 PM 5.41 41.738 0.276 7.56 5.9 13.13
12/19/2021 5:45:00 PM 5.38 41.684 0.276 7.56 5.95 13.11
12/19/2021 6:00:00 PM 5.36 41.648 0.277 7.54 6.17 13.04
12/19/2021 6:15:00 PM 5.33 41.594 0.277 7.52 6.09 13.01
12/19/2021 6:30:00 PM 5.31 41.558 0.279 7.51 5.93 12.95
12/19/2021 6:45:00 PM 5.28 41.504 0.28 7.52 6.02 12.9
12/19/2021 7:00:00 PM 5.25 41.45 0.28 7.51 5.85 12.85
12/19/2021 7:15:00 PM 5.23 41.414 0.281 7.5 6.11 12.82
12/19/2021 7:30:00 PM 5.22 41.396 0.281 7.44 5.61 12.77
12/19/2021 7:45:00 PM 5.21 41.378 0.282 7.46 6.01 12.74
12/19/2021 8:00:00 PM 5.2 41.36 0.283 7.48 5.8 12.69
12/19/2021 8:15:00 PM 5.19 41.342 0.283 7.43 5.83 12.65
12/19/2021 8:30:00 PM 5.17 41.306 0.284 7.45 5.4 12.63
12/19/2021 8:45:00 PM 5.15 41.27 0.284 7.47 5.49 12.59
12/19/2021 9:00:00 PM 5.13 41.234 0.285 7.46 5.67 12.58
12/19/2021 9:15:00 PM 5.12 41.216 0.286 7.45 5.5 12.54
12/19/2021 9:30:00 PM 5.1 41.18 0.286 7.44 5.52 12.51
12/19/2021 9:45:00 PM 5.08 41.144 0.286 7.4 6.09 12.53
12/19/2021 10:00:00 PM 5.06 41.108 0.287 7.41 5.44 12.51
12/19/2021 10:15:00 PM 5.05 41.09 0.287 7.41 5.64 12.5
12/19/2021 10:30:00 PM 5.03 41.054 0.288 7.43 5.44 12.47
12/19/2021 10:45:00 PM 5.01 41.018 0.288 7.43 5.46 12.47
12/19/2021 11:00:00 PM 4.99 40.982 0.289 7.44 5.28 12.47
12/19/2021 11:15:00 PM 4.97 40.946 0.289 7.41 4.91 12.46
12/19/2021 11:30:00 PM 4.95 40.91 0.289 7.43 5.07 12.47
12/19/2021 11:45:00 PM 4.94 40.892 0.29 7.43 4.99 12.46
12/20/2021 12:00:00 AM 4.9 40.82 0.29 7.38 4.73 12.44
12/20/2021 12:15:00 AM 4.87 40.766 0.291 7.42 4.7 12.45
12/20/2021 12:30:00 AM 4.85 40.73 0.291 7.41 4.97 12.45
12/20/2021 12:45:00 AM 4.82 40.676 0.292 7.41 4.65 12.44
12/20/2021 1:00:00 AM 4.81 40.658 0.292 7.39 4.81 12.44
12/20/2021 1:15:00 AM 4.78 40.604 0.292 7.38 5.02 12.44
12/20/2021 1:30:00 AM 4.77 40.586 0.293 7.41 4.64 12.43
12/20/2021 1:45:00 AM 4.74 40.532 0.292 7.41 4.8 12.43
12/20/2021 2:00:00 AM 4.71 40.478 0.293 7.36 4.45 12.45
12/20/2021 2:15:00 AM 4.68 40.424 0.294 7.4 4.13 12.43
12/20/2021 2:30:00 AM 4.65 40.37 0.294 7.4 4.12 12.43
12/20/2021 2:45:00 AM 4.62 40.316 0.295 7.36 4.29 12.42
12/20/2021 3:00:00 AM 4.6 40.28 0.295 7.4 4.52 12.42
12/20/2021 3:15:00 AM 4.56 40.208 0.296 7.35 4.6 12.41
12/20/2021 3:30:00 AM 4.52 40.136 0.297 7.39 4.42 12.44
12/20/2021 3:45:00 AM 4.48 40.064 0.297 7.39 4.34 12.41
12/20/2021 4:00:00 AM 4.44 39.992 0.297 7.39 4.41 12.46
12/20/2021 4:15:00 AM 4.4 39.92 0.297 7.39 4.35 12.47
12/20/2021 4:30:00 AM 4.36 39.848 0.298 7.38 4.11 12.49
12/20/2021 4:45:00 AM 4.32 39.776 0.299 7.35 4.15 12.49
12/20/2021 5:00:00 AM 4.28 39.704 0.3 7.38 4.37 12.51
12/20/2021 5:15:00 AM 4.23 39.614 0.3 7.33 4.74 12.52
12/20/2021 5:30:00 AM 4.19 39.542 0.299 7.36 4.2 12.54
12/20/2021 5:45:00 AM 4.16 39.488 0.299 7.37 4.24 12.54
12/20/2021 6:00:00 AM 4.11 39.398 0.299 7.35 4.47 12.56
12/20/2021 6:15:00 AM 4.07 39.326 0.299 7.39 4.38 12.58
12/20/2021 6:30:00 AM 4.03 39.254 0.3 7.38 4.34 12.59
12/20/2021 6:45:00 AM 3.99 39.182 0.3 7.34 4.15 12.6
12/20/2021 7:00:00 AM 3.95 39.11 0.3 7.39 4.28 12.59
12/20/2021 7:15:00 AM 3.92 39.056 0.301 7.38 4.26 12.63
12/20/2021 7:30:00 AM 3.88 38.984 0.302 7.37 6.45 12.6
12/20/2021 7:45:00 AM 3.86 38.948 0.303 7.38 4.66 12.63
12/20/2021 8:00:00 AM 3.83 38.894 0.304 7.32 4.64 12.67
12/20/2021 8:15:00 AM 3.8 38.84 0.303 7.39 4.9 12.7
12/20/2021 8:30:00 AM 3.78 38.804 0.303 7.35 4.95 12.76
12/20/2021 8:45:00 AM 3.76 38.768 0.304 7.41 4.66 12.79
12/20/2021 9:00:00 AM 3.75 38.75 0.303 7.41 4.7 12.84
12/20/2021 9:15:00 AM 3.73 38.714 0.304 7.41 5.16 12.85
12/20/2021 9:30:00 AM 3.73 38.714 0.305 7.41 4.18 12.88
12/20/2021 9:45:00 AM 3.71 38.678 0.305 7.42 4.76 12.96
12/20/2021 10:00:00 AM 3.74 38.732 0.305 7.43 4.67 13.04
12/20/2021 10:15:00 AM 3.76 38.768 0.306 7.45 4.94 13.12
12/20/2021 10:30:00 AM 3.77 38.786 0.306 7.46 6.09 13.18
12/20/2021 10:45:00 AM 3.81 38.858 0.307 7.41 6.22 13.22
12/20/2021 11:00:00 AM 3.84 38.912 0.307 7.45 5.65 13.3
12/20/2021 11:15:00 AM 3.84 38.912 0.307 7.49 5.52 13.36
12/20/2021 11:30:00 AM 3.89 39.002 0.308 7.48 4.98 13.41
12/20/2021 11:45:00 AM 3.94 39.092 0.308 7.5 5.06 13.47
12/20/2021 12:00:00 PM 3.99 39.182 0.308 7.53 4.72 13.56
12/20/2021 12:15:00 PM 4.05 39.29 0.308 7.54 4.83 13.62
12/20/2021 12:30:00 PM 4.1 39.38 0.309 7.48 5.32 13.7
12/20/2021 12:45:00 PM 4.17 39.506 0.31 7.56 6.19 13.73
12/20/2021 1:00:00 PM 4.22 39.596 0.311 7.55 6.24 13.77
12/20/2021 1:15:00 PM 4.28 39.704 0.311 7.56 7.13 13.77
12/20/2021 1:30:00 PM 4.35 39.83 0.312 7.58 6.42 13.84
12/20/2021 1:45:00 PM 4.42 39.956 0.312 7.58 5.84 13.9
12/20/2021 2:00:00 PM 4.48 40.064 0.312 7.61 6.05 13.94
12/20/2021 2:15:00 PM 4.55 40.19 0.313 7.61 5.14 13.93
12/20/2021 2:30:00 PM 4.6 40.28 0.312 7.64 4.35 13.97
12/20/2021 2:45:00 PM 4.64 40.352 0.313 7.64 4.81 13.97
12/20/2021 3:00:00 PM 4.67 40.406 0.314 7.63 4.99 13.92
12/20/2021 3:15:00 PM 4.69 40.442 0.314 7.65 5.12 13.94
12/20/2021 3:30:00 PM 4.71 40.478 0.314 7.65 5.94 13.92
12/20/2021 3:45:00 PM 4.71 40.478 0.315 7.6 5.23 13.89
12/20/2021 4:00:00 PM 4.71 40.478 0.316 7.64 5.78 13.83
12/20/2021 4:15:00 PM 4.7 40.46 0.317 7.64 6.46 13.78
12/20/2021 4:30:00 PM 4.68 40.424 0.316 7.61 4.57 13.75
12/20/2021 4:45:00 PM 4.67 40.406 0.317 7.64 4.72 13.68
12/20/2021 5:00:00 PM 4.66 40.388 0.317 7.64 5.63 13.63
12/20/2021 5:15:00 PM 4.64 40.352 0.318 7.64 6.94 13.58
12/20/2021 5:30:00 PM 4.63 40.334 0.318 7.63 6.16 13.52
12/20/2021 5:45:00 PM 4.62 40.316 0.319 7.63 4.51 13.45
12/20/2021 6:00:00 PM 4.6 40.28 0.319 7.63 4.69 13.4
12/20/2021 6:15:00 PM 4.58 40.244 0.32 7.62 4.04 13.33
12/20/2021 6:30:00 PM 4.56 40.208 0.32 7.58 4.48 13.26
12/20/2021 6:45:00 PM 4.55 40.19 0.321 7.6 4.73 13.19
12/20/2021 7:00:00 PM 4.53 40.154 0.322 7.59 4.84 13.13
12/20/2021 7:15:00 PM 4.51 40.118 0.322 7.59 4.85 13.07
12/20/2021 7:30:00 PM 4.5 40.1 0.323 7.57 4.81 13.02
12/20/2021 7:45:00 PM 4.49 40.082 0.324 7.57 4.71 12.95
12/20/2021 8:00:00 PM 4.47 40.046 0.323 7.57 6.69 12.94
12/20/2021 8:15:00 PM 4.45 40.01 0.324 7.55 4.71 12.88
12/20/2021 8:30:00 PM 4.44 39.992 0.325 7.55 4.41 12.83
12/20/2021 8:45:00 PM 4.42 39.956 0.325 7.54 4.38 12.8
12/20/2021 9:00:00 PM 4.41 39.938 0.325 7.54 4.62 12.77
12/20/2021 9:15:00 PM 4.4 39.92 0.325 7.54 4.32 12.74
12/20/2021 9:30:00 PM 4.39 39.902 0.325 7.53 4.2 12.7
12/20/2021 9:45:00 PM 4.38 39.884 0.325 7.52 4.12 12.69
12/20/2021 10:00:00 PM 4.37 39.866 0.325 7.47 4.32 12.66
12/20/2021 10:15:00 PM 4.36 39.848 0.325 7.51 4.04 12.64
12/20/2021 10:30:00 PM 4.34 39.812 0.325 7.51 4.36 12.61
12/20/2021 10:45:00 PM 4.33 39.794 0.325 7.5 4.04 12.59
12/20/2021 11:00:00 PM 4.32 39.776 0.325 7.49 4.02 12.59
12/20/2021 11:15:00 PM 4.31 39.758 0.324 7.5 4.51 12.59
12/20/2021 11:30:00 PM 4.3 39.74 0.324 7.5 4.1 12.56
12/20/2021 11:45:00 PM 4.28 39.704 0.323 7.44 4.29 12.56
12/21/2021 12:00:00 AM 4.27 39.686 0.323 7.47 3.97 12.54
12/21/2021 12:15:00 AM 4.26 39.668 0.323 7.49 4.08 12.53
12/21/2021 12:30:00 AM 4.25 39.65 0.324 7.48 3.98 12.51
12/21/2021 12:45:00 AM 4.23 39.614 0.323 7.47 3.72 12.51
12/21/2021 1:00:00 AM 4.22 39.596 0.323 7.44 3.9 12.49
12/21/2021 1:15:00 AM 4.21 39.578 0.323 7.47 4.13 12.47
12/21/2021 1:30:00 AM 4.19 39.542 0.323 7.48 4 12.49
12/21/2021 1:45:00 AM 4.17 39.506 0.323 7.47 3.91 12.46
12/21/2021 2:00:00 AM 4.16 39.488 0.323 7.46 3.85 12.48
12/21/2021 2:15:00 AM 4.14 39.452 0.323 7.44 3.72 12.48
12/21/2021 2:30:00 AM 4.13 39.434 0.323 7.46 4.44 12.45
12/21/2021 2:45:00 AM 4.11 39.398 0.323 7.46 3.74 12.47
12/21/2021 3:00:00 AM 4.09 39.362 0.322 7.44 3.73 12.46
12/21/2021 3:15:00 AM 4.07 39.326 0.322 7.46 4.13 12.47
12/21/2021 3:30:00 AM 4.06 39.308 0.322 7.45 4.59 12.46
12/21/2021 3:45:00 AM 4.03 39.254 0.322 7.45 3.8 12.45
12/21/2021 4:00:00 AM 4.03 39.254 0.322 7.45 3.77 12.48
12/21/2021 4:15:00 AM 4.03 39.254 0.322 7.45 3.83 12.46
12/21/2021 4:30:00 AM 4.02 39.236 0.322 7.45 3.89 12.47
12/21/2021 4:45:00 AM 4.02 39.236 0.322 7.44 4.29 12.46
12/21/2021 5:00:00 AM 4.02 39.236 0.322 7.44 3.99 12.48
12/21/2021 5:15:00 AM 4.02 39.236 0.323 7.44 4.12 12.46
12/21/2021 5:30:00 AM 4.02 39.236 0.322 7.44 4.06 12.49
12/21/2021 5:45:00 AM 4.03 39.254 0.322 7.44 3.82 12.47
12/21/2021 6:00:00 AM 4.04 39.272 0.322 7.43 3.83 12.45
12/21/2021 6:15:00 AM 4.04 39.272 0.322 7.44 4.12 12.49
12/21/2021 6:30:00 AM 4.04 39.272 0.322 7.43 4.23 12.5
12/21/2021 6:45:00 AM 4.04 39.272 0.322 7.44 4.23 12.5
12/21/2021 7:00:00 AM 4.05 39.29 0.322 7.44 4.26 12.51
12/21/2021 7:15:00 AM 4.05 39.29 0.321 7.44 4.42 12.52
12/21/2021 7:30:00 AM 4.05 39.29 0.322 7.43 4.13 12.49
12/21/2021 7:45:00 AM 4.04 39.272 0.322 7.44 4.7 12.52
12/21/2021 8:00:00 AM 4.04 39.272 0.322 7.43 4.21 12.53
12/21/2021 8:15:00 AM 4.04 39.272 0.322 7.44 4.31 12.58
12/21/2021 8:30:00 AM 4.05 39.29 0.322 7.44 4.98 12.61
12/21/2021 8:45:00 AM 4.05 39.29 0.322 7.41 4.61 12.65
12/21/2021 9:00:00 AM 4.06 39.308 0.322 7.46 4.81 12.71
12/21/2021 9:15:00 AM 4.07 39.326 0.322 7.46 5.05 12.76
12/21/2021 9:30:00 AM 4.08 39.344 0.322 7.47 4.9 12.8
12/21/2021 9:45:00 AM 4.1 39.38 0.323 7.47 6.54 12.86
12/21/2021 10:00:00 AM 4.11 39.398 0.324 7.48 4.07 12.9
12/21/2021 10:15:00 AM 4.14 39.452 0.324 7.48 4.19 13
12/21/2021 10:30:00 AM 4.16 39.488 0.324 7.48 4.03 13.06
12/21/2021 10:45:00 AM 4.19 39.542 0.324 7.5 4.04 13.08
12/21/2021 11:00:00 AM 4.23 39.614 0.324 7.51 4.31 13.22
12/21/2021 11:15:00 AM 4.25 39.65 0.324 7.53 4.35 13.26
12/21/2021 11:30:00 AM 4.28 39.704 0.324 7.53 4.38 13.31
12/21/2021 11:45:00 AM 4.3 39.74 0.324 7.54 4.16 13.38
12/21/2021 12:00:00 PM 4.33 39.794 0.324 7.53 3.78 13.44
12/21/2021 12:15:00 PM 4.39 39.902 0.325 7.57 3.81 13.5
12/21/2021 12:30:00 PM 4.4 39.92 0.325 7.57 4.68 13.53
12/21/2021 12:45:00 PM 4.47 40.046 0.325 7.58 4.31 13.6
12/21/2021 1:00:00 PM 4.53 40.154 0.325 7.59 4.83 13.62
12/21/2021 1:15:00 PM 4.6 40.28 0.325 7.59 5.88 13.66
12/21/2021 1:30:00 PM 4.67 40.406 0.326 7.62 5.34 13.73
12/21/2021 1:45:00 PM 4.73 40.514 0.326 7.57 4.43 13.78
12/21/2021 2:00:00 PM 4.79 40.622 0.326 7.64 4.29 13.8
12/21/2021 2:15:00 PM 4.84 40.712 0.327 7.59 5.08 13.79
12/21/2021 2:30:00 PM 4.89 40.802 0.327 7.65 6.33 13.81
12/21/2021 2:45:00 PM 4.94 40.892 0.328 7.66 6.59 13.78
12/21/2021 3:00:00 PM 5 41 0.328 7.65 5.99 13.77
12/21/2021 3:15:00 PM 5.04 41.072 0.327 7.67 4.76 13.78
12/21/2021 3:30:00 PM 5.08 41.144 0.327 7.68 4.58 13.75
12/21/2021 3:45:00 PM 5.1 41.18 0.328 7.68 4.76 13.69
12/21/2021 4:00:00 PM 5.11 41.198 0.328 7.67 4.22 13.66
12/21/2021 4:15:00 PM 5.12 41.216 0.328 7.68 4.46 13.62
12/21/2021 4:30:00 PM 5.11 41.198 0.329 7.65 4.86 13.55
12/21/2021 4:45:00 PM 5.11 41.198 0.329 7.66 4.86 13.47
12/21/2021 5:00:00 PM 5.1 41.18 0.329 7.67 4.66 13.41
12/21/2021 5:15:00 PM 5.09 41.162 0.33 7.61 5.47 13.35
12/21/2021 5:30:00 PM 5.08 41.144 0.329 7.66 5 13.3
12/21/2021 5:45:00 PM 5.07 41.126 0.33 7.65 4.9 13.22
12/21/2021 6:00:00 PM 5.05 41.09 0.329 7.65 4.27 13.16
12/21/2021 6:15:00 PM 5.04 41.072 0.33 7.62 3.52 13.1
12/21/2021 6:30:00 PM 5.02 41.036 0.33 7.63 3.7 13.01
12/21/2021 6:45:00 PM 5 41 0.33 7.61 4.14 12.96
12/21/2021 7:00:00 PM 4.99 40.982 0.33 7.62 3.7 12.91
12/21/2021 7:15:00 PM 4.97 40.946 0.33 7.6 3.65 12.84
12/21/2021 7:30:00 PM 4.96 40.928 0.331 7.59 3.85 12.78
12/21/2021 7:45:00 PM 4.93 40.874 0.331 7.59 4.01 12.72
12/21/2021 8:00:00 PM 4.92 40.856 0.33 7.58 3.87 12.68
12/21/2021 8:15:00 PM 4.9 40.82 0.33 7.58 3.77 12.64
12/21/2021 8:30:00 PM 4.88 40.784 0.33 7.57 3.76 12.59
12/21/2021 8:45:00 PM 4.86 40.748 0.33 7.56 3.92 12.55
12/21/2021 9:00:00 PM 4.85 40.73 0.33 7.56 3.63 12.52
12/21/2021 9:15:00 PM 4.83 40.694 0.33 7.55 3.75 12.48
12/21/2021 9:30:00 PM 4.82 40.676 0.33 7.54 3.81 12.45
12/21/2021 9:45:00 PM 4.8 40.64 0.33 7.53 4.02 12.42
12/21/2021 10:00:00 PM 4.79 40.622 0.33 7.53 3.93 12.4
12/21/2021 10:15:00 PM 4.79 40.622 0.33 7.52 3.83 12.37
12/21/2021 10:30:00 PM 4.78 40.604 0.33 7.52 3.94 12.36
12/21/2021 10:45:00 PM 4.77 40.586 0.329 7.52 3.76 12.35
12/21/2021 11:00:00 PM 4.77 40.586 0.331 7.51 5.09 12.31
12/21/2021 11:15:00 PM 4.76 40.568 0.329 7.49 4.42 12.3
12/21/2021 11:30:00 PM 4.75 40.55 0.329 7.5 3.64 12.3
12/21/2021 11:45:00 PM 4.75 40.55 0.329 7.5 3.84 12.27
12/22/2021 12:00:00 AM 4.75 40.55 0.329 7.49 4.07 12.23
12/22/2021 12:15:00 AM 4.74 40.532 0.329 7.49 4.06 12.23
12/22/2021 12:30:00 AM 4.73 40.514 0.329 7.45 4.11 12.22
12/22/2021 12:45:00 AM 4.72 40.496 0.328 7.49 4.11 12.2
12/22/2021 1:00:00 AM 4.72 40.496 0.328 7.48 4.11 12.18
12/22/2021 1:15:00 AM 4.7 40.46 0.328 7.48 4.35 12.17
12/22/2021 1:30:00 AM 4.7 40.46 0.328 7.47 4.22 12.16
12/22/2021 1:45:00 AM 4.68 40.424 0.328 7.47 4.39 12.17
12/22/2021 2:00:00 AM 4.68 40.424 0.328 7.47 4.29 12.14
12/22/2021 2:15:00 AM 4.67 40.406 0.328 7.43 4.23 12.14
12/22/2021 2:30:00 AM 4.65 40.37 0.327 7.47 4.27 12.16
12/22/2021 2:45:00 AM 4.64 40.352 0.327 7.47 3.92 12.14
12/22/2021 3:00:00 AM 4.62 40.316 0.327 7.47 3.95 12.14
12/22/2021 3:15:00 AM 4.6 40.28 0.326 7.47 3.75 12.14
12/22/2021 3:30:00 AM 4.58 40.244 0.326 7.46 4.03 12.06
12/22/2021 3:45:00 AM 4.56 40.208 0.326 7.45 4.05 12.14
12/22/2021 4:00:00 AM 4.54 40.172 0.325 7.47 4.19 12.16
12/22/2021 4:15:00 AM 4.52 40.136 0.325 7.41 4.23 12.14
12/22/2021 4:30:00 AM 4.5 40.1 0.325 7.46 4.19 12.17
12/22/2021 4:45:00 AM 4.49 40.082 0.324 7.46 4.45 12.17
12/22/2021 5:00:00 AM 4.48 40.064 0.325 7.41 3.99 12.16
12/22/2021 5:15:00 AM 4.47 40.046 0.325 7.46 3.78 12.15
12/22/2021 5:30:00 AM 4.46 40.028 0.325 7.45 3.7 12.17
12/22/2021 5:45:00 AM 4.45 40.01 0.325 7.45 3.72 12.18
12/22/2021 6:00:00 AM 4.44 39.992 0.324 7.4 3.91 12.19
12/22/2021 6:15:00 AM 4.44 39.992 0.325 7.46 3.73 12.18
12/22/2021 6:30:00 AM 4.44 39.992 0.325 7.45 3.93 12.19
12/22/2021 6:45:00 AM 4.44 39.992 0.324 7.46 4.19 12.19
12/22/2021 7:00:00 AM 4.44 39.992 0.325 7.46 3.96 12.21
12/22/2021 7:15:00 AM 4.44 39.992 0.325 7.45 3.94 12.2
12/22/2021 7:30:00 AM 4.44 39.992 0.325 7.4 3.98 12.19
12/22/2021 7:45:00 AM 4.44 39.992 0.325 7.45 3.78 12.18
12/22/2021 8:00:00 AM 4.44 39.992 0.325 7.45 5.21 12.21
12/22/2021 8:15:00 AM 4.44 39.992 0.326 7.39 4.73 12.21
12/22/2021 8:30:00 AM 4.45 40.01 0.326 7.45 4.26 12.24
12/22/2021 8:45:00 AM 4.45 40.01 0.326 7.45 4.68 12.24
12/22/2021 9:00:00 AM 4.46 40.028 0.326 7.38 4.99 12.29
12/22/2021 9:15:00 AM 4.47 40.046 0.327 7.45 7.36 12.31
12/22/2021 9:30:00 AM 4.49 40.082 0.326 7.47 5.27 12.38
12/22/2021 9:45:00 AM 4.51 40.118 0.327 7.46 4.54 12.42
12/22/2021 10:00:00 AM 4.52 40.136 0.326 7.46 4.65 12.47
12/22/2021 10:15:00 AM 4.53 40.154 0.326 7.48 4.53 12.47
12/22/2021 10:30:00 AM 4.53 40.154 0.326 7.48 4.41 12.51
12/22/2021 10:45:00 AM 4.54 40.172 0.326 7.49 4.66 12.57
12/22/2021 11:00:00 AM 4.56 40.208 0.327 7.49 4.48 12.65
12/22/2021 11:15:00 AM 4.62 40.316 0.327 7.51 4.9 12.75
12/22/2021 11:30:00 AM 4.61 40.298 0.327 7.46 5.47 12.75
12/22/2021 11:45:00 AM 4.62 40.316 0.327 7.53 5.26 12.82
12/22/2021 12:00:00 PM 4.61 40.298 0.327 7.53 5.35 12.83
12/22/2021 12:15:00 PM 4.63 40.334 0.328 7.54 5.17 12.9
12/22/2021 12:30:00 PM 4.71 40.478 0.328 7.55 5.1 12.99
12/22/2021 12:45:00 PM 4.75 40.55 0.329 7.55 5.39 13.07
12/22/2021 1:00:00 PM 4.75 40.55 0.329 7.57 5.55 13.11
12/22/2021 1:15:00 PM 4.76 40.568 0.328 7.57 6.5 13.17
12/22/2021 1:30:00 PM 4.75 40.55 0.329 7.58 6.6 13.22
12/22/2021 1:45:00 PM 4.75 40.55 0.329 7.59 5.19 13.28
12/22/2021 2:00:00 PM 4.74 40.532 0.329 7.6 4.9 13.28
12/22/2021 2:15:00 PM 4.73 40.514 0.329 7.61 4.61 13.31
12/22/2021 2:30:00 PM 4.74 40.532 0.329 7.62 5.02 13.33
12/22/2021 2:45:00 PM 4.74 40.532 0.329 7.63 4.08 13.35
12/22/2021 3:00:00 PM 4.74 40.532 0.329 7.63 4.52 13.37
12/22/2021 3:15:00 PM 4.73 40.514 0.33 7.64 4.41 13.35
12/22/2021 3:30:00 PM 4.72 40.496 0.33 7.64 4.02 13.35
12/22/2021 3:45:00 PM 4.7 40.46 0.33 7.64 4.5 13.32
12/22/2021 4:00:00 PM 4.68 40.424 0.33 7.64 3.95 13.32
12/22/2021 4:15:00 PM 4.67 40.406 0.331 7.64 4.92 13.29
12/22/2021 4:30:00 PM 4.66 40.388 0.331 7.63 5.16 13.24
12/22/2021 4:45:00 PM 4.64 40.352 0.331 7.59 19.14 13.22
12/22/2021 5:00:00 PM 4.63 40.334 0.331 7.63 6.48 13.17
12/22/2021 5:15:00 PM 4.62 40.316 0.331 7.6 4.99 13.12
12/22/2021 5:30:00 PM 4.61 40.298 0.331 7.62 12.98 13.08
12/22/2021 5:45:00 PM 4.61 40.298 0.332 7.61 4.74 13
12/22/2021 6:00:00 PM 4.59 40.262 0.333 7.61 4.19 12.99
12/22/2021 6:15:00 PM 4.59 40.262 0.333 7.58 4.37 12.92
12/22/2021 6:30:00 PM 4.58 40.244 0.333 7.6 5.27 12.89
12/22/2021 6:45:00 PM 4.57 40.226 0.333 7.59 4.27 12.85
12/22/2021 7:00:00 PM 4.57 40.226 0.333 7.58 3.81 12.8
12/22/2021 7:15:00 PM 4.55 40.19 0.333 7.58 5.24 12.76
12/22/2021 7:30:00 PM 4.55 40.19 0.333 7.57 7.12 12.7
12/22/2021 7:45:00 PM 4.55 40.19 0.334 7.55 7.16 12.68
12/22/2021 8:00:00 PM 4.53 40.154 0.333 7.56 3.91 12.65
12/22/2021 8:15:00 PM 4.51 40.118 0.334 7.55 3.69 12.62
12/22/2021 8:30:00 PM 4.46 40.028 0.334 7.55 3.75 12.59
12/22/2021 8:45:00 PM 4.42 39.956 0.334 7.54 3.99 12.52
12/22/2021 9:00:00 PM 4.42 39.956 0.334 7.54 3.83 12.53
12/22/2021 9:15:00 PM 4.41 39.938 0.334 7.54 3.87 12.53
12/22/2021 9:30:00 PM 4.41 39.938 0.334 7.53 3.83 12.52
12/22/2021 9:45:00 PM 4.4 39.92 0.334 7.53 3.78 12.45
12/22/2021 10:00:00 PM 4.37 39.866 0.334 7.52 4.29 12.49
12/22/2021 10:15:00 PM 4.34 39.812 0.334 7.53 3.71 12.49
12/22/2021 10:30:00 PM 4.32 39.776 0.335 7.52 3.88 12.47
12/22/2021 10:45:00 PM 4.31 39.758 0.335 7.52 4.21 12.44
12/22/2021 11:00:00 PM 4.31 39.758 0.335 7.5 4.13 12.46
12/22/2021 11:15:00 PM 4.29 39.722 0.335 7.51 4.01 12.45
12/22/2021 11:30:00 PM 4.28 39.704 0.335 7.49 4.46 12.44
12/22/2021 11:45:00 PM 4.26 39.668 0.335 7.51 4.97 12.43
12/23/2021 12:00:00 AM 4.24 39.632 0.335 7.51 3.89 12.44
12/23/2021 12:15:00 AM 4.23 39.614 0.335 7.5 3.91 12.42
12/23/2021 12:30:00 AM 4.22 39.596 0.336 7.44 4.09 12.4
12/23/2021 12:45:00 AM 4.21 39.578 0.336 7.5 3.96 12.42
12/23/2021 1:00:00 AM 4.21 39.578 0.336 7.49 3.95 12.39
12/23/2021 1:15:00 AM 4.19 39.542 0.336 7.49 3.77 12.4
12/23/2021 1:30:00 AM 4.18 39.524 0.336 7.49 3.64 12.37
12/23/2021 1:45:00 AM 4.15 39.47 0.336 7.48 3.8 12.39
12/23/2021 2:00:00 AM 4.15 39.47 0.337 7.48 3.68 12.34
12/23/2021 2:15:00 AM 4.14 39.452 0.337 7.47 3.5 12.38
12/23/2021 2:30:00 AM 4.13 39.434 0.336 7.48 3.4 12.34
12/23/2021 2:45:00 AM 4.12 39.416 0.336 7.49 3.11 12.36
12/23/2021 3:00:00 AM 4.1 39.38 0.336 7.46 3.28 12.33
12/23/2021 3:15:00 AM 4.09 39.362 0.336 7.49 3.33 12.36
12/23/2021 3:30:00 AM 4.08 39.344 0.336 7.48 3.36 12.34
12/23/2021 3:45:00 AM 4.06 39.308 0.336 7.49 3.59 12.36
12/23/2021 4:00:00 AM 4.04 39.272 0.337 7.47 3.29 12.36
12/23/2021 4:15:00 AM 4.03 39.254 0.337 7.46 3.35 12.37
12/23/2021 4:30:00 AM 4.02 39.236 0.336 7.48 3.34 12.37
12/23/2021 4:45:00 AM 4 39.2 0.337 7.47 3.19 12.37
12/23/2021 5:00:00 AM 3.99 39.182 0.336 7.45 3.13 12.38
12/23/2021 5:15:00 AM 3.96 39.128 0.337 7.47 3.22 12.37
12/23/2021 5:30:00 AM 3.94 39.092 0.336 7.48 3.2 12.36
12/23/2021 5:45:00 AM 3.91 39.038 0.336 7.48 3.46 12.38
12/23/2021 6:00:00 AM 3.9 39.02 0.336 7.44 3.27 12.39
12/23/2021 6:15:00 AM 3.87 38.966 0.337 7.48 3.79 12.41
12/23/2021 6:30:00 AM 3.86 38.948 0.337 7.47 3.61 12.39
12/23/2021 6:45:00 AM 3.83 38.894 0.337 7.48 3.6 12.41
12/23/2021 7:00:00 AM 3.81 38.858 0.337 7.48 3.36 12.41
12/23/2021 7:15:00 AM 3.79 38.822 0.337 7.48 3.41 12.36
12/23/2021 7:30:00 AM 3.77 38.786 0.337 7.42 3.56 12.35
12/23/2021 7:45:00 AM 3.75 38.75 0.337 7.48 3.54 12.4
12/23/2021 8:00:00 AM 3.73 38.714 0.338 7.47 7.6 12.42
12/23/2021 8:15:00 AM 3.7 38.66 0.338 7.48 3.94 12.44
12/23/2021 8:30:00 AM 3.69 38.642 0.338 7.47 9.93 12.46
12/23/2021 8:45:00 AM 3.68 38.624 0.338 7.46 3.68 12.49
12/23/2021 9:00:00 AM 3.66 38.588 0.339 7.48 3.61 12.53
12/23/2021 9:15:00 AM 3.65 38.57 0.339 7.47 3.68 12.55
12/23/2021 9:30:00 AM 3.63 38.534 0.339 7.46 3.34 12.58
12/23/2021 9:45:00 AM 3.63 38.534 0.339 7.45 4.87 12.68
12/23/2021 10:00:00 AM 3.63 38.534 0.34 7.49 4.57 12.74
12/23/2021 10:15:00 AM 3.64 38.552 0.34 7.49 4.4 12.77
12/23/2021 10:30:00 AM 3.63 38.534 0.34 7.51 4.21 12.82
12/23/2021 10:45:00 AM 3.63 38.534 0.34 7.52 3.44 12.85
12/23/2021 11:00:00 AM 3.64 38.552 0.34 7.48 3.35 12.88
12/23/2021 11:15:00 AM 3.64 38.552 0.341 7.53 3.3 13
12/23/2021 11:30:00 AM 3.65 38.57 0.341 7.53 3.27 13
12/23/2021 11:45:00 AM 3.66 38.588 0.342 7.53 3.41 13.06
12/23/2021 12:00:00 PM 3.68 38.624 0.342 7.53 3.44 13.15
12/23/2021 12:15:00 PM 3.71 38.678 0.342 7.55 3.22 13.27
12/23/2021 12:30:00 PM 3.76 38.768 0.343 7.52 3.25 13.24
12/23/2021 12:45:00 PM 3.81 38.858 0.343 7.57 3.23 13.32
12/23/2021 1:00:00 PM 3.89 39.002 0.343 7.58 3.15 13.38
12/23/2021 1:15:00 PM 3.95 39.11 0.344 7.6 3.49 13.46
12/23/2021 1:30:00 PM 4.01 39.218 0.344 7.59 3.75 13.51
12/23/2021 1:45:00 PM 4.08 39.344 0.345 7.61 3.51 13.55
12/23/2021 2:00:00 PM 4.14 39.452 0.345 7.6 3.5 13.67
12/23/2021 2:15:00 PM 4.19 39.542 0.345 7.64 3.69 13.7
12/23/2021 2:30:00 PM 4.23 39.614 0.346 7.64 4.04 13.7
12/23/2021 2:45:00 PM 4.28 39.704 0.347 7.6 3.96 13.73
12/23/2021 3:00:00 PM 4.32 39.776 0.348 7.65 4.02 13.72
12/23/2021 3:15:00 PM 4.37 39.866 0.349 7.63 7 13.69
12/23/2021 3:30:00 PM 4.39 39.902 0.349 7.65 5.06 13.77
12/23/2021 3:45:00 PM 4.42 39.956 0.349 7.66 4.58 13.77
12/23/2021 4:00:00 PM 4.43 39.974 0.35 7.67 4.19 13.7
12/23/2021 4:15:00 PM 4.44 39.992 0.351 7.66 3.88 13.64
12/23/2021 4:30:00 PM 4.43 39.974 0.352 7.64 4.25 13.65
12/23/2021 4:45:00 PM 4.43 39.974 0.352 7.66 4.17 13.57
12/23/2021 5:00:00 PM 4.42 39.956 0.352 7.67 4.95 13.55
12/23/2021 5:15:00 PM 4.41 39.938 0.353 7.65 4.78 13.49
12/23/2021 5:30:00 PM 4.4 39.92 0.353 7.66 4.42 13.52
12/23/2021 5:45:00 PM 4.4 39.92 0.353 7.66 4.23 13.42
12/23/2021 6:00:00 PM 4.38 39.884 0.353 7.65 3.19 13.39
12/23/2021 6:15:00 PM 4.37 39.866 0.354 7.65 3.19 13.33
12/23/2021 6:30:00 PM 4.37 39.866 0.354 7.65 3.18 13.27
12/23/2021 6:45:00 PM 4.36 39.848 0.354 7.64 3.07 13.24
12/23/2021 7:00:00 PM 4.36 39.848 0.355 7.64 3.22 13.17
12/23/2021 7:15:00 PM 4.35 39.83 0.355 7.63 3.09 13.11
12/23/2021 7:30:00 PM 4.34 39.812 0.356 7.63 2.9 13.08
12/23/2021 7:45:00 PM 4.33 39.794 0.356 7.62 3 13.03
12/23/2021 8:00:00 PM 4.32 39.776 0.357 7.61 3.04 12.98
12/23/2021 8:15:00 PM 4.32 39.776 0.358 7.61 2.97 12.94
12/23/2021 8:30:00 PM 4.32 39.776 0.359 7.6 3.02 12.89
12/23/2021 8:45:00 PM 4.32 39.776 0.36 7.6 3.16 12.82
12/23/2021 9:00:00 PM 4.32 39.776 0.361 7.6 2.99 12.81
12/23/2021 9:15:00 PM 4.33 39.794 0.362 7.6 2.92 12.76
12/23/2021 9:30:00 PM 4.35 39.83 0.363 7.54 2.97 12.68
12/23/2021 9:45:00 PM 4.36 39.848 0.364 7.56 2.96 12.66
12/23/2021 10:00:00 PM 4.38 39.884 0.365 7.58 2.94 12.62
12/23/2021 10:15:00 PM 4.39 39.902 0.365 7.58 2.85 12.58
12/23/2021 10:30:00 PM 4.41 39.938 0.366 7.57 2.97 12.55
12/23/2021 10:45:00 PM 4.42 39.956 0.367 7.57 3.03 12.51
12/23/2021 11:00:00 PM 4.42 39.956 0.366 7.57 2.9 12.47
12/23/2021 11:15:00 PM 4.43 39.974 0.366 7.56 2.96 12.47
12/23/2021 11:30:00 PM 4.45 40.01 0.366 7.55 2.92 12.45
12/23/2021 11:45:00 PM 4.45 40.01 0.366 7.55 2.93 12.44
12/24/2021 12:00:00 AM 4.45 40.01 0.365 7.56 2.79 12.43
12/24/2021 12:15:00 AM 4.43 39.974 0.364 7.55 2.95 12.43
12/24/2021 12:30:00 AM 4.42 39.956 0.364 7.54 2.76 12.41
12/24/2021 12:45:00 AM 4.41 39.938 0.363 7.55 2.84 12.41
12/24/2021 1:00:00 AM 4.42 39.956 0.363 7.54 2.78 12.36
12/24/2021 1:15:00 AM 4.41 39.938 0.362 7.54 2.78 12.35
12/24/2021 1:30:00 AM 4.41 39.938 0.362 7.53 2.94 12.33
12/24/2021 1:45:00 AM 4.41 39.938 0.362 7.53 2.74 12.32
12/24/2021 2:00:00 AM 4.42 39.956 0.362 7.53 2.83 12.33
12/24/2021 2:15:00 AM 4.43 39.974 0.362 7.52 2.71 12.3
12/24/2021 2:30:00 AM 4.43 39.974 0.362 7.51 3.13 12.27
12/24/2021 2:45:00 AM 4.43 39.974 0.362 7.52 2.74 12.22
12/24/2021 3:00:00 AM 4.44 39.992 0.362 7.52 2.82 12.26
12/24/2021 3:15:00 AM 4.46 40.028 0.363 7.5 3.64 12.21
12/24/2021 3:30:00 AM 4.46 40.028 0.363 7.52 2.88 12.22
12/24/2021 3:45:00 AM 4.47 40.046 0.363 7.51 2.86 12.23
12/24/2021 4:00:00 AM 4.48 40.064 0.363 7.52 2.84 12.21
12/24/2021 4:15:00 AM 4.49 40.082 0.364 7.51 2.72 12.21
12/24/2021 4:30:00 AM 4.5 40.1 0.364 7.51 2.74 12.21
12/24/2021 4:45:00 AM 4.5 40.1 0.364 7.51 2.68 12.2
12/24/2021 5:00:00 AM 4.51 40.118 0.364 7.52 2.67 12.2
12/24/2021 5:15:00 AM 4.51 40.118 0.364 7.52 2.77 12.18
12/24/2021 5:30:00 AM 4.52 40.136 0.364 7.52 2.81 12.19
12/24/2021 5:45:00 AM 4.53 40.154 0.364 7.49 2.85 12.17
12/24/2021 6:00:00 AM 4.54 40.172 0.364 7.52 2.99 12.18
12/24/2021 6:15:00 AM 4.55 40.19 0.365 7.52 2.94 12.15
12/24/2021 6:30:00 AM 4.55 40.19 0.365 7.51 3.14 12.13
12/24/2021 6:45:00 AM 4.56 40.208 0.365 7.52 2.93 12.14
12/24/2021 7:00:00 AM 4.57 40.226 0.365 7.51 2.81 12.13
12/24/2021 7:15:00 AM 4.57 40.226 0.366 7.48 2.82 12.1
12/24/2021 7:30:00 AM 4.58 40.244 0.366 7.51 2.99 12.03
12/24/2021 7:45:00 AM 4.59 40.262 0.366 7.5 10.93 12.01
12/24/2021 8:00:00 AM 4.6 40.28 0.367 7.5 3.08 12.06
12/24/2021 8:15:00 AM 4.61 40.298 0.367 7.5 3.38 12.06
12/24/2021 8:30:00 AM 4.64 40.352 0.368 7.49 6.1 12.1
12/24/2021 8:45:00 AM 4.66 40.388 0.369 7.49 3.5 12.13
12/24/2021 9:00:00 AM 4.67 40.406 0.369 7.48 3.75 12.15
12/24/2021 9:15:00 AM 4.69 40.442 0.37 7.48 3.51 12.06
12/24/2021 9:30:00 AM 4.7 40.46 0.37 7.49 3.13 12.12
12/24/2021 9:45:00 AM 4.72 40.496 0.371 7.5 3.24 12.24
12/24/2021 10:00:00 AM 4.74 40.532 0.37 7.5 3.07 12.27
12/24/2021 10:15:00 AM 4.76 40.568 0.372 7.5 3.31 12.3
12/24/2021 10:30:00 AM 4.8 40.64 0.374 7.49 12.32 12.14
12/24/2021 10:45:00 AM 4.82 40.676 0.372 7.53 3.76 12.42
12/24/2021 11:00:00 AM 4.84 40.712 0.371 7.55 5.22 12.47
12/24/2021 11:15:00 AM 4.87 40.766 0.37 7.56 6.15 12.51
12/24/2021 11:30:00 AM 4.9 40.82 0.37 7.56 6.67 12.5
12/24/2021 11:45:00 AM 4.94 40.892 0.37 7.55 18.23 12.5
12/24/2021 12:00:00 PM 4.98 40.964 0.37 7.56 5.51 12.64
12/24/2021 12:15:00 PM 5.01 41.018 0.37 7.57 10.58 12.71
12/24/2021 12:30:00 PM 5.05 41.09 0.37 7.57 4.99 12.7
12/24/2021 12:45:00 PM 5.12 41.216 0.37 7.59 3.37 12.93
12/24/2021 1:00:00 PM 5.18 41.324 0.37 7.6 3.42 12.98
12/24/2021 1:15:00 PM 5.25 41.45 0.37 7.6 3.24 13.01
12/24/2021 1:30:00 PM 5.3 41.54 0.37 7.56 3.47 13.11
12/24/2021 1:45:00 PM 5.35 41.63 0.37 7.63 3.23 13.15
12/24/2021 2:00:00 PM 5.39 41.702 0.37 7.65 3.8 13.16
12/24/2021 2:15:00 PM 5.41 41.738 0.37 7.65 8.5 13.12
12/24/2021 2:30:00 PM 5.43 41.774 0.371 7.65 5.42 13.17
12/24/2021 2:45:00 PM 5.46 41.828 0.371 7.68 5.38 13.31
12/24/2021 3:00:00 PM 5.48 41.864 0.372 7.67 9.13 13.32
12/24/2021 3:15:00 PM 5.5 41.9 0.372 7.68 13.63 13.3
12/24/2021 3:30:00 PM 5.54 41.972 0.373 7.69 4.9 13.3
12/24/2021 3:45:00 PM 5.56 42.008 0.374 7.68 4.13 13.32
12/24/2021 4:00:00 PM 5.57 42.026 0.374 7.66 3.96 13.33
12/24/2021 4:15:00 PM 5.58 42.044 0.374 7.71 3.95 13.33
12/24/2021 4:30:00 PM 5.59 42.062 0.374 7.69 3.43 13.24
12/24/2021 4:45:00 PM 5.59 42.062 0.374 7.69 3.44 13.2
12/24/2021 5:00:00 PM 5.59 42.062 0.375 7.68 7.08 13.13
12/24/2021 5:15:00 PM 5.59 42.062 0.374 7.65 3.17 13.12
12/24/2021 5:30:00 PM 5.59 42.062 0.374 7.7 3.77 13.07
12/24/2021 5:45:00 PM 5.59 42.062 0.373 7.7 2.98 13
12/24/2021 6:00:00 PM 5.6 42.08 0.374 7.67 3.18 12.9
12/24/2021 6:15:00 PM 5.59 42.062 0.374 7.64 3.23 12.84
12/24/2021 6:30:00 PM 5.6 42.08 0.374 7.65 3.52 12.72
12/24/2021 6:45:00 PM 5.6 42.08 0.376 7.62 3.12 12.62
12/24/2021 7:00:00 PM 5.6 42.08 0.375 7.6 3.1 12.56
12/24/2021 7:15:00 PM 5.6 42.08 0.375 7.63 3.57 12.54
12/24/2021 7:30:00 PM 5.61 42.098 0.375 7.6 3.5 12.46
12/24/2021 7:45:00 PM 5.6 42.08 0.375 7.6 3.66 12.44
12/24/2021 8:00:00 PM 5.61 42.098 0.374 7.53 3.46 12.41
12/24/2021 8:15:00 PM 5.61 42.098 0.374 7.58 3.43 12.29
12/24/2021 8:30:00 PM 5.61 42.098 0.374 7.54 3.47 12.29
12/24/2021 8:45:00 PM 5.62 42.116 0.374 7.58 3.53 12.15
12/24/2021 9:00:00 PM 5.62 42.116 0.375 7.56 3.43 12.15
12/24/2021 9:15:00 PM 5.63 42.134 0.375 7.54 3.38 12.13
12/24/2021 9:30:00 PM 5.63 42.134 0.374 7.56 3.47 12.18
12/24/2021 9:45:00 PM 5.63 42.134 0.381 7.5 3.51 11.91
12/24/2021 10:00:00 PM 5.64 42.152 0.376 7.56 3.36 12.04
12/24/2021 10:15:00 PM 5.65 42.17 0.375 7.56 3.31 12.02
12/24/2021 10:30:00 PM 5.65 42.17 0.374 7.55 3.3 12.01
12/24/2021 10:45:00 PM 5.66 42.188 0.374 7.56 3.19 11.95
12/24/2021 11:00:00 PM 5.68 42.224 0.375 7.55 3.26 11.94
12/24/2021 11:15:00 PM 5.69 42.242 0.375 7.55 3.23 11.89
12/24/2021 11:30:00 PM 5.69 42.242 0.376 7.54 3.35 11.89
12/24/2021 11:45:00 PM 5.7 42.26 0.376 7.53 3.11 11.88
12/25/2021 12:00:00 AM 5.71 42.278 0.376 7.54 3.12 11.79
12/25/2021 12:15:00 AM 5.72 42.296 0.375 7.54 3.1 11.87
12/25/2021 12:30:00 AM 5.73 42.314 0.375 7.53 3.2 11.81
12/25/2021 12:45:00 AM 5.74 42.332 0.375 7.54 3.06 11.79
12/25/2021 1:00:00 AM 5.76 42.368 0.375 7.51 3.09 11.77
12/25/2021 1:15:00 AM 5.77 42.386 0.374 7.51 3.06 11.76
12/25/2021 1:30:00 AM 5.78 42.404 0.374 7.52 3.38 11.73
12/25/2021 1:45:00 AM 5.79 42.422 0.373 7.51 3.21 11.74
12/25/2021 2:00:00 AM 5.8 42.44 0.373 7.52 3.22 11.73
12/25/2021 2:15:00 AM 5.81 42.458 0.373 7.52 3.31 11.76
12/25/2021 2:30:00 AM 5.82 42.476 0.372 7.53 3.23 11.72
12/25/2021 2:45:00 AM 5.83 42.494 0.373 7.52 3.52 11.72
12/25/2021 3:00:00 AM 5.85 42.53 0.372 7.5 2.95 11.66
12/25/2021 3:15:00 AM 5.86 42.548 0.372 7.51 3.01 11.7
12/25/2021 3:30:00 AM 5.88 42.584 0.372 7.52 3.08 11.69
12/25/2021 3:45:00 AM 5.89 42.602 0.372 7.51 2.91 11.66
12/25/2021 4:00:00 AM 5.91 42.638 0.373 7.51 3.17 11.62
12/25/2021 4:15:00 AM 5.92 42.656 0.373 7.51 3.31 11.58
12/25/2021 4:30:00 AM 5.93 42.674 0.373 7.49 3.27 11.57
12/25/2021 4:45:00 AM 5.95 42.71 0.373 7.51 3.41 11.65
12/25/2021 5:00:00 AM 5.96 42.728 0.373 7.51 3.31 11.61
12/25/2021 5:15:00 AM 5.97 42.746 0.372 7.49 3.65 11.61
12/25/2021 5:30:00 AM 5.99 42.782 0.372 7.51 3.49 11.6
12/25/2021 5:45:00 AM 6 42.8 0.372 7.51 3.56 11.62
12/25/2021 6:00:00 AM 6.01 42.818 0.372 7.51 3.27 11.61
12/25/2021 6:15:00 AM 6.02 42.836 0.372 7.51 3.68 11.55
12/25/2021 6:30:00 AM 6.03 42.854 0.372 7.51 3.76 11.6
12/25/2021 6:45:00 AM 6.04 42.872 0.372 7.51 3.7 11.57
12/25/2021 7:00:00 AM 6.05 42.89 0.372 7.49 3.56 11.6
12/25/2021 7:15:00 AM 6.06 42.908 0.371 7.51 3.81 11.59
12/25/2021 7:30:00 AM 6.06 42.908 0.371 7.51 3.72 11.59
12/25/2021 7:45:00 AM 6.07 42.926 0.37 7.51 3.92 11.62
12/25/2021 8:00:00 AM 6.08 42.944 0.369 7.5 4.73 11.54
12/25/2021 8:15:00 AM 6.09 42.962 0.372 7.49 5.73 11.44
12/25/2021 8:30:00 AM 6.1 42.98 0.369 7.5 4.98 11.57
12/25/2021 8:45:00 AM 6.11 42.998 0.368 7.5 4.49 11.6
12/25/2021 9:00:00 AM 6.11 42.998 0.367 7.5 4.77 11.58
12/25/2021 9:15:00 AM 6.12 43.016 0.367 7.5 4.64 11.61
12/25/2021 9:30:00 AM 6.13 43.034 0.366 7.5 4.53 11.62
12/25/2021 9:45:00 AM 6.14 43.052 0.365 7.51 4.71 11.66
12/25/2021 10:00:00 AM 6.16 43.088 0.365 7.52 4.4 11.69
12/25/2021 10:15:00 AM 6.18 43.124 0.366 7.51 5.37 11.72
12/25/2021 10:30:00 AM 6.2 43.16 0.368 7.51 4.78 11.71
12/25/2021 10:45:00 AM 6.23 43.214 0.367 7.52 5.05 11.79
12/25/2021 11:00:00 AM 6.26 43.268 0.367 7.53 5.3 11.88
12/25/2021 11:15:00 AM 6.28 43.304 0.366 7.49 5.37 11.91
12/25/2021 11:30:00 AM 6.3 43.34 0.366 7.54 5.87 11.93
12/25/2021 11:45:00 AM 6.32 43.376 0.367 7.55 6.25 12
12/25/2021 12:00:00 PM 6.35 43.43 0.369 7.56 5.56 12.06
12/25/2021 12:15:00 PM 6.37 43.466 0.372 7.56 5.26 12.13
12/25/2021 12:30:00 PM 6.39 43.502 0.374 7.56 6.17 12.16
12/25/2021 12:45:00 PM 6.41 43.538 0.374 7.57 6.52 12.2
12/25/2021 1:00:00 PM 6.43 43.574 0.373 7.57 7.27 12.22
12/25/2021 1:15:00 PM 6.44 43.592 0.373 7.58 7.1 12.26
12/25/2021 1:30:00 PM 6.46 43.628 0.378 7.59 7.67 12.34
12/25/2021 1:45:00 PM 6.48 43.664 0.387 7.59 7.16 12.36
12/25/2021 2:00:00 PM 6.48 43.664 0.396 7.6 7.77 12.41
12/25/2021 2:15:00 PM 6.47 43.646 0.403 7.55 8.94 12.38
12/25/2021 2:30:00 PM 6.46 43.628 0.407 7.58 8.05 12.42
12/25/2021 2:45:00 PM 6.45 43.61 0.411 7.6 9.26 12.48
12/25/2021 3:00:00 PM 6.42 43.556 0.417 7.6 11.97 12.5
12/25/2021 3:15:00 PM 6.4 43.52 0.434 7.6 12.99 12.51
12/25/2021 3:30:00 PM 6.38 43.484 0.468 7.59 13.06 12.49
12/25/2021 3:45:00 PM 6.35 43.43 0.511 7.57 14.63 12.46
12/25/2021 4:00:00 PM 6.32 43.376 0.56 7.58 13.82 12.46
12/25/2021 4:15:00 PM 6.3 43.34 0.579 7.55 14.49 12.45
12/25/2021 4:30:00 PM 6.27 43.286 0.564 7.58 14.51 12.47
12/25/2021 4:45:00 PM 6.24 43.232 0.524 7.57 15.1 12.45
12/25/2021 5:00:00 PM 6.19 43.142 0.471 7.57 16.33 12.47
12/25/2021 5:15:00 PM 6.14 43.052 0.416 7.56 15.73 12.49
12/25/2021 5:30:00 PM 6.1 42.98 0.373 7.55 16.42 12.48
12/25/2021 5:45:00 PM 6.07 42.926 0.346 7.54 16.24 12.47
12/25/2021 6:00:00 PM 6.06 42.908 0.332 7.52 15.7 12.44
12/25/2021 6:15:00 PM 6.04 42.872 0.319 7.51 16.68 12.44
12/25/2021 6:30:00 PM 6.02 42.836 0.304 7.49 14.15 12.41
12/25/2021 6:45:00 PM 6 42.8 0.288 7.47 16.96 12.39
12/25/2021 7:00:00 PM 5.98 42.764 0.273 7.45 16.95 12.38
12/25/2021 7:15:00 PM 5.96 42.728 0.261 7.43 15.97 12.37
12/25/2021 7:30:00 PM 5.93 42.674 0.252 7.42 15.79 12.37
12/25/2021 7:45:00 PM 5.91 42.638 0.245 7.4 21.82 12.36
12/25/2021 8:00:00 PM 5.88 42.584 0.24 7.39 24.67 12.33
12/25/2021 8:15:00 PM 5.85 42.53 0.237 7.37 20.28 12.32
12/25/2021 8:30:00 PM 5.83 42.494 0.234 7.36 22.69 12.31
12/25/2021 8:45:00 PM 5.81 42.458 0.233 7.35 21.35 12.3
12/25/2021 9:00:00 PM 5.79 42.422 0.232 7.34 21.59 12.26
12/25/2021 9:15:00 PM 5.78 42.404 0.232 7.33 22.17 12.23
12/25/2021 9:30:00 PM 5.78 42.404 0.233 7.32 20.76 12.22
12/25/2021 9:45:00 PM 5.78 42.404 0.235 7.32 23.2 12.23
12/25/2021 10:00:00 PM 5.79 42.422 0.237 7.32 26.64 12.22
12/25/2021 10:15:00 PM 5.8 42.44 0.239 7.33 23.77 12.21
12/25/2021 10:30:00 PM 5.82 42.476 0.243 7.33 23.01 12.19
12/25/2021 10:45:00 PM 5.84 42.512 0.246 7.33 21.82 12.18
12/25/2021 11:00:00 PM 5.87 42.566 0.249 7.34 23.18 12.15
12/25/2021 11:15:00 PM 5.9 42.62 0.252 7.34 20.45 12.14
12/25/2021 11:30:00 PM 5.92 42.656 0.254 7.34 20.97 12.12
12/25/2021 11:45:00 PM 5.94 42.692 0.256 7.35 18.53 12.11
12/26/2021 12:00:00 AM 5.96 42.728 0.257 7.35 20.19 12.09
12/26/2021 12:15:00 AM 5.98 42.764 0.259 7.35 18.61 12.05
12/26/2021 12:30:00 AM 5.99 42.782 0.26 7.36 20.14 12.08
12/26/2021 12:45:00 AM 6.01 42.818 0.261 7.36 19.25 12.05
12/26/2021 1:00:00 AM 6.02 42.836 0.262 7.35 17.11 12.04
12/26/2021 1:15:00 AM 6.03 42.854 0.263 7.36 18.2 12.02
12/26/2021 1:30:00 AM 6.03 42.854 0.264 7.36 19.49 12.02
12/26/2021 1:45:00 AM 6.03 42.854 0.265 7.32 17.65 12.02
12/26/2021 2:00:00 AM 6.04 42.872 0.266 7.34 15.97 12.02
12/26/2021 2:15:00 AM 6.05 42.89 0.266 7.37 15.82 12.01
12/26/2021 2:30:00 AM 6.04 42.872 0.267 7.36 16.3 12.01
12/26/2021 2:45:00 AM 6.05 42.89 0.268 7.36 16.22 12
12/26/2021 3:00:00 AM 6.05 42.89 0.268 7.37 14.96 12
12/26/2021 3:15:00 AM 6.05 42.89 0.269 7.34 15.38 12
12/26/2021 3:30:00 AM 6.04 42.872 0.27 7.32 14.99 11.97
12/26/2021 3:45:00 AM 6.04 42.872 0.27 7.37 14.25 11.99
12/26/2021 4:00:00 AM 6.04 42.872 0.271 7.37 15.31 11.97
12/26/2021 4:15:00 AM 6.04 42.872 0.272 7.37 13.29 11.98
12/26/2021 4:30:00 AM 6.04 42.872 0.273 7.37 12.46 11.97
12/26/2021 4:45:00 AM 6.04 42.872 0.274 7.36 13.55 11.96
12/26/2021 5:00:00 AM 6.03 42.854 0.275 7.37 12.9 11.96
12/26/2021 5:15:00 AM 6.03 42.854 0.275 7.37 12.23 11.95
12/26/2021 5:30:00 AM 6.03 42.854 0.276 7.37 13.1 11.97
12/26/2021 5:45:00 AM 6.02 42.836 0.276 7.38 11.73 11.95
12/26/2021 6:00:00 AM 6.02 42.836 0.277 7.38 12.15 11.97
12/26/2021 6:15:00 AM 6.02 42.836 0.278 7.37 21.66 11.94
12/26/2021 6:30:00 AM 6.01 42.818 0.278 7.38 12.09 11.96
12/26/2021 6:45:00 AM 6.01 42.818 0.279 7.38 11.97 11.95
12/26/2021 7:00:00 AM 6.01 42.818 0.28 7.38 12.04 11.97
12/26/2021 7:15:00 AM 6.01 42.818 0.281 7.38 11.79 11.96
12/26/2021 7:30:00 AM 6.01 42.818 0.281 7.38 11.4 11.96
12/26/2021 7:45:00 AM 6.01 42.818 0.282 7.38 12.08 11.96
12/26/2021 8:00:00 AM 6 42.8 0.283 7.37 10.68 11.98
12/26/2021 8:15:00 AM 6 42.8 0.283 7.39 10.68 11.99
12/26/2021 8:30:00 AM 5.99 42.782 0.284 7.39 10.43 12
12/26/2021 8:45:00 AM 5.99 42.782 0.284 7.39 9.82 12.02
12/26/2021 9:00:00 AM 5.99 42.782 0.285 7.4 9.9 12.05
12/26/2021 9:15:00 AM 5.99 42.782 0.286 7.4 9.7 12.07
12/26/2021 9:30:00 AM 6 42.8 0.287 7.4 10.29 12.1
12/26/2021 9:45:00 AM 6.01 42.818 0.287 7.41 10.13 12.14
12/26/2021 10:00:00 AM 6.02 42.836 0.288 7.41 9.97 12.18
12/26/2021 10:15:00 AM 6.02 42.836 0.288 7.42 10.56 12.22
12/26/2021 10:30:00 AM 6.03 42.854 0.289 7.43 10.4 12.24
12/26/2021 10:45:00 AM 6.05 42.89 0.289 7.43 10.45 12.28
12/26/2021 11:00:00 AM 6.06 42.908 0.29 7.44 10.43 12.32
12/26/2021 11:15:00 AM 6.07 42.926 0.29 7.38 10.59 12.35
12/26/2021 11:30:00 AM 6.09 42.962 0.291 7.46 9.73 12.4
12/26/2021 11:45:00 AM 6.11 42.998 0.292 7.46 12.7 12.46
12/26/2021 12:00:00 PM 6.15 43.07 0.292 7.47 10.33 12.53
12/26/2021 12:15:00 PM 6.19 43.142 0.292 7.47 9.98 12.61
12/26/2021 12:30:00 PM 6.24 43.232 0.294 7.5 10.61 12.65
12/26/2021 12:45:00 PM 6.27 43.286 0.294 7.51 10.06 12.69
12/26/2021 1:00:00 PM 6.29 43.322 0.294 7.53 10.43 12.76
12/26/2021 1:15:00 PM 6.32 43.376 0.295 7.53 10.38 12.8
12/26/2021 1:30:00 PM 6.35 43.43 0.295 7.54 9.43 12.83
12/26/2021 1:45:00 PM 6.38 43.484 0.296 7.55 9.51 12.87
12/26/2021 2:00:00 PM 6.39 43.502 0.297 7.49 8.62 12.9
12/26/2021 2:15:00 PM 6.41 43.538 0.297 7.57 9.26 12.93
12/26/2021 2:30:00 PM 6.42 43.556 0.298 7.57 8.61 12.96
12/26/2021 2:45:00 PM 6.43 43.574 0.298 7.58 9.12 12.97
12/26/2021 3:00:00 PM 6.44 43.592 0.299 7.58 17.9 13
12/26/2021 3:15:00 PM 6.46 43.628 0.299 7.59 8.71 13
12/26/2021 3:30:00 PM 6.46 43.628 0.3 7.59 8.49 12.99
12/26/2021 3:45:00 PM 6.46 43.628 0.3 7.59 8.29 12.97
12/26/2021 4:00:00 PM 6.46 43.628 0.301 7.59 7.41 12.94
12/26/2021 4:15:00 PM 6.45 43.61 0.302 7.59 7.5 12.89
12/26/2021 4:30:00 PM 6.43 43.574 0.302 7.59 7.27 12.88
12/26/2021 4:45:00 PM 6.42 43.556 0.303 7.59 6.81 12.82
12/26/2021 5:00:00 PM 6.4 43.52 0.304 7.58 7.83 12.79
12/26/2021 5:15:00 PM 6.38 43.484 0.304 7.58 7.42 12.74
12/26/2021 5:30:00 PM 6.36 43.448 0.305 7.57 6.88 12.68
12/26/2021 5:45:00 PM 6.33 43.394 0.305 7.57 6.88 12.65
12/26/2021 6:00:00 PM 6.31 43.358 0.306 7.55 6.9 12.61
12/26/2021 6:15:00 PM 6.29 43.322 0.306 7.56 6.32 12.56
12/26/2021 6:30:00 PM 6.27 43.286 0.306 7.55 6.79 12.5
12/26/2021 6:45:00 PM 6.25 43.25 0.307 7.54 6.28 12.47
12/26/2021 7:00:00 PM 6.23 43.214 0.308 7.54 6.77 12.43
12/26/2021 7:15:00 PM 6.22 43.196 0.308 7.53 6.64 12.4
12/26/2021 7:30:00 PM 6.21 43.178 0.309 7.52 6.19 12.35
12/26/2021 7:45:00 PM 6.2 43.16 0.309 7.52 6.55 12.32
12/26/2021 8:00:00 PM 6.19 43.142 0.31 7.51 6.18 12.28
12/26/2021 8:15:00 PM 6.17 43.106 0.31 7.51 6.08 12.24
12/26/2021 8:30:00 PM 6.16 43.088 0.31 7.51 5.66 12.22
12/26/2021 8:45:00 PM 6.15 43.07 0.311 7.49 7.44 12.2
12/26/2021 9:00:00 PM 6.14 43.052 0.311 7.5 6.06 12.18
12/26/2021 9:15:00 PM 6.13 43.034 0.312 7.49 6.22 12.16
12/26/2021 9:30:00 PM 6.1 42.98 0.312 7.48 6.05 12.14
12/26/2021 9:45:00 PM 6.09 42.962 0.313 7.49 5.96 12.13
12/26/2021 10:00:00 PM 6.08 42.944 0.313 7.48 5.87 12.12
12/26/2021 10:15:00 PM 6.08 42.944 0.314 7.48 5.95 12.08
12/26/2021 10:30:00 PM 6.07 42.926 0.314 7.47 5.79 12.06
12/26/2021 10:45:00 PM 6.06 42.908 0.315 7.47 5.47 12.08
12/26/2021 11:00:00 PM 6.04 42.872 0.315 7.47 5.82 12.06
12/26/2021 11:15:00 PM 6.03 42.854 0.316 7.47 5.35 12.04
12/26/2021 11:30:00 PM 6.02 42.836 0.316 7.47 6.28 12.04
12/26/2021 11:45:00 PM 6.02 42.836 0.316 7.46 5.2 12.04
12/27/2021 12:00:00 AM 6.01 42.818 0.317 7.46 5.17 12.02
12/27/2021 12:15:00 AM 6 42.8 0.317 7.46 5.22 12.01
12/27/2021 12:30:00 AM 6 42.8 0.317 7.46 5.06 12.01
12/27/2021 12:45:00 AM 5.98 42.764 0.318 7.45 4.68 11.98
12/27/2021 1:00:00 AM 5.97 42.746 0.319 7.41 4.71 11.99
12/27/2021 1:15:00 AM 5.95 42.71 0.319 7.45 5.04 11.96
12/27/2021 1:30:00 AM 5.94 42.692 0.319 7.45 4.76 11.99
12/27/2021 1:45:00 AM 5.92 42.656 0.319 7.45 4.71 11.98
12/27/2021 2:00:00 AM 5.9 42.62 0.319 7.45 4.79 11.99
12/27/2021 2:15:00 AM 5.89 42.602 0.32 7.44 4.67 11.96
12/27/2021 2:30:00 AM 5.86 42.548 0.32 7.44 4.35 11.98
12/27/2021 2:45:00 AM 5.84 42.512 0.32 7.45 4.64 12
12/27/2021 3:00:00 AM 5.81 42.458 0.321 7.44 4.65 11.96
12/27/2021 3:15:00 AM 5.8 42.44 0.321 7.44 4.6 11.96
12/27/2021 3:30:00 AM 5.78 42.404 0.322 7.44 4.43 11.97
12/27/2021 3:45:00 AM 5.77 42.386 0.323 7.38 4.53 11.97
12/27/2021 4:00:00 AM 5.75 42.35 0.323 7.43 4.5 11.91
12/27/2021 4:15:00 AM 5.74 42.332 0.324 7.43 4.96 11.92
12/27/2021 4:30:00 AM 5.72 42.296 0.324 7.43 4.74 11.95
12/27/2021 4:45:00 AM 5.7 42.26 0.324 7.44 4.79 11.97
12/27/2021 5:00:00 AM 5.68 42.224 0.324 7.43 4.92 11.96
12/27/2021 5:15:00 AM 5.67 42.206 0.324 7.43 4.82 11.95
12/27/2021 5:30:00 AM 5.65 42.17 0.325 7.43 4.54 11.96
12/27/2021 5:45:00 AM 5.64 42.152 0.326 7.43 4.51 11.93
12/27/2021 6:00:00 AM 5.62 42.116 0.326 7.43 4.83 11.92
12/27/2021 6:15:00 AM 5.6 42.08 0.327 7.43 4.64 11.95
12/27/2021 6:30:00 AM 5.58 42.044 0.327 7.43 4.89 11.98
12/27/2021 6:45:00 AM 5.57 42.026 0.327 7.44 4.55 11.95
12/27/2021 7:00:00 AM 5.56 42.008 0.327 7.43 4.52 11.93
12/27/2021 7:15:00 AM 5.54 41.972 0.328 7.43 5.34 11.96
12/27/2021 7:30:00 AM 5.53 41.954 0.328 7.43 4.81 11.96
12/27/2021 7:45:00 AM 5.51 41.918 0.328 7.44 4.95 12
12/27/2021 8:00:00 AM 5.5 41.9 0.329 7.39 5.77 12
12/27/2021 8:15:00 AM 5.49 41.882 0.329 7.44 5.79 12.01
12/27/2021 8:30:00 AM 5.48 41.864 0.33 7.44 5.18 12.02
12/27/2021 8:45:00 AM 5.46 41.828 0.33 7.43 5.08 12.05
12/27/2021 9:00:00 AM 5.45 41.81 0.33 7.44 4.89 12.03
12/27/2021 9:15:00 AM 5.44 41.792 0.331 7.43 5.31 12.02
12/27/2021 9:30:00 AM 5.43 41.774 0.331 7.45 4.77 12.09
12/27/2021 9:45:00 AM 5.42 41.756 0.331 7.43 4.5 12.08
12/27/2021 10:00:00 AM 5.4 41.72 0.332 7.45 4.47 12.15
12/27/2021 10:15:00 AM 5.39 41.702 0.332 7.46 4.97 12.19
12/27/2021 10:30:00 AM 5.39 41.702 0.332 7.46 4.56 12.26
12/27/2021 10:45:00 AM 5.4 41.72 0.333 7.48 4.55 12.3
12/27/2021 11:00:00 AM 5.42 41.756 0.333 7.48 4.46 12.35
12/27/2021 11:15:00 AM 5.43 41.774 0.334 7.48 4.36 12.38
12/27/2021 11:30:00 AM 5.44 41.792 0.335 7.49 4.55 12.44
12/27/2021 11:45:00 AM 5.42 41.756 0.335 7.49 4.34 12.45
12/27/2021 12:00:00 PM 5.41 41.738 0.334 7.51 4.51 12.52
12/27/2021 12:15:00 PM 5.41 41.738 0.334 7.51 4.33 12.54
12/27/2021 12:30:00 PM 5.38 41.684 0.335 7.52 3.9 12.61
12/27/2021 12:45:00 PM 5.32 41.576 0.335 7.51 4.3 12.63
12/27/2021 1:00:00 PM 5.26 41.468 0.335 7.53 4.79 12.69
12/27/2021 1:15:00 PM 5.27 41.486 0.335 7.52 4.56 12.71
12/27/2021 1:30:00 PM 5.28 41.504 0.335 7.55 4.67 12.74
12/27/2021 1:45:00 PM 5.29 41.522 0.335 7.55 4.77 12.77
12/27/2021 2:00:00 PM 5.3 41.54 0.335 7.56 4.48 12.81
12/27/2021 2:15:00 PM 5.31 41.558 0.336 7.56 4.55 12.84
12/27/2021 2:30:00 PM 5.31 41.558 0.337 7.56 4.45 12.83
12/27/2021 2:45:00 PM 5.31 41.558 0.337 7.57 4.71 12.85
12/27/2021 3:00:00 PM 5.31 41.558 0.337 7.57 4.58 12.85
12/27/2021 3:15:00 PM 5.33 41.594 0.337 7.58 4.52 12.86
12/27/2021 3:30:00 PM 5.35 41.63 0.337 7.55 4.58 12.82
12/27/2021 3:45:00 PM 5.35 41.63 0.338 7.57 4.56 12.81
12/27/2021 4:00:00 PM 5.34 41.612 0.338 7.57 4.36 12.74
12/27/2021 4:15:00 PM 5.34 41.612 0.338 7.57 4.13 12.78
12/27/2021 4:30:00 PM 5.33 41.594 0.339 7.53 4.36 12.74
12/27/2021 4:45:00 PM 5.32 41.576 0.338 7.56 3.84 12.7
12/27/2021 5:00:00 PM 5.31 41.558 0.339 7.56 4.49 12.69
12/27/2021 5:15:00 PM 5.31 41.558 0.339 7.56 4.33 12.68
12/27/2021 5:30:00 PM 5.31 41.558 0.339 7.55 4.44 12.62
12/27/2021 5:45:00 PM 5.31 41.558 0.34 7.55 4.65 12.62
12/27/2021 6:00:00 PM 5.32 41.576 0.341 7.54 4.5 12.54
12/27/2021 6:15:00 PM 5.32 41.576 0.341 7.54 4.34 12.52
12/27/2021 6:30:00 PM 5.33 41.594 0.342 7.54 4.25 12.49
12/27/2021 6:45:00 PM 5.34 41.612 0.341 7.53 3.98 12.47
12/27/2021 7:00:00 PM 5.31 41.558 0.341 7.54 4.51 12.43
12/27/2021 7:15:00 PM 5.31 41.558 0.341 7.53 4.87 12.43
12/27/2021 7:30:00 PM 5.31 41.558 0.342 7.51 4.95 12.38
12/27/2021 7:45:00 PM 5.3 41.54 0.343 7.48 4.56 12.38
12/27/2021 8:00:00 PM 5.31 41.558 0.343 7.52 4.96 12.33
12/27/2021 8:15:00 PM 5.31 41.558 0.343 7.51 5.45 12.31
12/27/2021 8:30:00 PM 5.31 41.558 0.344 7.5 5.03 12.26
12/27/2021 8:45:00 PM 5.31 41.558 0.343 7.5 5.25 12.22
12/27/2021 9:00:00 PM 5.31 41.558 0.343 7.5 5.07 12.24
12/27/2021 9:15:00 PM 5.32 41.576 0.344 7.49 4.77 12.21
12/27/2021 9:30:00 PM 5.33 41.594 0.344 7.5 4.96 12.2
12/27/2021 9:45:00 PM 5.34 41.612 0.344 7.49 4.76 12.15
12/27/2021 10:00:00 PM 5.34 41.612 0.344 7.49 4.13 12.15
12/27/2021 10:15:00 PM 5.34 41.612 0.344 7.49 4.32 12.13
12/27/2021 10:30:00 PM 5.35 41.63 0.345 7.49 4.53 12.12
12/27/2021 10:45:00 PM 5.36 41.648 0.345 7.49 4.14 12.12
12/27/2021 11:00:00 PM 5.37 41.666 0.345 7.49 4.34 12.11
12/27/2021 11:15:00 PM 5.38 41.684 0.346 7.49 4.1 12.09
12/27/2021 11:30:00 PM 5.39 41.702 0.345 7.49 4.01 12.06
12/27/2021 11:45:00 PM 5.4 41.72 0.346 7.48 4.12 12.06
12/28/2021 12:00:00 AM 5.41 41.738 0.346 7.49 3.85 12.05
12/28/2021 12:15:00 AM 5.42 41.756 0.347 7.48 3.77 11.99
12/28/2021 12:30:00 AM 5.43 41.774 0.347 7.48 3.64 12.03
12/28/2021 12:45:00 AM 5.43 41.774 0.347 7.47 3.89 12.02
12/28/2021 1:00:00 AM 5.44 41.792 0.347 7.48 3.55 12.03
12/28/2021 1:15:00 AM 5.44 41.792 0.347 7.47 3.63 12.02
12/28/2021 1:30:00 AM 5.45 41.81 0.348 7.48 3.81 12
12/28/2021 1:45:00 AM 5.46 41.828 0.35 7.48 3.61 11.97
12/28/2021 2:00:00 AM 5.47 41.846 0.351 7.48 3.59 11.99
12/28/2021 2:15:00 AM 5.48 41.864 0.354 7.48 3.62 11.98
12/28/2021 2:30:00 AM 5.49 41.882 0.356 7.47 3.72 11.88
12/28/2021 2:45:00 AM 5.49 41.882 0.358 7.46 3.78 11.95
12/28/2021 3:00:00 AM 5.49 41.882 0.359 7.48 3.72 11.96
12/28/2021 3:15:00 AM 5.48 41.864 0.36 7.47 3.78 11.95
12/28/2021 3:30:00 AM 5.48 41.864 0.362 7.47 3.82 11.93
12/28/2021 3:45:00 AM 5.48 41.864 0.363 7.46 3.96 11.93
12/28/2021 4:00:00 AM 5.47 41.846 0.364 7.44 3.78 11.93
12/28/2021 4:15:00 AM 5.47 41.846 0.366 7.47 3.7 11.93
12/28/2021 4:30:00 AM 5.46 41.828 0.367 7.46 3.77 11.93
12/28/2021 4:45:00 AM 5.45 41.81 0.367 7.46 3.88 11.93
12/28/2021 5:00:00 AM 5.44 41.792 0.367 7.46 3.73 11.93
12/28/2021 5:15:00 AM 5.42 41.756 0.367 7.46 3.89 11.95
12/28/2021 5:30:00 AM 5.4 41.72 0.368 7.41 3.78 11.92
12/28/2021 5:45:00 AM 5.4 41.72 0.369 7.45 3.83 11.91
12/28/2021 6:00:00 AM 5.38 41.684 0.372 7.45 4.01 11.93
12/28/2021 6:15:00 AM 5.37 41.666 0.375 7.45 3.68 11.91
12/28/2021 6:30:00 AM 5.35 41.63 0.379 7.45 3.57 11.92
12/28/2021 6:45:00 AM 5.34 41.612 0.384 7.46 3.85 11.91
12/28/2021 7:00:00 AM 5.33 41.594 0.39 7.45 3.94 11.93
12/28/2021 7:15:00 AM 5.31 41.558 0.396 7.45 4.46 11.91
12/28/2021 7:30:00 AM 5.3 41.54 0.401 7.45 4.05 11.89
12/28/2021 7:45:00 AM 5.28 41.504 0.403 7.45 4.07 11.92
12/28/2021 8:00:00 AM 5.26 41.468 0.403 7.45 4.01 11.92
12/28/2021 8:15:00 AM 5.24 41.432 0.4 7.45 4.39 11.95
12/28/2021 8:30:00 AM 5.21 41.378 0.395 7.4 4.39 11.98
12/28/2021 8:45:00 AM 5.19 41.342 0.39 7.46 4.51 12.01
12/28/2021 9:00:00 AM 5.17 41.306 0.384 7.46 5.04 12.02
12/28/2021 9:15:00 AM 5.15 41.27 0.38 7.46 4.6 12.03
12/28/2021 9:30:00 AM 5.13 41.234 0.376 7.46 4.09 12.08
12/28/2021 9:45:00 AM 5.14 41.252 0.371 7.46 3.92 12.13
12/28/2021 10:00:00 AM 5.16 41.288 0.368 7.47 4.59 12.21
12/28/2021 10:15:00 AM 5.18 41.324 0.365 7.48 3.73 12.27
12/28/2021 10:30:00 AM 5.19 41.342 0.363 7.49 3.76 12.35
12/28/2021 10:45:00 AM 5.21 41.378 0.361 7.49 3.87 12.4
12/28/2021 11:00:00 AM 5.25 41.45 0.361 7.5 3.7 12.49
12/28/2021 11:15:00 AM 5.3 41.54 0.36 7.51 4.09 12.58
12/28/2021 11:30:00 AM 5.35 41.63 0.359 7.51 3.99 12.63
12/28/2021 11:45:00 AM 5.37 41.666 0.358 7.53 4.25 12.69
12/28/2021 12:00:00 PM 5.4 41.72 0.357 7.49 4.26 12.74
12/28/2021 12:15:00 PM 5.41 41.738 0.356 7.54 4.71 12.79
12/28/2021 12:30:00 PM 5.44 41.792 0.355 7.55 4.57 12.86
12/28/2021 12:45:00 PM 5.47 41.846 0.354 7.56 4.52 12.91
12/28/2021 1:00:00 PM 5.53 41.954 0.353 7.57 4.23 12.96
12/28/2021 1:15:00 PM 5.6 42.08 0.352 7.58 4.52 13.02
12/28/2021 1:30:00 PM 5.66 42.188 0.351 7.58 4.03 13.04
12/28/2021 1:45:00 PM 5.73 42.314 0.351 7.59 4.12 13.05
12/28/2021 2:00:00 PM 5.78 42.404 0.35 7.61 4.33 13.08
12/28/2021 2:15:00 PM 5.82 42.476 0.349 7.6 4.13 13.08
12/28/2021 2:30:00 PM 5.87 42.566 0.349 7.61 4.17 13.1
12/28/2021 2:45:00 PM 5.91 42.638 0.349 7.62 3.62 13.11
12/28/2021 3:00:00 PM 5.94 42.692 0.349 7.62 3.4 13.07
12/28/2021 3:15:00 PM 5.96 42.728 0.349 7.62 3.47 13.06
12/28/2021 3:30:00 PM 5.97 42.746 0.349 7.62 3.43 12.99
12/28/2021 3:45:00 PM 5.97 42.746 0.349 7.62 3.65 12.97
12/28/2021 4:00:00 PM 5.97 42.746 0.348 7.61 3.66 12.91
12/28/2021 4:15:00 PM 5.97 42.746 0.349 7.57 3.82 12.86
12/28/2021 4:30:00 PM 5.98 42.764 0.349 7.62 3.52 12.82
12/28/2021 4:45:00 PM 5.98 42.764 0.349 7.6 3.63 12.75
12/28/2021 5:00:00 PM 5.97 42.746 0.349 7.6 3.61 12.71
12/28/2021 5:15:00 PM 5.97 42.746 0.349 7.58 4.47 12.69
12/28/2021 5:30:00 PM 5.97 42.746 0.349 7.58 4.49 12.61
12/28/2021 5:45:00 PM 5.96 42.728 0.35 7.57 4.06 12.56
12/28/2021 6:00:00 PM 5.96 42.728 0.35 7.58 4.03 12.53
12/28/2021 6:15:00 PM 5.96 42.728 0.349 7.57 3.7 12.51
12/28/2021 6:30:00 PM 5.96 42.728 0.35 7.57 3.68 12.46
12/28/2021 6:45:00 PM 5.96 42.728 0.35 7.56 3.76 12.41
12/28/2021 7:00:00 PM 5.95 42.71 0.35 7.56 3.73 12.37
12/28/2021 7:15:00 PM 5.91 42.638 0.35 7.54 3.65 12.31
12/28/2021 7:30:00 PM 5.87 42.566 0.349 7.54 3.65 12.27
12/28/2021 7:45:00 PM 5.85 42.53 0.349 7.54 3.95 12.24
12/28/2021 8:00:00 PM 5.84 42.512 0.349 7.54 4.08 12.22
12/28/2021 8:15:00 PM 5.83 42.494 0.35 7.54 4.12 12.18
12/28/2021 8:30:00 PM 5.81 42.458 0.35 7.53 3.65 12.16
12/28/2021 8:45:00 PM 5.81 42.458 0.35 7.53 4.11 12.13
12/28/2021 9:00:00 PM 5.79 42.422 0.349 7.53 4.2 12.1
12/28/2021 9:15:00 PM 5.78 42.404 0.349 7.52 4.05 12.08
12/28/2021 9:30:00 PM 5.77 42.386 0.348 7.52 3.99 12.07
12/28/2021 9:45:00 PM 5.77 42.386 0.347 7.51 4.13 12.05
12/28/2021 10:00:00 PM 5.77 42.386 0.347 7.51 4.03 12.02
12/28/2021 10:15:00 PM 5.77 42.386 0.346 7.51 4.25 12.01
12/28/2021 10:30:00 PM 5.76 42.368 0.346 7.47 4.13 12.01
12/28/2021 10:45:00 PM 5.76 42.368 0.345 7.49 5.47 11.99
12/28/2021 11:00:00 PM 5.75 42.35 0.345 7.5 4.16 11.97
12/28/2021 11:15:00 PM 5.74 42.332 0.345 7.45 4.44 11.97
12/28/2021 11:30:00 PM 5.74 42.332 0.345 7.49 4.04 11.96
12/28/2021 11:45:00 PM 5.74 42.332 0.344 7.5 3.9 11.95
12/29/2021 12:00:00 AM 5.73 42.314 0.343 7.49 4.05 11.96
12/29/2021 12:15:00 AM 5.74 42.332 0.343 7.49 4.01 11.94
12/29/2021 12:30:00 AM 5.74 42.332 0.342 7.49 3.7 11.94
12/29/2021 12:45:00 AM 5.74 42.332 0.342 7.49 4.03 11.95
12/29/2021 1:00:00 AM 5.75 42.35 0.341 7.48 3.82 11.94
12/29/2021 1:15:00 AM 5.75 42.35 0.34 7.44 4.03 11.93
12/29/2021 1:30:00 AM 5.75 42.35 0.34 7.49 3.92 11.94
12/29/2021 1:45:00 AM 5.76 42.368 0.339 7.48 4.22 11.93
12/29/2021 2:00:00 AM 5.75 42.35 0.339 7.48 3.88 11.94
12/29/2021 2:15:00 AM 5.75 42.35 0.339 7.47 3.79 11.92
12/29/2021 2:30:00 AM 5.74 42.332 0.338 7.47 3.88 11.94
12/29/2021 2:45:00 AM 5.73 42.314 0.338 7.47 3.76 11.93
12/29/2021 3:00:00 AM 5.71 42.278 0.34 7.47 4.22 11.94
12/29/2021 3:15:00 AM 5.7 42.26 0.344 7.46 4.17 11.93
12/29/2021 3:30:00 AM 5.68 42.224 0.351 7.46 3.87 11.93
12/29/2021 3:45:00 AM 5.67 42.206 0.361 7.45 3.91 11.92
12/29/2021 4:00:00 AM 5.66 42.188 0.374 7.45 4.02 11.93
12/29/2021 4:15:00 AM 5.65 42.17 0.387 7.4 3.98 11.94
12/29/2021 4:30:00 AM 5.64 42.152 0.401 7.44 4.17 11.92
12/29/2021 4:45:00 AM 5.64 42.152 0.414 7.44 4.2 11.93
12/29/2021 5:00:00 AM 5.64 42.152 0.423 7.44 3.92 11.94
12/29/2021 5:15:00 AM 5.64 42.152 0.427 7.42 4.23 11.93
12/29/2021 5:30:00 AM 5.64 42.152 0.425 7.43 4.18 11.92
12/29/2021 5:45:00 AM 5.64 42.152 0.418 7.44 4.43 11.92
12/29/2021 6:00:00 AM 5.65 42.17 0.41 7.43 4.2 11.93
12/29/2021 6:15:00 AM 5.65 42.17 0.399 7.4 4.14 11.93
12/29/2021 6:30:00 AM 5.64 42.152 0.39 7.43 4.19 11.93
12/29/2021 6:45:00 AM 5.64 42.152 0.383 7.43 4.21 11.94
12/29/2021 7:00:00 AM 5.63 42.134 0.377 7.43 4.03 11.94
12/29/2021 7:15:00 AM 5.62 42.116 0.372 7.43 4.32 11.94
12/29/2021 7:30:00 AM 5.62 42.116 0.369 7.43 4.46 11.94
12/29/2021 7:45:00 AM 5.61 42.098 0.369 7.43 4.46 11.95
12/29/2021 8:00:00 AM 5.61 42.098 0.37 7.43 5.58 11.95
12/29/2021 8:15:00 AM 5.6 42.08 0.373 7.43 6.32 11.95
12/29/2021 8:30:00 AM 5.6 42.08 0.377 7.42 6.78 11.94
12/29/2021 8:45:00 AM 5.6 42.08 0.381 7.43 6.46 11.96
12/29/2021 9:00:00 AM 5.6 42.08 0.384 7.43 5.79 11.98
12/29/2021 9:15:00 AM 5.6 42.08 0.386 7.43 5.16 11.99
12/29/2021 9:30:00 AM 5.61 42.098 0.387 7.43 4.74 12.01
12/29/2021 9:45:00 AM 5.62 42.116 0.387 7.43 4.85 12.02
12/29/2021 10:00:00 AM 5.62 42.116 0.387 7.44 4.89 12.07
12/29/2021 10:15:00 AM 5.63 42.134 0.386 7.4 4.47 12.1
12/29/2021 10:30:00 AM 5.64 42.152 0.384 7.45 4.57 12.16
12/29/2021 10:45:00 AM 5.65 42.17 0.383 7.45 4.41 12.21
12/29/2021 11:00:00 AM 5.67 42.206 0.381 7.46 4.82 12.27
12/29/2021 11:15:00 AM 5.69 42.242 0.38 7.47 4.98 12.31
12/29/2021 11:30:00 AM 5.71 42.278 0.378 7.47 4.77 12.38
12/29/2021 11:45:00 AM 5.75 42.35 0.377 7.48 4.92 12.47
12/29/2021 12:00:00 PM 5.79 42.422 0.376 7.5 5.25 12.52
12/29/2021 12:15:00 PM 5.84 42.512 0.376 7.5 4.96 12.61
12/29/2021 12:30:00 PM 5.88 42.584 0.377 7.51 5.22 12.67
12/29/2021 12:45:00 PM 5.92 42.656 0.379 7.5 5.37 12.71
12/29/2021 1:00:00 PM 5.95 42.71 0.382 7.53 5.78 12.77
12/29/2021 1:15:00 PM 5.98 42.764 0.386 7.53 4.8 12.81
12/29/2021 1:30:00 PM 6.01 42.818 0.391 7.55 4.76 12.85
12/29/2021 1:45:00 PM 6.04 42.872 0.396 7.55 5.04 12.88
12/29/2021 2:00:00 PM 6.07 42.926 0.401 7.56 4.7 12.9
12/29/2021 2:15:00 PM 6.11 42.998 0.405 7.57 5.58 12.94
12/29/2021 2:30:00 PM 6.14 43.052 0.408 7.58 5.05 12.95
12/29/2021 2:45:00 PM 6.16 43.088 0.41 7.58 4.56 12.95
12/29/2021 3:00:00 PM 6.18 43.124 0.41 7.59 4.33 12.96
12/29/2021 3:15:00 PM 6.21 43.178 0.409 7.56 4.57 12.96
12/29/2021 3:30:00 PM 6.23 43.214 0.406 7.6 4.83 12.93
12/29/2021 3:45:00 PM 6.25 43.25 0.403 7.59 4.7 12.92
12/29/2021 4:00:00 PM 6.27 43.286 0.399 7.6 4.55 12.91
12/29/2021 4:15:00 PM 6.29 43.322 0.395 7.6 4.93 12.89
12/29/2021 4:30:00 PM 6.3 43.34 0.39 7.6 4.96 12.86
12/29/2021 4:45:00 PM 6.31 43.358 0.387 7.59 5.7 12.82
12/29/2021 5:00:00 PM 6.32 43.376 0.382 7.59 5.85 12.77
12/29/2021 5:15:00 PM 6.33 43.394 0.379 7.59 5.37 12.74
12/29/2021 5:30:00 PM 6.34 43.412 0.375 7.59 4.75 12.7
12/29/2021 5:45:00 PM 6.35 43.43 0.373 7.59 4.79 12.67
12/29/2021 6:00:00 PM 6.35 43.43 0.37 7.58 4.4 12.59
12/29/2021 6:15:00 PM 6.36 43.448 0.367 7.55 4.61 12.58
12/29/2021 6:30:00 PM 6.37 43.466 0.365 7.57 4.72 12.54
12/29/2021 6:45:00 PM 6.37 43.466 0.363 7.52 4.67 12.5
12/29/2021 7:00:00 PM 6.38 43.484 0.36 7.54 4.67 12.46
12/29/2021 7:15:00 PM 6.39 43.502 0.358 7.55 5.8 12.4
12/29/2021 7:30:00 PM 6.39 43.502 0.356 7.55 4.75 12.4
12/29/2021 7:45:00 PM 6.4 43.52 0.354 7.55 4.95 12.36
12/29/2021 8:00:00 PM 6.4 43.52 0.353 7.55 4.69 12.32
12/29/2021 8:15:00 PM 6.41 43.538 0.352 7.54 4.77 12.29
12/29/2021 8:30:00 PM 6.41 43.538 0.351 7.53 4.95 12.25
12/29/2021 8:45:00 PM 6.41 43.538 0.35 7.52 5.03 12.23
12/29/2021 9:00:00 PM 6.41 43.538 0.349 7.52 5.37 12.2
12/29/2021 9:15:00 PM 6.41 43.538 0.348 7.52 5.34 12.18
12/29/2021 9:30:00 PM 6.41 43.538 0.346 7.51 5.3 12.15
12/29/2021 9:45:00 PM 6.41 43.538 0.344 7.5 6.13 12.12
12/29/2021 10:00:00 PM 6.42 43.556 0.341 7.5 5.63 12.11
12/29/2021 10:15:00 PM 6.42 43.556 0.337 7.5 6.07 12.09
12/29/2021 10:30:00 PM 6.42 43.556 0.333 7.48 5.72 12.08
12/29/2021 10:45:00 PM 6.42 43.556 0.329 7.47 5.54 12.06
12/29/2021 11:00:00 PM 6.42 43.556 0.324 7.48 5.55 12.04
12/29/2021 11:15:00 PM 6.41 43.538 0.32 7.47 5.7 12.05
12/29/2021 11:30:00 PM 6.39 43.502 0.316 7.46 5.91 12.03
12/29/2021 11:45:00 PM 6.38 43.484 0.312 7.45 5.64 12.05
12/30/2021 12:00:00 AM 6.36 43.448 0.308 7.44 5.92 12.03
12/30/2021 12:15:00 AM 6.34 43.412 0.303 7.43 6.18 12.04
12/30/2021 12:30:00 AM 6.32 43.376 0.299 7.42 5.76 12.04
12/30/2021 12:45:00 AM 6.3 43.34 0.295 7.41 6.12 12.04
12/30/2021 1:00:00 AM 6.29 43.322 0.293 7.4 6.11 12.02
12/30/2021 1:15:00 AM 6.28 43.304 0.291 7.4 6.15 12.03
12/30/2021 1:30:00 AM 6.26 43.268 0.289 7.4 6.6 12.04
12/30/2021 1:45:00 AM 6.25 43.25 0.287 7.39 6.85 12.03
12/30/2021 2:00:00 AM 6.24 43.232 0.287 7.38 6.6 12.02
12/30/2021 2:15:00 AM 6.24 43.232 0.286 7.38 5.9 12.02
12/30/2021 2:30:00 AM 6.23 43.214 0.286 7.38 6.61 12.02
12/30/2021 2:45:00 AM 6.23 43.214 0.286 7.37 6.5 11.99
12/30/2021 3:00:00 AM 6.22 43.196 0.287 7.37 6.83 12
12/30/2021 3:15:00 AM 6.21 43.178 0.288 7.37 6.57 12
12/30/2021 3:30:00 AM 6.21 43.178 0.288 7.37 6.66 11.98
12/30/2021 3:45:00 AM 6.21 43.178 0.289 7.37 6.2 11.99
12/30/2021 4:00:00 AM 6.2 43.16 0.29 7.37 6.39 11.98
12/30/2021 4:15:00 AM 6.2 43.16 0.291 7.37 6.97 11.98
12/30/2021 4:30:00 AM 6.2 43.16 0.292 7.37 6.86 11.98
12/30/2021 4:45:00 AM 6.2 43.16 0.293 7.37 6.58 11.96
12/30/2021 5:00:00 AM 6.2 43.16 0.294 7.36 6.37 11.95
12/30/2021 5:15:00 AM 6.19 43.142 0.295 7.37 6.48 11.95
12/30/2021 5:30:00 AM 6.2 43.16 0.296 7.37 7.31 11.95
12/30/2021 5:45:00 AM 6.19 43.142 0.297 7.37 6.94 11.96
12/30/2021 6:00:00 AM 6.19 43.142 0.298 7.37 7.07 11.95
12/30/2021 6:15:00 AM 6.19 43.142 0.298 7.37 6.47 11.95
12/30/2021 6:30:00 AM 6.19 43.142 0.299 7.37 6.8 11.94
12/30/2021 6:45:00 AM 6.19 43.142 0.3 7.37 6.62 11.94
12/30/2021 7:00:00 AM 6.19 43.142 0.3 7.36 6.47 11.94
12/30/2021 7:15:00 AM 6.19 43.142 0.301 7.37 6.39 11.93
12/30/2021 7:30:00 AM 6.19 43.142 0.301 7.37 6.67 11.93
12/30/2021 7:45:00 AM 6.19 43.142 0.302 7.31 5.74 11.93
12/30/2021 8:00:00 AM 6.2 43.16 0.303 7.35 6.59 11.93
12/30/2021 8:15:00 AM 6.2 43.16 0.303 7.38 6.55 11.93
12/30/2021 8:30:00 AM 6.2 43.16 0.304 7.38 6.41 11.94
12/30/2021 8:45:00 AM 6.21 43.178 0.305 7.38 6 11.94
12/30/2021 9:00:00 AM 6.22 43.196 0.305 7.38 5.82 11.94
12/30/2021 9:15:00 AM 6.22 43.196 0.306 7.38 6.09 11.97
12/30/2021 9:30:00 AM 6.23 43.214 0.306 7.39 5.55 11.99
12/30/2021 9:45:00 AM 6.24 43.232 0.307 7.39 5.88 12
12/30/2021 10:00:00 AM 6.25 43.25 0.307 7.39 5.8 12.02
12/30/2021 10:15:00 AM 6.26 43.268 0.308 7.4 6.14 12.05
12/30/2021 10:30:00 AM 6.28 43.304 0.308 7.4 6.29 12.08
12/30/2021 10:45:00 AM 6.3 43.34 0.309 7.41 6.18 12.12
12/30/2021 11:00:00 AM 6.31 43.358 0.309 7.41 5.98 12.16
12/30/2021 11:15:00 AM 6.34 43.412 0.31 7.41 6.02 12.22
12/30/2021 11:30:00 AM 6.37 43.466 0.31 7.43 5.78 12.27
12/30/2021 11:45:00 AM 6.4 43.52 0.31 7.44 5.63 12.32
12/30/2021 12:00:00 PM 6.42 43.556 0.311 7.44 5.28 12.34
12/30/2021 12:15:00 PM 6.45 43.61 0.311 7.4 5.07 12.41
12/30/2021 12:30:00 PM 6.47 43.646 0.311 7.47 4.9 12.44
12/30/2021 12:45:00 PM 6.49 43.682 0.312 7.47 4.97 12.48
12/30/2021 1:00:00 PM 6.52 43.736 0.312 7.47 4.93 12.51
12/30/2021 1:15:00 PM 6.54 43.772 0.313 7.49 4.99 12.56
12/30/2021 1:30:00 PM 6.56 43.808 0.313 7.5 4.56 12.58
12/30/2021 1:45:00 PM 6.58 43.844 0.314 7.5 4.73 12.6
12/30/2021 2:00:00 PM 6.6 43.88 0.314 7.49 4.61 12.62
12/30/2021 2:15:00 PM 6.62 43.916 0.315 7.51 4.5 12.59
12/30/2021 2:30:00 PM 6.64 43.952 0.315 7.52 6.07 12.62
12/30/2021 2:45:00 PM 6.66 43.988 0.316 7.52 4.42 12.62
12/30/2021 3:00:00 PM 6.68 44.024 0.316 7.53 5.51 12.63
12/30/2021 3:15:00 PM 6.69 44.042 0.316 7.54 4.9 12.62
12/30/2021 3:30:00 PM 6.7 44.06 0.316 7.53 4.94 12.6
12/30/2021 3:45:00 PM 6.71 44.078 0.317 7.53 4.59 12.57
12/30/2021 4:00:00 PM 6.72 44.096 0.317 7.54 4.72 12.55
12/30/2021 4:15:00 PM 6.73 44.114 0.318 7.53 4.77 12.51
12/30/2021 4:30:00 PM 6.74 44.132 0.318 7.51 4.01 12.48
12/30/2021 4:45:00 PM 6.75 44.15 0.318 7.53 5.24 12.46
12/30/2021 5:00:00 PM 6.76 44.168 0.319 7.52 9.14 12.43
12/30/2021 5:15:00 PM 6.77 44.186 0.319 7.52 7.15 12.36
12/30/2021 5:30:00 PM 6.77 44.186 0.32 7.52 4.29 12.35
12/30/2021 5:45:00 PM 6.78 44.204 0.32 7.51 4.63 12.31
12/30/2021 6:00:00 PM 6.79 44.222 0.32 7.45 4.54 12.28
12/30/2021 6:15:00 PM 6.8 44.24 0.321 7.5 4.47 12.22
12/30/2021 6:30:00 PM 6.8 44.24 0.321 7.5 4.3 12.19
12/30/2021 6:45:00 PM 6.81 44.258 0.322 7.49 4.52 12.13
12/30/2021 7:00:00 PM 6.82 44.276 0.323 7.49 4.58 12.09
12/30/2021 7:15:00 PM 6.82 44.276 0.323 7.48 4.25 12.08
12/30/2021 7:30:00 PM 6.83 44.294 0.323 7.48 4.34 12.05
12/30/2021 7:45:00 PM 6.83 44.294 0.323 7.48 4.24 12.03
12/30/2021 8:00:00 PM 6.84 44.312 0.323 7.47 4.25 12
12/30/2021 8:15:00 PM 6.84 44.312 0.324 7.47 4.43 11.94
12/30/2021 8:30:00 PM 6.85 44.33 0.324 7.47 4.18 11.93
12/30/2021 8:45:00 PM 6.86 44.348 0.323 7.46 4.43 11.91
12/30/2021 9:00:00 PM 6.87 44.366 0.324 7.45 4.44 11.87
12/30/2021 9:15:00 PM 6.87 44.366 0.324 7.46 4.53 11.84
12/30/2021 9:30:00 PM 6.88 44.384 0.324 7.45 4.14 11.82
12/30/2021 9:45:00 PM 6.89 44.402 0.324 7.45 4.24 11.8
12/30/2021 10:00:00 PM 6.9 44.42 0.325 7.44 4.1 11.78
12/30/2021 10:15:00 PM 6.9 44.42 0.325 7.45 4.09 11.77
12/30/2021 10:30:00 PM 6.91 44.438 0.325 7.45 3.85 11.76
12/30/2021 10:45:00 PM 6.92 44.456 0.325 7.44 3.99 11.74
12/30/2021 11:00:00 PM 6.93 44.474 0.325 7.43 4.08 11.7
12/30/2021 11:15:00 PM 6.94 44.492 0.326 7.43 3.97 11.7
12/30/2021 11:30:00 PM 6.95 44.51 0.326 7.44 4.08 11.65
12/30/2021 11:45:00 PM 6.96 44.528 0.326 7.43 3.85 11.69
12/31/2021 12:00:00 AM 6.97 44.546 0.326 7.43 3.75 11.65
12/31/2021 12:15:00 AM 6.97 44.546 0.326 7.42 3.74 11.63
12/31/2021 12:30:00 AM 6.98 44.564 0.326 7.42 3.72 11.64
12/31/2021 12:45:00 AM 6.99 44.582 0.326 7.43 3.86 11.58
12/31/2021 1:00:00 AM 7 44.6 0.326 7.42 3.81 11.61
12/31/2021 1:15:00 AM 7 44.6 0.326 7.42 3.89 11.6
12/31/2021 1:30:00 AM 7.01 44.618 0.327 7.4 4.04 11.56
12/31/2021 1:45:00 AM 7.01 44.618 0.327 7.42 3.79 11.53
12/31/2021 2:00:00 AM 7.02 44.636 0.327 7.41 3.93 11.57
12/31/2021 2:15:00 AM 7.02 44.636 0.327 7.42 3.7 11.57
12/31/2021 2:30:00 AM 7.03 44.654 0.327 7.41 4.04 11.58
12/31/2021 2:45:00 AM 7.03 44.654 0.327 7.42 3.85 11.55
12/31/2021 3:00:00 AM 7.03 44.654 0.327 7.42 4.01 11.57
12/31/2021 3:15:00 AM 7.04 44.672 0.328 7.42 3.57 11.57
12/31/2021 3:30:00 AM 7.04 44.672 0.329 7.42 3.62 11.55
12/31/2021 3:45:00 AM 7.04 44.672 0.33 7.41 3.78 11.54
12/31/2021 4:00:00 AM 7.04 44.672 0.33 7.41 3.99 11.53
12/31/2021 4:15:00 AM 7.04 44.672 0.33 7.42 3.81 11.56
12/31/2021 4:30:00 AM 7.04 44.672 0.329 7.42 4.07 11.54
12/31/2021 4:45:00 AM 7.03 44.654 0.329 7.41 4.12 11.53
12/31/2021 5:00:00 AM 7.03 44.654 0.328 7.38 3.97 11.54
12/31/2021 5:15:00 AM 7.03 44.654 0.327 7.42 4.11 11.54
12/31/2021 5:30:00 AM 7.02 44.636 0.327 7.42 4.04 11.54
12/31/2021 5:45:00 AM 7.02 44.636 0.327 7.41 3.99 11.55
12/31/2021 6:00:00 AM 7.01 44.618 0.327 7.37 3.77 11.56
12/31/2021 6:15:00 AM 7.01 44.618 0.327 7.42 3.64 11.53
12/31/2021 6:30:00 AM 7 44.6 0.326 7.41 3.65 11.58
12/31/2021 6:45:00 AM 6.99 44.582 0.327 7.41 3.93 11.55
12/31/2021 7:00:00 AM 6.99 44.582 0.327 7.41 3.83 11.55
12/31/2021 7:15:00 AM 6.98 44.564 0.328 7.41 3.93 11.57
12/31/2021 7:30:00 AM 6.98 44.564 0.329 7.41 4.59 11.54
12/31/2021 7:45:00 AM 6.98 44.564 0.33 7.41 4.48 11.54
12/31/2021 8:00:00 AM 6.97 44.546 0.331 7.35 4.59 11.55
12/31/2021 8:15:00 AM 6.97 44.546 0.332 7.41 4.83 11.57
12/31/2021 8:30:00 AM 6.97 44.546 0.332 7.41 4.76 11.59
12/31/2021 8:45:00 AM 6.97 44.546 0.334 7.41 4.18 11.56
12/31/2021 9:00:00 AM 6.98 44.564 0.333 7.41 4.81 11.62
12/31/2021 9:15:00 AM 6.98 44.564 0.333 7.42 3.98 11.68
12/31/2021 9:30:00 AM 6.99 44.582 0.332 7.42 3.84 11.72
12/31/2021 9:45:00 AM 7.01 44.618 0.331 7.43 3.99 11.76
12/31/2021 10:00:00 AM 7.02 44.636 0.331 7.43 3.82 11.79
12/31/2021 10:15:00 AM 7.04 44.672 0.33 7.44 4.29 11.84
12/31/2021 10:30:00 AM 7.06 44.708 0.332 7.43 5.37 11.78
12/31/2021 10:45:00 AM 7.09 44.762 0.33 7.45 3.84 11.94
12/31/2021 11:00:00 AM 7.12 44.816 0.329 7.45 3.93 12.03
12/31/2021 11:15:00 AM 7.15 44.87 0.331 7.44 3.97 12.02
12/31/2021 11:30:00 AM 7.18 44.924 0.329 7.47 3.73 12.11
12/31/2021 11:45:00 AM 7.21 44.978 0.33 7.41 4.03 12.14
12/31/2021 12:00:00 PM 7.25 45.05 0.331 7.48 4.04 12.14
12/31/2021 12:15:00 PM 7.26 45.068 0.329 7.48 4.15 12.22
12/31/2021 12:30:00 PM 7.28 45.104 0.329 7.48 3.92 12.26
12/31/2021 12:45:00 PM 7.31 45.158 0.327 7.52 3.94 12.35
12/31/2021 1:00:00 PM 7.35 45.23 0.327 7.51 3.82 12.38
12/31/2021 1:15:00 PM 7.41 45.338 0.326 7.53 4 12.45
12/31/2021 1:30:00 PM 7.45 45.41 0.326 7.53 3.63 12.44
12/31/2021 1:45:00 PM 7.49 45.482 0.328 7.53 4.03 12.46
12/31/2021 2:00:00 PM 7.51 45.518 0.33 7.53 3.74 12.52
12/31/2021 2:15:00 PM 7.51 45.518 0.328 7.54 3.69 12.51
12/31/2021 2:30:00 PM 7.53 45.554 0.327 7.52 3.78 12.53
12/31/2021 2:45:00 PM 7.55 45.59 0.326 7.57 3.69 12.56
12/31/2021 3:00:00 PM 7.58 45.644 0.327 7.57 3.79 12.6
12/31/2021 3:15:00 PM 7.6 45.68 0.329 7.56 3.67 12.47
12/31/2021 3:30:00 PM 7.61 45.698 0.329 7.56 3.7 12.49
12/31/2021 3:45:00 PM 7.62 45.716 0.328 7.59 3.78 12.58
12/31/2021 4:00:00 PM 7.62 45.716 0.327 7.59 4.07 12.54
12/31/2021 4:15:00 PM 7.62 45.716 0.327 7.6 4.53 12.52
12/31/2021 4:30:00 PM 7.62 45.716 0.327 7.59 4.28 12.47
12/31/2021 4:45:00 PM 7.62 45.716 0.328 7.58 4.15 12.45
12/31/2021 5:00:00 PM 7.62 45.716 0.328 7.57 3.82 12.39
12/31/2021 5:15:00 PM 7.62 45.716 0.328 7.57 3.89 12.32
12/31/2021 5:30:00 PM 7.62 45.716 0.328 7.58 3.66 12.28
12/31/2021 5:45:00 PM 7.61 45.698 0.328 7.57 3.78 12.24
12/31/2021 6:00:00 PM 7.6 45.68 0.329 7.57 3.54 12.21
12/31/2021 6:15:00 PM 7.59 45.662 0.33 7.56 3.66 12.14
12/31/2021 6:30:00 PM 7.58 45.644 0.33 7.55 4.14 12.11
12/31/2021 6:45:00 PM 7.58 45.644 0.33 7.54 3.68 12.03
12/31/2021 7:00:00 PM 7.57 45.626 0.328 7.53 4 11.98
12/31/2021 7:15:00 PM 7.56 45.608 0.328 7.53 3.65 11.94
12/31/2021 7:30:00 PM 7.55 45.59 0.328 7.52 3.91 11.94
12/31/2021 7:45:00 PM 7.54 45.572 0.328 7.52 3.88 11.88
12/31/2021 8:00:00 PM 7.53 45.554 0.328 7.51 3.62 11.83
12/31/2021 8:15:00 PM 7.51 45.518 0.328 7.48 3.54 11.78
12/31/2021 8:30:00 PM 7.5 45.5 0.329 7.5 3.57 11.76
12/31/2021 8:45:00 PM 7.48 45.464 0.33 7.5 3.51 11.71
12/31/2021 9:00:00 PM 7.47 45.446 0.331 7.47 3.44 11.64
12/31/2021 9:15:00 PM 7.45 45.41 0.329 7.48 3.63 11.67
12/31/2021 9:30:00 PM 7.45 45.41 0.329 7.47 3.57 11.64
12/31/2021 9:45:00 PM 7.45 45.41 0.329 7.46 3.51 11.59
12/31/2021 10:00:00 PM 7.45 45.41 0.329 7.46 3.6 11.62
12/31/2021 10:15:00 PM 7.45 45.41 0.329 7.47 3.71 11.6
12/31/2021 10:30:00 PM 7.45 45.41 0.331 7.46 3.53 11.58
12/31/2021 10:45:00 PM 7.45 45.41 0.329 7.45 3.72 11.55
12/31/2021 11:00:00 PM 7.44 45.392 0.33 7.45 3.6 11.55
12/31/2021 11:15:00 PM 7.45 45.41 0.331 7.42 3.5 11.52
12/31/2021 11:30:00 PM 7.45 45.41 0.329 7.44 3.63 11.48
12/31/2021 11:45:00 PM 7.45 45.41 0.331 7.44 3.84 11.5
1/1/2022 12:00:00 AM 7.45 45.41 0.329 7.44 3.54 11.46
1/1/2022 12:15:00 AM 7.45 45.41 0.331 7.42 3.64 11.46
1/1/2022 12:30:00 AM 7.46 45.428 0.329 7.44 3.42 11.45
1/1/2022 12:45:00 AM 7.46 45.428 0.331 7.43 3.82 11.43
1/1/2022 1:00:00 AM 7.46 45.428 0.33 7.43 4.23 11.43
1/1/2022 1:15:00 AM 7.46 45.428 0.33 7.43 3.78 11.42
1/1/2022 1:30:00 AM 7.47 45.446 0.33 7.43 3.55 11.41
1/1/2022 1:45:00 AM 7.47 45.446 0.328 7.43 3.51 11.4
1/1/2022 2:00:00 AM 7.48 45.464 0.329 7.43 3.46 11.4
1/1/2022 2:15:00 AM 7.48 45.464 0.33 7.42 3.6 11.37
1/1/2022 2:30:00 AM 7.49 45.482 0.328 7.42 3.78 11.37
1/1/2022 2:45:00 AM 7.49 45.482 0.329 7.43 3.77 11.37
1/1/2022 3:00:00 AM 7.51 45.518 0.329 7.42 3.89 11.37
1/1/2022 3:15:00 AM 7.51 45.518 0.329 7.42 3.82 11.35
1/1/2022 3:30:00 AM 7.52 45.536 0.33 7.41 3.69 11.33
1/1/2022 3:45:00 AM 7.53 45.554 0.33 7.42 3.77 11.34
1/1/2022 4:00:00 AM 7.54 45.572 0.329 7.37 4.43 11.35
1/1/2022 4:15:00 AM 7.55 45.59 0.329 7.42 3.87 11.33
1/1/2022 4:30:00 AM 7.56 45.608 0.329 7.42 3.81 11.32
1/1/2022 4:45:00 AM 7.57 45.626 0.329 7.42 3.97 11.31
1/1/2022 5:00:00 AM 7.57 45.626 0.33 7.41 4.21 11.31
1/1/2022 5:15:00 AM 7.58 45.644 0.33 7.42 4.18 11.32
1/1/2022 5:30:00 AM 7.58 45.644 0.329 7.42 4.43 11.31
1/1/2022 5:45:00 AM 7.59 45.662 0.329 7.36 4.29 11.3
1/1/2022 6:00:00 AM 7.59 45.662 0.329 7.41 4.55 11.3
1/1/2022 6:15:00 AM 7.59 45.662 0.33 7.41 4.26 11.28
1/1/2022 6:30:00 AM 7.59 45.662 0.33 7.41 3.81 11.29
1/1/2022 6:45:00 AM 7.58 45.644 0.33 7.41 3.86 11.29
1/1/2022 7:00:00 AM 7.58 45.644 0.33 7.41 4.13 11.28
1/1/2022 7:15:00 AM 7.57 45.626 0.33 7.41 4.28 11.26
1/1/2022 7:30:00 AM 7.57 45.626 0.33 7.39 4.4 11.25
1/1/2022 7:45:00 AM 7.56 45.608 0.333 7.4 6.61 11.17
1/1/2022 8:00:00 AM 7.55 45.59 0.33 7.4 4.4 11.29
1/1/2022 8:15:00 AM 7.54 45.572 0.33 7.4 4 11.29
1/1/2022 8:30:00 AM 7.53 45.554 0.33 7.42 4.13 11.28
1/1/2022 8:45:00 AM 7.53 45.554 0.33 7.37 4.02 11.33
1/1/2022 9:00:00 AM 7.53 45.554 0.33 7.41 4.12 11.34
1/1/2022 9:15:00 AM 7.53 45.554 0.33 7.42 4.15 11.36
1/1/2022 9:30:00 AM 7.53 45.554 0.331 7.41 4.11 11.37
1/1/2022 9:45:00 AM 7.54 45.572 0.331 7.43 4.04 11.44
1/1/2022 10:00:00 AM 7.55 45.59 0.332 7.43 4.32 11.46
1/1/2022 10:15:00 AM 7.56 45.608 0.333 7.44 4.16 11.51
1/1/2022 10:30:00 AM 7.57 45.626 0.335 7.44 4.28 11.55
1/1/2022 10:45:00 AM 7.59 45.662 0.337 7.45 4.22 11.6
1/1/2022 11:00:00 AM 7.59 45.662 0.337 7.45 4.43 11.63
1/1/2022 11:15:00 AM 7.6 45.68 0.334 7.46 4.18 11.67
1/1/2022 11:30:00 AM 7.61 45.698 0.331 7.46 4.23 11.74
1/1/2022 11:45:00 AM 7.62 45.716 0.328 7.47 4.36 11.8
1/1/2022 12:00:00 PM 7.63 45.734 0.327 7.48 4.27 11.86
1/1/2022 12:15:00 PM 7.64 45.752 0.326 7.48 4.37 11.89
1/1/2022 12:30:00 PM 7.65 45.77 0.326 7.49 4.19 11.93
1/1/2022 12:45:00 PM 7.67 45.806 0.327 7.43 4.31 11.95
1/1/2022 1:00:00 PM 7.69 45.842 0.332 7.5 4.54 11.95
1/1/2022 1:15:00 PM 7.71 45.878 0.338 7.5 4.33 12
1/1/2022 1:30:00 PM 7.73 45.914 0.346 7.51 4.75 12.01
1/1/2022 1:45:00 PM 7.76 45.968 0.351 7.51 4.73 12.05
1/1/2022 2:00:00 PM 7.79 46.022 0.354 7.52 4.65 12.07
1/1/2022 2:15:00 PM 7.81 46.058 0.35 7.52 4.75 12.09
1/1/2022 2:30:00 PM 7.82 46.076 0.344 7.48 4.74 12.1
1/1/2022 2:45:00 PM 7.84 46.112 0.336 7.53 4.28 12.14
1/1/2022 3:00:00 PM 7.86 46.148 0.331 7.49 4.26 12.15
1/1/2022 3:15:00 PM 7.86 46.148 0.324 7.54 4.4 12.16
1/1/2022 3:30:00 PM 7.87 46.166 0.319 7.54 4.16 12.16
1/1/2022 3:45:00 PM 7.87 46.166 0.313 7.53 4.3 12.14
1/1/2022 4:00:00 PM 7.87 46.166 0.309 7.52 4.25 12.14
1/1/2022 4:15:00 PM 7.86 46.148 0.308 7.52 4.23 12.11
1/1/2022 4:30:00 PM 7.86 46.148 0.306 7.51 4.46 12.07
1/1/2022 4:45:00 PM 7.85 46.13 0.303 7.51 4.88 12.04
1/1/2022 5:00:00 PM 7.85 46.13 0.3 7.5 5.07 12.01
1/1/2022 5:15:00 PM 7.85 46.13 0.299 7.5 5.16 11.96
1/1/2022 5:30:00 PM 7.86 46.148 0.301 7.49 5.03 11.94
1/1/2022 5:45:00 PM 7.86 46.148 0.298 7.49 5.61 11.91
1/1/2022 6:00:00 PM 7.86 46.148 0.299 7.48 5 11.87
1/1/2022 6:15:00 PM 7.87 46.166 0.299 7.47 5.52 11.82
1/1/2022 6:30:00 PM 7.88 46.184 0.299 7.4 6.15 11.78
1/1/2022 6:45:00 PM 7.89 46.202 0.3 7.46 5.29 11.75
1/1/2022 7:00:00 PM 7.9 46.22 0.3 7.45 4.9 11.7
1/1/2022 7:15:00 PM 7.91 46.238 0.3 7.41 5.21 11.67
1/1/2022 7:30:00 PM 7.91 46.238 0.301 7.45 5.91 11.64
1/1/2022 7:45:00 PM 7.92 46.256 0.301 7.42 5.25 11.61
1/1/2022 8:00:00 PM 7.92 46.256 0.302 7.44 5.57 11.57
1/1/2022 8:15:00 PM 7.92 46.256 0.303 7.4 5.12 11.55
1/1/2022 8:30:00 PM 7.92 46.256 0.303 7.44 5.92 11.53
1/1/2022 8:45:00 PM 7.92 46.256 0.304 7.43 5.35 11.5
1/1/2022 9:00:00 PM 7.92 46.256 0.305 7.43 5.46 11.47
1/1/2022 9:15:00 PM 7.92 46.256 0.304 7.43 5.24 11.46
1/1/2022 9:30:00 PM 7.92 46.256 0.304 7.43 5.31 11.44
1/1/2022 9:45:00 PM 7.92 46.256 0.306 7.43 5.27 11.41
1/1/2022 10:00:00 PM 7.91 46.238 0.305 7.43 5.26 11.4
1/1/2022 10:15:00 PM 7.9 46.22 0.306 7.42 5.56 11.38
1/1/2022 10:30:00 PM 7.9 46.22 0.307 7.42 5.1 11.36
1/1/2022 10:45:00 PM 7.89 46.202 0.306 7.4 4.87 11.35
1/1/2022 11:00:00 PM 7.88 46.184 0.306 7.42 5.07 11.34
1/1/2022 11:15:00 PM 7.87 46.166 0.308 7.42 4.95 11.32
1/1/2022 11:30:00 PM 7.86 46.148 0.307 7.42 5.02 11.32
1/1/2022 11:45:00 PM 7.84 46.112 0.309 7.41 5.06 11.31
1/2/2022 12:00:00 AM 7.83 46.094 0.309 7.41 4.77 11.3
1/2/2022 12:15:00 AM 7.82 46.076 0.309 7.4 5.15 11.29
1/2/2022 12:30:00 AM 7.8 46.04 0.309 7.42 4.95 11.29
1/2/2022 12:45:00 AM 7.79 46.022 0.309 7.41 4.95 11.3
1/2/2022 1:00:00 AM 7.77 45.986 0.31 7.41 5.37 11.28
1/2/2022 1:15:00 AM 7.76 45.968 0.308 7.37 5.13 11.29
1/2/2022 1:30:00 AM 7.74 45.932 0.309 7.41 5 11.29
1/2/2022 1:45:00 AM 7.72 45.896 0.309 7.41 4.98 11.29
1/2/2022 2:00:00 AM 7.7 45.86 0.31 7.38 5.36 11.3
1/2/2022 2:15:00 AM 7.69 45.842 0.31 7.41 5.35 11.31
1/2/2022 2:30:00 AM 7.67 45.806 0.312 7.4 5.23 11.3
1/2/2022 2:45:00 AM 7.64 45.752 0.31 7.4 5.66 11.31
1/2/2022 3:00:00 AM 7.62 45.716 0.309 7.4 5.6 11.31
1/2/2022 3:15:00 AM 7.59 45.662 0.309 7.39 6.14 11.33
1/2/2022 3:30:00 AM 7.56 45.608 0.31 7.4 6.82 11.33
1/2/2022 3:45:00 AM 7.53 45.554 0.309 7.4 5.89 11.35
1/2/2022 4:00:00 AM 7.51 45.518 0.309 7.4 6.13 11.36
1/2/2022 4:15:00 AM 7.47 45.446 0.31 7.4 6.19 11.37
1/2/2022 4:30:00 AM 7.44 45.392 0.312 7.4 7.03 11.37
1/2/2022 4:45:00 AM 7.41 45.338 0.313 7.4 7 11.38
1/2/2022 5:00:00 AM 7.38 45.284 0.313 7.4 7.6 11.39
1/2/2022 5:15:00 AM 7.34 45.212 0.313 7.39 8.28 11.41
1/2/2022 5:30:00 AM 7.31 45.158 0.312 7.4 8.27 11.41
1/2/2022 5:45:00 AM 7.27 45.086 0.31 7.39 9.3 11.44
1/2/2022 6:00:00 AM 7.22 44.996 0.307 7.4 9.25 11.45
1/2/2022 6:15:00 AM 7.17 44.906 0.3 7.38 10.48 11.47
1/2/2022 6:30:00 AM 7.11 44.798 0.296 7.39 10.16 11.54
1/2/2022 6:45:00 AM 7.05 44.69 0.292 7.38 12.49 11.59
1/2/2022 7:00:00 AM 7 44.6 0.287 7.38 12.28 11.61
1/2/2022 7:15:00 AM 6.95 44.51 0.284 7.38 11.47 11.63
1/2/2022 7:30:00 AM 6.9 44.42 0.282 7.38 11.97 11.66
1/2/2022 7:45:00 AM 6.86 44.348 0.28 7.37 12.82 11.67
1/2/2022 8:00:00 AM 6.81 44.258 0.278 7.37 12.57 11.7
1/2/2022 8:15:00 AM 6.77 44.186 0.274 7.36 13.24 11.72
1/2/2022 8:30:00 AM 6.72 44.096 0.27 7.29 12.6 11.75
1/2/2022 8:45:00 AM 6.67 44.006 0.265 7.33 12.55 11.77
1/2/2022 9:00:00 AM 6.62 43.916 0.26 7.32 12.24 11.8
1/2/2022 9:15:00 AM 6.57 43.826 0.256 7.31 13.53 11.86
1/2/2022 9:30:00 AM 6.52 43.736 0.252 7.3 12.79 11.89
1/2/2022 9:45:00 AM 6.48 43.664 0.25 7.3 13.42 11.91
1/2/2022 10:00:00 AM 6.44 43.592 0.248 7.28 15.06 11.95
1/2/2022 10:15:00 AM 6.4 43.52 0.247 7.28 13.45 11.97
1/2/2022 10:30:00 AM 6.37 43.466 0.246 7.29 13.9 12
1/2/2022 10:45:00 AM 6.33 43.394 0.245 7.24 14.01 12.02
1/2/2022 11:00:00 AM 6.3 43.34 0.245 7.28 13.31 12.04
1/2/2022 11:15:00 AM 6.27 43.286 0.245 7.29 13.3 12.07
1/2/2022 11:30:00 AM 6.25 43.25 0.246 7.29 13.58 12.08
1/2/2022 11:45:00 AM 6.24 43.232 0.248 7.3 14.09 12.1
1/2/2022 12:00:00 PM 6.23 43.214 0.251 7.31 14.19 12.11
1/2/2022 12:15:00 PM 6.23 43.214 0.255 7.32 13.84 12.15
1/2/2022 12:30:00 PM 6.24 43.232 0.258 7.31 13.25 12.19
1/2/2022 12:45:00 PM 6.24 43.232 0.261 7.35 14.76 12.21
1/2/2022 1:00:00 PM 6.25 43.25 0.263 7.36 14.27 12.23
1/2/2022 1:15:00 PM 6.25 43.25 0.266 7.37 13.42 12.26
1/2/2022 1:30:00 PM 6.25 43.25 0.267 7.38 13.85 12.28
1/2/2022 1:45:00 PM 6.26 43.268 0.268 7.39 13.48 12.32
1/2/2022 2:00:00 PM 6.25 43.25 0.271 7.4 14.67 12.36
1/2/2022 2:15:00 PM 6.25 43.25 0.271 7.4 13.31 12.38
1/2/2022 2:30:00 PM 6.24 43.232 0.271 7.41 13.36 12.41
1/2/2022 2:45:00 PM 6.23 43.214 0.274 7.42 12.89 12.43
1/2/2022 3:00:00 PM 6.22 43.196 0.274 7.42 12.16 12.44
1/2/2022 3:15:00 PM 6.2 43.16 0.275 7.43 11.8 12.45
1/2/2022 3:30:00 PM 6.18 43.124 0.275 7.43 12.35 12.46
1/2/2022 3:45:00 PM 6.16 43.088 0.277 7.43 11.97 12.45
1/2/2022 4:00:00 PM 6.14 43.052 0.279 7.44 11.88 12.45
1/2/2022 4:15:00 PM 6.11 42.998 0.278 7.43 11.72 12.45
1/2/2022 4:30:00 PM 6.08 42.944 0.28 7.43 11.37 12.44
1/2/2022 4:45:00 PM 6.06 42.908 0.282 7.43 10.43 12.44
1/2/2022 5:00:00 PM 6.04 42.872 0.282 7.43 10 12.44
1/2/2022 5:15:00 PM 6.02 42.836 0.285 7.43 10.46 12.43
1/2/2022 5:30:00 PM 5.99 42.782 0.284 7.43 10.13 12.42
1/2/2022 5:45:00 PM 5.97 42.746 0.285 7.43 9.49 12.42
1/2/2022 6:00:00 PM 5.94 42.692 0.285 7.42 8.68 12.39
1/2/2022 6:15:00 PM 5.92 42.656 0.285 7.42 8.88 12.38
1/2/2022 6:30:00 PM 5.89 42.602 0.286 7.42 9.53 12.38
1/2/2022 6:45:00 PM 5.87 42.566 0.286 7.35 8.46 12.37
1/2/2022 7:00:00 PM 5.85 42.53 0.286 7.42 8.28 12.37
1/2/2022 7:15:00 PM 5.83 42.494 0.286 7.41 8.66 12.36
1/2/2022 7:30:00 PM 5.81 42.458 0.286 7.41 10.01 12.35
1/2/2022 7:45:00 PM 5.8 42.44 0.287 7.41 9.05 12.32
1/2/2022 8:00:00 PM 5.78 42.404 0.288 7.35 8.1 12.32
1/2/2022 8:15:00 PM 5.76 42.368 0.289 7.41 8.57 12.3
1/2/2022 8:30:00 PM 5.75 42.35 0.29 7.4 7.95 12.29
1/2/2022 8:45:00 PM 5.72 42.296 0.289 7.4 8.4 12.28
1/2/2022 9:00:00 PM 5.7 42.26 0.29 7.4 8.14 12.27
1/2/2022 9:15:00 PM 5.68 42.224 0.29 7.39 7.98 12.26
1/2/2022 9:30:00 PM 5.66 42.188 0.29 7.4 7.84 12.25
1/2/2022 9:45:00 PM 5.64 42.152 0.291 7.4 7.62 12.25
1/2/2022 10:00:00 PM 5.61 42.098 0.292 7.33 7.79 12.25
1/2/2022 10:15:00 PM 5.58 42.044 0.292 7.39 7.44 12.25
1/2/2022 10:30:00 PM 5.55 41.99 0.292 7.39 7.24 12.24
1/2/2022 10:45:00 PM 5.53 41.954 0.292 7.38 7.1 12.24
1/2/2022 11:00:00 PM 5.5 41.9 0.292 7.38 7.49 12.25
1/2/2022 11:15:00 PM 5.47 41.846 0.293 7.38 7.19 12.25
1/2/2022 11:30:00 PM 5.44 41.792 0.293 7.38 7.18 12.27
1/2/2022 11:45:00 PM 5.41 41.738 0.293 7.38 7.3 12.26
1/3/2022 12:00:00 AM 5.38 41.684 0.294 7.38 6.89 12.27
1/3/2022 12:15:00 AM 5.34 41.612 0.294 7.37 9.17 12.28
1/3/2022 12:30:00 AM 5.29 41.522 0.294 7.36 6.32 12.29
1/3/2022 12:45:00 AM 5.25 41.45 0.294 7.37 6.48 12.29
1/3/2022 1:00:00 AM 5.21 41.378 0.296 7.37 6.28 12.29
1/3/2022 1:15:00 AM 5.17 41.306 0.294 7.37 6.3 12.28
1/3/2022 1:30:00 AM 5.15 41.27 0.294 7.37 6.22 12.28
1/3/2022 1:45:00 AM 5.11 41.198 0.297 7.37 6.59 12.28
1/3/2022 2:00:00 AM 5.07 41.126 0.297 7.36 6.28 12.28
1/3/2022 2:15:00 AM 5.02 41.036 0.298 7.36 5.84 12.3
1/3/2022 2:30:00 AM 4.98 40.964 0.297 7.36 5.82 12.32
1/3/2022 2:45:00 AM 4.94 40.892 0.297 7.36 5.82 12.33
1/3/2022 3:00:00 AM 4.91 40.838 0.297 7.35 5.53 12.34
1/3/2022 3:15:00 AM 4.86 40.748 0.299 7.36 5.78 12.36
1/3/2022 3:30:00 AM 4.83 40.694 0.298 7.35 5.75 12.37
1/3/2022 3:45:00 AM 4.79 40.622 0.298 7.36 5.79 12.39
1/3/2022 4:00:00 AM 4.75 40.55 0.3 7.36 5.84 12.37
1/3/2022 4:15:00 AM 4.7 40.46 0.3 7.36 5.8 12.41
1/3/2022 4:30:00 AM 4.66 40.388 0.3 7.36 5.45 12.41
1/3/2022 4:45:00 AM 4.62 40.316 0.3 7.36 5.71 12.42
1/3/2022 5:00:00 AM 4.57 40.226 0.3 7.36 5.73 12.41
1/3/2022 5:15:00 AM 4.54 40.172 0.301 7.36 5.77 12.43
1/3/2022 5:30:00 AM 4.5 40.1 0.302 7.36 5.63 12.44
1/3/2022 5:45:00 AM 4.47 40.046 0.303 7.36 5.25 12.45
1/3/2022 6:00:00 AM 4.44 39.992 0.303 7.36 5.49 12.48
1/3/2022 6:15:00 AM 4.4 39.92 0.303 7.36 5.24 12.49
1/3/2022 6:30:00 AM 4.35 39.83 0.303 7.33 5.31 12.5
1/3/2022 6:45:00 AM 4.32 39.776 0.304 7.37 5.23 12.53
1/3/2022 7:00:00 AM 4.28 39.704 0.304 7.37 5.24 12.53
1/3/2022 7:15:00 AM 4.25 39.65 0.304 7.36 5.45 12.55
1/3/2022 7:30:00 AM 4.22 39.596 0.304 7.36 5.11 12.57
1/3/2022 7:45:00 AM 4.19 39.542 0.305 7.37 5.52 12.57
1/3/2022 8:00:00 AM 4.16 39.488 0.305 7.37 4.92 12.59
1/3/2022 8:15:00 AM 4.14 39.452 0.305 7.37 5.12 12.61
1/3/2022 8:30:00 AM 4.12 39.416 0.307 7.37 5.36 12.62
1/3/2022 8:45:00 AM 4.11 39.398 0.306 7.38 4.81 12.62
1/3/2022 9:00:00 AM 4.08 39.344 0.307 7.38 5.04 12.67
1/3/2022 9:15:00 AM 4.07 39.326 0.308 7.39 4.67 12.7
1/3/2022 9:30:00 AM 4.06 39.308 0.307 7.39 4.5 12.73
1/3/2022 9:45:00 AM 4.06 39.308 0.307 7.4 5.06 12.76
1/3/2022 10:00:00 AM 4.05 39.29 0.308 7.41 4.73 12.81
1/3/2022 10:15:00 AM 4.05 39.29 0.309 7.41 4.79 12.86
1/3/2022 10:30:00 AM 4.05 39.29 0.31 7.42 4.74 12.91
1/3/2022 10:45:00 AM 4.05 39.29 0.309 7.37 5.44 12.95
1/3/2022 11:00:00 AM 4.04 39.272 0.31 7.44 5.05 12.99
1/3/2022 11:15:00 AM 4.04 39.272 0.31 7.45 4.95 13.04
1/3/2022 11:30:00 AM 4.05 39.29 0.31 7.42 5.01 13.11
1/3/2022 11:45:00 AM 4.06 39.308 0.311 7.46 5.21 13.15
1/3/2022 12:00:00 PM 4.06 39.308 0.311 7.46 5.11 13.18
1/3/2022 12:15:00 PM 4.06 39.308 0.312 7.45 5.26 13.22
1/3/2022 12:30:00 PM 4.06 39.308 0.312 7.48 5.24 13.25
1/3/2022 12:45:00 PM 4.06 39.308 0.312 7.49 5.43 13.32
1/3/2022 1:00:00 PM 4.08 39.344 0.312 7.5 5.32 13.38
1/3/2022 1:15:00 PM 4.1 39.38 0.312 7.5 4.56 13.42
1/3/2022 1:30:00 PM 4.12 39.416 0.313 7.51 4.41 13.46
1/3/2022 1:45:00 PM 4.14 39.452 0.314 7.52 4.56 13.5
1/3/2022 2:00:00 PM 4.15 39.47 0.314 7.52 4.91 13.5
1/3/2022 2:15:00 PM 4.17 39.506 0.314 7.53 5.09 13.57
1/3/2022 2:30:00 PM 4.16 39.488 0.316 7.52 4.54 13.44
1/3/2022 2:45:00 PM 4.14 39.452 0.318 7.54 4.78 13.59
1/3/2022 3:00:00 PM 4.13 39.434 0.318 7.53 5.05 13.57
1/3/2022 3:15:00 PM 4.12 39.416 0.318 7.54 5.19 13.6
1/3/2022 3:30:00 PM 4.1 39.38 0.317 7.55 6.15 13.59
1/3/2022 3:45:00 PM 4.09 39.362 0.318 7.55 6.7 13.61
1/3/2022 4:00:00 PM 4.06 39.308 0.318 7.55 6.31 13.57
1/3/2022 4:15:00 PM 4.04 39.272 0.319 7.55 6.72 13.57
1/3/2022 4:30:00 PM 4.02 39.236 0.318 7.55 6.69 13.56
1/3/2022 4:45:00 PM 3.99 39.182 0.319 7.55 5.41 13.53
1/3/2022 5:00:00 PM 3.97 39.146 0.319 7.55 5.85 13.51
1/3/2022 5:15:00 PM 3.95 39.11 0.32 7.55 5.42 13.48
1/3/2022 5:30:00 PM 3.91 39.038 0.321 7.55 5.55 13.46
1/3/2022 5:45:00 PM 3.9 39.02 0.321 7.55 5.26 13.43
1/3/2022 6:00:00 PM 3.88 38.984 0.322 7.55 5.18 13.4
1/3/2022 6:15:00 PM 3.86 38.948 0.323 7.54 4.98 13.35
1/3/2022 6:30:00 PM 3.83 38.894 0.323 7.54 4.7 13.34
1/3/2022 6:45:00 PM 3.8 38.84 0.323 7.54 4.54 13.31
1/3/2022 7:00:00 PM 3.76 38.768 0.325 7.53 4.79 13.28
1/3/2022 7:15:00 PM 3.72 38.696 0.324 7.53 4.6 13.24
1/3/2022 7:30:00 PM 3.69 38.642 0.325 7.51 5.62 13.19
1/3/2022 7:45:00 PM 3.66 38.588 0.325 7.5 4.78 13.2
1/3/2022 8:00:00 PM 3.63 38.534 0.325 7.5 5.05 13.17
1/3/2022 8:15:00 PM 3.61 38.498 0.326 7.5 5.39 13.14
1/3/2022 8:30:00 PM 3.58 38.444 0.326 7.5 4.83 13.12
1/3/2022 8:45:00 PM 3.56 38.408 0.327 7.48 5.06 13.1
1/3/2022 9:00:00 PM 3.53 38.354 0.327 7.49 5.03 13.07
1/3/2022 9:15:00 PM 3.5 38.3 0.327 7.44 5 13.04
1/3/2022 9:30:00 PM 3.47 38.246 0.327 7.48 4.84 13.05
1/3/2022 9:45:00 PM 3.44 38.192 0.327 7.48 4.8 13.03
1/3/2022 10:00:00 PM 3.42 38.156 0.327 7.47 4.47 13.01
1/3/2022 10:15:00 PM 3.39 38.102 0.327 7.47 4.71 13.01
1/3/2022 10:30:00 PM 3.36 38.048 0.329 7.46 4.45 13
1/3/2022 10:45:00 PM 3.32 37.976 0.329 7.46 4.57 13.01
1/3/2022 11:00:00 PM 3.29 37.922 0.328 7.46 4.65 13.01
1/3/2022 11:15:00 PM 3.26 37.868 0.329 7.45 4.39 13
1/3/2022 11:30:00 PM 3.23 37.814 0.33 7.44 4.99 12.99
1/3/2022 11:45:00 PM 3.2 37.76 0.33 7.44 5.32 12.99
1/4/2022 12:00:00 AM 3.17 37.706 0.33 7.44 5.59 12.99
1/4/2022 12:15:00 AM 3.15 37.67 0.331 7.39 6.42 12.98
1/4/2022 12:30:00 AM 3.12 37.616 0.331 7.43 6.54 12.98
1/4/2022 12:45:00 AM 3.09 37.562 0.33 7.43 7.08 12.98
1/4/2022 1:00:00 AM 3.08 37.544 0.33 7.43 8.01 12.98
1/4/2022 1:15:00 AM 3.04 37.472 0.331 7.37 7.04 12.97
1/4/2022 1:30:00 AM 3.02 37.436 0.331 7.43 7.28 12.97
1/4/2022 1:45:00 AM 2.99 37.382 0.331 7.42 6.86 12.97
1/4/2022 2:00:00 AM 2.96 37.328 0.331 7.42 6.24 12.96
1/4/2022 2:15:00 AM 2.94 37.292 0.332 7.42 6.12 12.95
1/4/2022 2:30:00 AM 2.91 37.238 0.332 7.42 5.68 12.96
1/4/2022 2:45:00 AM 2.88 37.184 0.332 7.42 5.71 12.97
1/4/2022 3:00:00 AM 2.86 37.148 0.333 7.42 5.86 12.96
1/4/2022 3:15:00 AM 2.84 37.112 0.334 7.37 5.37 12.95
1/4/2022 3:30:00 AM 2.83 37.094 0.334 7.41 5.36 12.98
1/4/2022 3:45:00 AM 2.81 37.058 0.335 7.41 4.97 12.98
1/4/2022 4:00:00 AM 2.8 37.04 0.335 7.41 4.83 12.98
1/4/2022 4:15:00 AM 2.78 37.004 0.336 7.41 4.73 12.98
1/4/2022 4:30:00 AM 2.77 36.986 0.337 7.4 4.83 12.97
1/4/2022 4:45:00 AM 2.76 36.968 0.337 7.4 4.57 12.97
1/4/2022 5:00:00 AM 2.75 36.95 0.338 7.4 4.52 12.99
1/4/2022 5:15:00 AM 2.74 36.932 0.338 7.4 4.69 12.97
1/4/2022 5:30:00 AM 2.73 36.914 0.339 7.4 4.41 12.97
1/4/2022 5:45:00 AM 2.72 36.896 0.341 7.4 4.48 12.95
1/4/2022 6:00:00 AM 2.7 36.86 0.341 7.4 4.74 12.95
1/4/2022 6:15:00 AM 2.68 36.824 0.343 7.4 4.68 12.97
1/4/2022 6:30:00 AM 2.65 36.77 0.343 7.39 4.84 12.95
1/4/2022 6:45:00 AM 2.63 36.734 0.344 7.4 4.75 12.98
1/4/2022 7:00:00 AM 2.6 36.68 0.344 7.4 4.49 13
1/4/2022 7:15:00 AM 2.58 36.644 0.346 7.39 4.92 12.95
1/4/2022 7:30:00 AM 2.59 36.662 0.348 7.39 4.94 12.84
1/4/2022 7:45:00 AM 2.54 36.572 0.345 7.4 4.55 13.03
1/4/2022 8:00:00 AM 2.52 36.536 0.346 7.39 4.45 13.03
1/4/2022 8:15:00 AM 2.5 36.5 0.348 7.37 5.17 13
1/4/2022 8:30:00 AM 2.5 36.5 0.352 7.41 5.94 13.01
1/4/2022 8:45:00 AM 2.48 36.464 0.35 7.41 4.71 13.03
1/4/2022 9:00:00 AM 2.46 36.428 0.351 7.37 4.89 13.06
1/4/2022 9:15:00 AM 2.45 36.41 0.351 7.43 4.89 13.09